<?xml version="1.0" encoding="UTF-8" standalone="no" ?>
<gpx xmlns="http://www.topografix.com/GPX/1/1" xmlns:xsi="http://www.w3.org/2001/XMLSchema-instance" xsi:schemaLocation="http://www.topografix.com/GPX/1/1 http://www.topografix.com/GPX/1/1/gpx.xsd" version="1.1" creator="VisuGPX - https://www.visugpx.com">
  <metadata>
    <name>Randonnée du 09/07/2026 Boucle cascade de la Crache</name>
  </metadata>
  <trk>
    <name><![CDATA[Parcours du 09/07/2026 17h02]]></name>
    <trkseg>
      <trkpt lat="48.49357" lon="7.13142">
        <ele>760.7249</ele>
        <time>2026-07-09T12:30:08Z</time>
      </trkpt>
      <trkpt lat="48.49357" lon="7.13142">
        <ele>760.7221</ele>
        <time>2026-07-09T12:30:09Z</time>
      </trkpt>
      <trkpt lat="48.49353" lon="7.13139">
        <ele>760.7221</ele>
        <time>2026-07-09T12:30:49Z</time>
      </trkpt>
      <trkpt lat="48.49357" lon="7.13144">
        <ele>760.7221</ele>
        <time>2026-07-09T12:30:57Z</time>
      </trkpt>
      <trkpt lat="48.49362" lon="7.13141">
        <ele>760.72266</ele>
        <time>2026-07-09T12:31:04Z</time>
      </trkpt>
      <trkpt lat="48.49366" lon="7.13136">
        <ele>760.7221</ele>
        <time>2026-07-09T12:31:11Z</time>
      </trkpt>
      <trkpt lat="48.49369" lon="7.13131">
        <ele>760.7221</ele>
        <time>2026-07-09T12:31:15Z</time>
      </trkpt>
      <trkpt lat="48.49373" lon="7.13127">
        <ele>760.7221</ele>
        <time>2026-07-09T12:31:20Z</time>
      </trkpt>
      <trkpt lat="48.49377" lon="7.13123">
        <ele>760.7221</ele>
        <time>2026-07-09T12:31:25Z</time>
      </trkpt>
      <trkpt lat="48.4938" lon="7.13118">
        <ele>760.7221</ele>
        <time>2026-07-09T12:31:33Z</time>
      </trkpt>
      <trkpt lat="48.49382" lon="7.13111">
        <ele>760.7221</ele>
        <time>2026-07-09T12:31:38Z</time>
      </trkpt>
      <trkpt lat="48.49385" lon="7.13103">
        <ele>760.7221</ele>
        <time>2026-07-09T12:31:42Z</time>
      </trkpt>
      <trkpt lat="48.49387" lon="7.13096">
        <ele>760.7221</ele>
        <time>2026-07-09T12:31:49Z</time>
      </trkpt>
      <trkpt lat="48.4939" lon="7.13088">
        <ele>760.7221</ele>
        <time>2026-07-09T12:31:55Z</time>
      </trkpt>
      <trkpt lat="48.49392" lon="7.13081">
        <ele>760.7221</ele>
        <time>2026-07-09T12:31:59Z</time>
      </trkpt>
      <trkpt lat="48.49393" lon="7.13073">
        <ele>760.7221</ele>
        <time>2026-07-09T12:32:08Z</time>
      </trkpt>
      <trkpt lat="48.49395" lon="7.13064">
        <ele>760.7221</ele>
        <time>2026-07-09T12:32:14Z</time>
      </trkpt>
      <trkpt lat="48.49397" lon="7.13055">
        <ele>760.7221</ele>
        <time>2026-07-09T12:32:22Z</time>
      </trkpt>
      <trkpt lat="48.49397" lon="7.13049">
        <ele>760.7221</ele>
        <time>2026-07-09T12:32:26Z</time>
      </trkpt>
      <trkpt lat="48.49397" lon="7.13041">
        <ele>760.7221</ele>
        <time>2026-07-09T12:32:31Z</time>
      </trkpt>
      <trkpt lat="48.49397" lon="7.13034">
        <ele>760.7221</ele>
        <time>2026-07-09T12:32:35Z</time>
      </trkpt>
      <trkpt lat="48.49397" lon="7.13027">
        <ele>760.7221</ele>
        <time>2026-07-09T12:32:40Z</time>
      </trkpt>
      <trkpt lat="48.49397" lon="7.1302">
        <ele>760.7221</ele>
        <time>2026-07-09T12:32:44Z</time>
      </trkpt>
      <trkpt lat="48.49397" lon="7.13013">
        <ele>760.7221</ele>
        <time>2026-07-09T12:32:49Z</time>
      </trkpt>
      <trkpt lat="48.49396" lon="7.13007">
        <ele>760.7221</ele>
        <time>2026-07-09T12:32:54Z</time>
      </trkpt>
      <trkpt lat="48.49395" lon="7.12999">
        <ele>760.7221</ele>
        <time>2026-07-09T12:32:59Z</time>
      </trkpt>
      <trkpt lat="48.49394" lon="7.12991">
        <ele>760.7221</ele>
        <time>2026-07-09T12:33:06Z</time>
      </trkpt>
      <trkpt lat="48.49394" lon="7.12984">
        <ele>758.4894</ele>
        <time>2026-07-09T12:33:14Z</time>
      </trkpt>
      <trkpt lat="48.49392" lon="7.12974">
        <ele>756.25665</ele>
        <time>2026-07-09T12:33:18Z</time>
      </trkpt>
      <trkpt lat="48.49391" lon="7.12967">
        <ele>754.02386</ele>
        <time>2026-07-09T12:33:22Z</time>
      </trkpt>
      <trkpt lat="48.49391" lon="7.12958">
        <ele>751.79114</ele>
        <time>2026-07-09T12:33:27Z</time>
      </trkpt>
      <trkpt lat="48.49389" lon="7.1295">
        <ele>749.5584</ele>
        <time>2026-07-09T12:33:31Z</time>
      </trkpt>
      <trkpt lat="48.49388" lon="7.12942">
        <ele>749.5584</ele>
        <time>2026-07-09T12:33:35Z</time>
      </trkpt>
      <trkpt lat="48.49387" lon="7.12935">
        <ele>749.5584</ele>
        <time>2026-07-09T12:34:39Z</time>
      </trkpt>
      <trkpt lat="48.49386" lon="7.12928">
        <ele>749.5584</ele>
        <time>2026-07-09T12:34:43Z</time>
      </trkpt>
      <trkpt lat="48.49386" lon="7.12919">
        <ele>749.5584</ele>
        <time>2026-07-09T12:34:52Z</time>
      </trkpt>
      <trkpt lat="48.49385" lon="7.1291">
        <ele>749.5584</ele>
        <time>2026-07-09T12:34:57Z</time>
      </trkpt>
      <trkpt lat="48.49384" lon="7.12903">
        <ele>749.5584</ele>
        <time>2026-07-09T12:35:03Z</time>
      </trkpt>
      <trkpt lat="48.49384" lon="7.12896">
        <ele>749.5584</ele>
        <time>2026-07-09T12:35:07Z</time>
      </trkpt>
      <trkpt lat="48.49384" lon="7.12886">
        <ele>749.5584</ele>
        <time>2026-07-09T12:35:12Z</time>
      </trkpt>
      <trkpt lat="48.49384" lon="7.12878">
        <ele>749.5584</ele>
        <time>2026-07-09T12:35:20Z</time>
      </trkpt>
      <trkpt lat="48.49383" lon="7.12872">
        <ele>749.5584</ele>
        <time>2026-07-09T12:35:23Z</time>
      </trkpt>
      <trkpt lat="48.49383" lon="7.12864">
        <ele>749.5584</ele>
        <time>2026-07-09T12:35:27Z</time>
      </trkpt>
      <trkpt lat="48.49383" lon="7.12858">
        <ele>749.5584</ele>
        <time>2026-07-09T12:35:32Z</time>
      </trkpt>
      <trkpt lat="48.49382" lon="7.12849">
        <ele>749.5584</ele>
        <time>2026-07-09T12:35:36Z</time>
      </trkpt>
      <trkpt lat="48.49382" lon="7.1284">
        <ele>749.5584</ele>
        <time>2026-07-09T12:35:40Z</time>
      </trkpt>
      <trkpt lat="48.49382" lon="7.12833">
        <ele>749.5584</ele>
        <time>2026-07-09T12:35:44Z</time>
      </trkpt>
      <trkpt lat="48.49382" lon="7.12826">
        <ele>749.5584</ele>
        <time>2026-07-09T12:35:48Z</time>
      </trkpt>
      <trkpt lat="48.49381" lon="7.12818">
        <ele>749.5584</ele>
        <time>2026-07-09T12:35:53Z</time>
      </trkpt>
      <trkpt lat="48.49381" lon="7.12811">
        <ele>749.5584</ele>
        <time>2026-07-09T12:35:59Z</time>
      </trkpt>
      <trkpt lat="48.49381" lon="7.12804">
        <ele>749.5584</ele>
        <time>2026-07-09T12:36:03Z</time>
      </trkpt>
      <trkpt lat="48.4938" lon="7.12795">
        <ele>749.5584</ele>
        <time>2026-07-09T12:36:08Z</time>
      </trkpt>
      <trkpt lat="48.4938" lon="7.12788">
        <ele>749.5584</ele>
        <time>2026-07-09T12:36:12Z</time>
      </trkpt>
      <trkpt lat="48.49379" lon="7.12781">
        <ele>749.5584</ele>
        <time>2026-07-09T12:36:18Z</time>
      </trkpt>
      <trkpt lat="48.49379" lon="7.12774">
        <ele>749.5584</ele>
        <time>2026-07-09T12:36:22Z</time>
      </trkpt>
      <trkpt lat="48.49377" lon="7.12767">
        <ele>749.5584</ele>
        <time>2026-07-09T12:36:28Z</time>
      </trkpt>
      <trkpt lat="48.49377" lon="7.12759">
        <ele>749.5584</ele>
        <time>2026-07-09T12:36:33Z</time>
      </trkpt>
      <trkpt lat="48.49376" lon="7.12752">
        <ele>749.5584</ele>
        <time>2026-07-09T12:36:38Z</time>
      </trkpt>
      <trkpt lat="48.49374" lon="7.12745">
        <ele>749.5584</ele>
        <time>2026-07-09T12:36:43Z</time>
      </trkpt>
      <trkpt lat="48.49374" lon="7.12738">
        <ele>749.5584</ele>
        <time>2026-07-09T12:36:48Z</time>
      </trkpt>
      <trkpt lat="48.49372" lon="7.12731">
        <ele>749.5584</ele>
        <time>2026-07-09T12:36:52Z</time>
      </trkpt>
      <trkpt lat="48.49371" lon="7.12724">
        <ele>749.5584</ele>
        <time>2026-07-09T12:36:57Z</time>
      </trkpt>
      <trkpt lat="48.49369" lon="7.12717">
        <ele>747.4708</ele>
        <time>2026-07-09T12:37:02Z</time>
      </trkpt>
      <trkpt lat="48.49367" lon="7.1271">
        <ele>745.38324</ele>
        <time>2026-07-09T12:37:07Z</time>
      </trkpt>
      <trkpt lat="48.49366" lon="7.12703">
        <ele>743.29565</ele>
        <time>2026-07-09T12:37:12Z</time>
      </trkpt>
      <trkpt lat="48.49363" lon="7.12697">
        <ele>741.20807</ele>
        <time>2026-07-09T12:37:19Z</time>
      </trkpt>
      <trkpt lat="48.4936" lon="7.1269">
        <ele>739.1205</ele>
        <time>2026-07-09T12:37:26Z</time>
      </trkpt>
      <trkpt lat="48.49357" lon="7.12683">
        <ele>739.1205</ele>
        <time>2026-07-09T12:37:32Z</time>
      </trkpt>
      <trkpt lat="48.49354" lon="7.12676">
        <ele>739.1205</ele>
        <time>2026-07-09T12:37:37Z</time>
      </trkpt>
      <trkpt lat="48.49351" lon="7.1267">
        <ele>739.1205</ele>
        <time>2026-07-09T12:37:42Z</time>
      </trkpt>
      <trkpt lat="48.49348" lon="7.12665">
        <ele>739.1205</ele>
        <time>2026-07-09T12:37:47Z</time>
      </trkpt>
      <trkpt lat="48.49345" lon="7.12659">
        <ele>739.1205</ele>
        <time>2026-07-09T12:37:55Z</time>
      </trkpt>
      <trkpt lat="48.49342" lon="7.12652">
        <ele>739.1205</ele>
        <time>2026-07-09T12:38:00Z</time>
      </trkpt>
      <trkpt lat="48.4934" lon="7.12645">
        <ele>739.1205</ele>
        <time>2026-07-09T12:38:08Z</time>
      </trkpt>
      <trkpt lat="48.49342" lon="7.12638">
        <ele>739.1205</ele>
        <time>2026-07-09T12:38:12Z</time>
      </trkpt>
      <trkpt lat="48.49344" lon="7.12631">
        <ele>739.1205</ele>
        <time>2026-07-09T12:38:16Z</time>
      </trkpt>
      <trkpt lat="48.49344" lon="7.12623">
        <ele>739.1205</ele>
        <time>2026-07-09T12:38:20Z</time>
      </trkpt>
      <trkpt lat="48.49345" lon="7.12616">
        <ele>739.1205</ele>
        <time>2026-07-09T12:38:25Z</time>
      </trkpt>
      <trkpt lat="48.49347" lon="7.12608">
        <ele>739.1205</ele>
        <time>2026-07-09T12:38:29Z</time>
      </trkpt>
      <trkpt lat="48.49348" lon="7.12601">
        <ele>739.1205</ele>
        <time>2026-07-09T12:38:34Z</time>
      </trkpt>
      <trkpt lat="48.49349" lon="7.12594">
        <ele>739.1205</ele>
        <time>2026-07-09T12:38:42Z</time>
      </trkpt>
      <trkpt lat="48.4935" lon="7.12586">
        <ele>739.1205</ele>
        <time>2026-07-09T12:38:47Z</time>
      </trkpt>
      <trkpt lat="48.49352" lon="7.1258">
        <ele>739.1205</ele>
        <time>2026-07-09T12:38:50Z</time>
      </trkpt>
      <trkpt lat="48.49353" lon="7.12573">
        <ele>737.1171</ele>
        <time>2026-07-09T12:38:58Z</time>
      </trkpt>
      <trkpt lat="48.49356" lon="7.12565">
        <ele>735.11383</ele>
        <time>2026-07-09T12:39:05Z</time>
      </trkpt>
      <trkpt lat="48.49357" lon="7.12558">
        <ele>733.1105</ele>
        <time>2026-07-09T12:39:11Z</time>
      </trkpt>
      <trkpt lat="48.49359" lon="7.12552">
        <ele>731.1072</ele>
        <time>2026-07-09T12:39:15Z</time>
      </trkpt>
      <trkpt lat="48.49361" lon="7.12545">
        <ele>729.1038</ele>
        <time>2026-07-09T12:39:21Z</time>
      </trkpt>
      <trkpt lat="48.49363" lon="7.12539">
        <ele>729.1038</ele>
        <time>2026-07-09T12:39:27Z</time>
      </trkpt>
      <trkpt lat="48.49365" lon="7.12533">
        <ele>729.1038</ele>
        <time>2026-07-09T12:39:42Z</time>
      </trkpt>
      <trkpt lat="48.49369" lon="7.12524">
        <ele>729.1038</ele>
        <time>2026-07-09T12:39:47Z</time>
      </trkpt>
      <trkpt lat="48.49373" lon="7.12517">
        <ele>729.1038</ele>
        <time>2026-07-09T12:39:55Z</time>
      </trkpt>
      <trkpt lat="48.49376" lon="7.1251">
        <ele>729.1038</ele>
        <time>2026-07-09T12:39:59Z</time>
      </trkpt>
      <trkpt lat="48.49379" lon="7.12505">
        <ele>729.1038</ele>
        <time>2026-07-09T12:40:12Z</time>
      </trkpt>
      <trkpt lat="48.49382" lon="7.125">
        <ele>729.1038</ele>
        <time>2026-07-09T12:40:15Z</time>
      </trkpt>
      <trkpt lat="48.49386" lon="7.12493">
        <ele>729.1038</ele>
        <time>2026-07-09T12:40:18Z</time>
      </trkpt>
      <trkpt lat="48.49389" lon="7.12487">
        <ele>726.84766</ele>
        <time>2026-07-09T12:40:25Z</time>
      </trkpt>
      <trkpt lat="48.49392" lon="7.1248">
        <ele>724.5915</ele>
        <time>2026-07-09T12:40:30Z</time>
      </trkpt>
      <trkpt lat="48.49394" lon="7.12474">
        <ele>722.3353</ele>
        <time>2026-07-09T12:40:36Z</time>
      </trkpt>
      <trkpt lat="48.49396" lon="7.12465">
        <ele>720.07916</ele>
        <time>2026-07-09T12:40:45Z</time>
      </trkpt>
      <trkpt lat="48.49398" lon="7.12459">
        <ele>717.823</ele>
        <time>2026-07-09T12:40:54Z</time>
      </trkpt>
      <trkpt lat="48.494" lon="7.12451">
        <ele>717.823</ele>
        <time>2026-07-09T12:41:00Z</time>
      </trkpt>
      <trkpt lat="48.49402" lon="7.12445">
        <ele>717.823</ele>
        <time>2026-07-09T12:41:07Z</time>
      </trkpt>
      <trkpt lat="48.49403" lon="7.12438">
        <ele>717.823</ele>
        <time>2026-07-09T12:41:12Z</time>
      </trkpt>
      <trkpt lat="48.49405" lon="7.12431">
        <ele>717.823</ele>
        <time>2026-07-09T12:41:17Z</time>
      </trkpt>
      <trkpt lat="48.49406" lon="7.12424">
        <ele>717.823</ele>
        <time>2026-07-09T12:41:21Z</time>
      </trkpt>
      <trkpt lat="48.49408" lon="7.12418">
        <ele>717.823</ele>
        <time>2026-07-09T12:41:27Z</time>
      </trkpt>
      <trkpt lat="48.4941" lon="7.12411">
        <ele>717.823</ele>
        <time>2026-07-09T12:41:31Z</time>
      </trkpt>
      <trkpt lat="48.49412" lon="7.12404">
        <ele>717.823</ele>
        <time>2026-07-09T12:41:38Z</time>
      </trkpt>
      <trkpt lat="48.49414" lon="7.12397">
        <ele>715.7002</ele>
        <time>2026-07-09T12:41:44Z</time>
      </trkpt>
      <trkpt lat="48.49416" lon="7.1239">
        <ele>713.57745</ele>
        <time>2026-07-09T12:41:51Z</time>
      </trkpt>
      <trkpt lat="48.49418" lon="7.12382">
        <ele>711.45465</ele>
        <time>2026-07-09T12:41:59Z</time>
      </trkpt>
      <trkpt lat="48.4942" lon="7.12375">
        <ele>709.3319</ele>
        <time>2026-07-09T12:42:06Z</time>
      </trkpt>
      <trkpt lat="48.49423" lon="7.12367">
        <ele>707.2091</ele>
        <time>2026-07-09T12:42:10Z</time>
      </trkpt>
      <trkpt lat="48.49426" lon="7.1236">
        <ele>707.2091</ele>
        <time>2026-07-09T12:42:20Z</time>
      </trkpt>
      <trkpt lat="48.49429" lon="7.12354">
        <ele>707.2091</ele>
        <time>2026-07-09T12:42:28Z</time>
      </trkpt>
      <trkpt lat="48.4943" lon="7.12347">
        <ele>707.2091</ele>
        <time>2026-07-09T12:42:36Z</time>
      </trkpt>
      <trkpt lat="48.4943" lon="7.1234">
        <ele>707.2091</ele>
        <time>2026-07-09T12:42:39Z</time>
      </trkpt>
      <trkpt lat="48.49429" lon="7.12332">
        <ele>707.2091</ele>
        <time>2026-07-09T12:42:42Z</time>
      </trkpt>
      <trkpt lat="48.49432" lon="7.12324">
        <ele>707.2091</ele>
        <time>2026-07-09T12:42:48Z</time>
      </trkpt>
      <trkpt lat="48.49435" lon="7.12316">
        <ele>707.2091</ele>
        <time>2026-07-09T12:42:54Z</time>
      </trkpt>
      <trkpt lat="48.49438" lon="7.12311">
        <ele>705.09973</ele>
        <time>2026-07-09T12:43:00Z</time>
      </trkpt>
      <trkpt lat="48.49441" lon="7.12306">
        <ele>702.99036</ele>
        <time>2026-07-09T12:43:05Z</time>
      </trkpt>
      <trkpt lat="48.49443" lon="7.12298">
        <ele>700.8809</ele>
        <time>2026-07-09T12:43:11Z</time>
      </trkpt>
      <trkpt lat="48.49447" lon="7.12295">
        <ele>698.77155</ele>
        <time>2026-07-09T12:43:17Z</time>
      </trkpt>
      <trkpt lat="48.49451" lon="7.12292">
        <ele>696.6622</ele>
        <time>2026-07-09T12:43:21Z</time>
      </trkpt>
      <trkpt lat="48.49455" lon="7.12285">
        <ele>696.6622</ele>
        <time>2026-07-09T12:43:26Z</time>
      </trkpt>
      <trkpt lat="48.49459" lon="7.12281">
        <ele>696.6622</ele>
        <time>2026-07-09T12:43:29Z</time>
      </trkpt>
      <trkpt lat="48.49463" lon="7.12278">
        <ele>696.6622</ele>
        <time>2026-07-09T12:43:35Z</time>
      </trkpt>
      <trkpt lat="48.49466" lon="7.12273">
        <ele>696.6622</ele>
        <time>2026-07-09T12:43:42Z</time>
      </trkpt>
      <trkpt lat="48.49471" lon="7.12271">
        <ele>696.6622</ele>
        <time>2026-07-09T12:43:47Z</time>
      </trkpt>
      <trkpt lat="48.49476" lon="7.12272">
        <ele>696.6622</ele>
        <time>2026-07-09T12:43:50Z</time>
      </trkpt>
      <trkpt lat="48.4948" lon="7.12268">
        <ele>696.6622</ele>
        <time>2026-07-09T12:43:56Z</time>
      </trkpt>
      <trkpt lat="48.49485" lon="7.12262">
        <ele>696.6622</ele>
        <time>2026-07-09T12:44:05Z</time>
      </trkpt>
      <trkpt lat="48.49489" lon="7.12254">
        <ele>696.6622</ele>
        <time>2026-07-09T12:44:13Z</time>
      </trkpt>
      <trkpt lat="48.49491" lon="7.12248">
        <ele>696.6622</ele>
        <time>2026-07-09T12:44:17Z</time>
      </trkpt>
      <trkpt lat="48.4949" lon="7.12241">
        <ele>694.557</ele>
        <time>2026-07-09T12:44:26Z</time>
      </trkpt>
      <trkpt lat="48.49493" lon="7.12236">
        <ele>692.45184</ele>
        <time>2026-07-09T12:44:29Z</time>
      </trkpt>
      <trkpt lat="48.49496" lon="7.12229">
        <ele>690.3466</ele>
        <time>2026-07-09T12:44:35Z</time>
      </trkpt>
      <trkpt lat="48.49499" lon="7.12223">
        <ele>688.24146</ele>
        <time>2026-07-09T12:44:39Z</time>
      </trkpt>
      <trkpt lat="48.495" lon="7.12216">
        <ele>686.1363</ele>
        <time>2026-07-09T12:44:44Z</time>
      </trkpt>
      <trkpt lat="48.49503" lon="7.1221">
        <ele>686.1363</ele>
        <time>2026-07-09T12:44:50Z</time>
      </trkpt>
      <trkpt lat="48.49504" lon="7.12203">
        <ele>686.1363</ele>
        <time>2026-07-09T12:44:57Z</time>
      </trkpt>
      <trkpt lat="48.49507" lon="7.12194">
        <ele>686.1363</ele>
        <time>2026-07-09T12:45:02Z</time>
      </trkpt>
      <trkpt lat="48.49508" lon="7.12187">
        <ele>686.1363</ele>
        <time>2026-07-09T12:45:15Z</time>
      </trkpt>
      <trkpt lat="48.49511" lon="7.1218">
        <ele>686.1363</ele>
        <time>2026-07-09T12:45:20Z</time>
      </trkpt>
      <trkpt lat="48.49512" lon="7.12174">
        <ele>686.1363</ele>
        <time>2026-07-09T12:45:27Z</time>
      </trkpt>
      <trkpt lat="48.49514" lon="7.12167">
        <ele>686.1363</ele>
        <time>2026-07-09T12:45:44Z</time>
      </trkpt>
      <trkpt lat="48.49517" lon="7.1216">
        <ele>686.1363</ele>
        <time>2026-07-09T12:45:49Z</time>
      </trkpt>
      <trkpt lat="48.49521" lon="7.12154">
        <ele>686.1363</ele>
        <time>2026-07-09T12:45:53Z</time>
      </trkpt>
      <trkpt lat="48.49524" lon="7.12147">
        <ele>684.0818</ele>
        <time>2026-07-09T12:45:59Z</time>
      </trkpt>
      <trkpt lat="48.49527" lon="7.12142">
        <ele>682.0272</ele>
        <time>2026-07-09T12:46:03Z</time>
      </trkpt>
      <trkpt lat="48.4953" lon="7.12136">
        <ele>679.9727</ele>
        <time>2026-07-09T12:46:11Z</time>
      </trkpt>
      <trkpt lat="48.49535" lon="7.12133">
        <ele>677.91815</ele>
        <time>2026-07-09T12:46:44Z</time>
      </trkpt>
      <trkpt lat="48.49536" lon="7.12125">
        <ele>675.86365</ele>
        <time>2026-07-09T12:46:48Z</time>
      </trkpt>
      <trkpt lat="48.49537" lon="7.12117">
        <ele>675.86365</ele>
        <time>2026-07-09T12:46:53Z</time>
      </trkpt>
      <trkpt lat="48.49539" lon="7.1211">
        <ele>675.86365</ele>
        <time>2026-07-09T12:46:57Z</time>
      </trkpt>
      <trkpt lat="48.49541" lon="7.12101">
        <ele>675.86365</ele>
        <time>2026-07-09T12:47:06Z</time>
      </trkpt>
      <trkpt lat="48.49542" lon="7.12093">
        <ele>675.86365</ele>
        <time>2026-07-09T12:47:13Z</time>
      </trkpt>
      <trkpt lat="48.49544" lon="7.12086">
        <ele>675.86365</ele>
        <time>2026-07-09T12:47:17Z</time>
      </trkpt>
      <trkpt lat="48.49545" lon="7.12079">
        <ele>675.86365</ele>
        <time>2026-07-09T12:47:27Z</time>
      </trkpt>
      <trkpt lat="48.49548" lon="7.12072">
        <ele>675.86365</ele>
        <time>2026-07-09T12:47:29Z</time>
      </trkpt>
      <trkpt lat="48.49551" lon="7.12064">
        <ele>675.86365</ele>
        <time>2026-07-09T12:47:42Z</time>
      </trkpt>
      <trkpt lat="48.49555" lon="7.12059">
        <ele>675.86365</ele>
        <time>2026-07-09T12:47:47Z</time>
      </trkpt>
      <trkpt lat="48.49557" lon="7.12052">
        <ele>675.86365</ele>
        <time>2026-07-09T12:47:53Z</time>
      </trkpt>
      <trkpt lat="48.49561" lon="7.12047">
        <ele>675.86365</ele>
        <time>2026-07-09T12:47:57Z</time>
      </trkpt>
      <trkpt lat="48.49565" lon="7.12043">
        <ele>675.86365</ele>
        <time>2026-07-09T12:48:03Z</time>
      </trkpt>
      <trkpt lat="48.49569" lon="7.12047">
        <ele>673.74927</ele>
        <time>2026-07-09T12:48:12Z</time>
      </trkpt>
      <trkpt lat="48.49574" lon="7.12042">
        <ele>671.63495</ele>
        <time>2026-07-09T12:48:17Z</time>
      </trkpt>
      <trkpt lat="48.49579" lon="7.12037">
        <ele>669.52057</ele>
        <time>2026-07-09T12:48:22Z</time>
      </trkpt>
      <trkpt lat="48.49583" lon="7.12037">
        <ele>667.40625</ele>
        <time>2026-07-09T12:48:27Z</time>
      </trkpt>
      <trkpt lat="48.49588" lon="7.12037">
        <ele>665.2919</ele>
        <time>2026-07-09T12:48:33Z</time>
      </trkpt>
      <trkpt lat="48.49593" lon="7.12033">
        <ele>665.2919</ele>
        <time>2026-07-09T12:48:39Z</time>
      </trkpt>
      <trkpt lat="48.49597" lon="7.1203">
        <ele>665.2919</ele>
        <time>2026-07-09T12:48:43Z</time>
      </trkpt>
      <trkpt lat="48.496" lon="7.12022">
        <ele>665.2919</ele>
        <time>2026-07-09T12:48:57Z</time>
      </trkpt>
      <trkpt lat="48.49601" lon="7.12008">
        <ele>665.2919</ele>
        <time>2026-07-09T12:49:08Z</time>
      </trkpt>
      <trkpt lat="48.49604" lon="7.12012">
        <ele>665.2919</ele>
        <time>2026-07-09T12:49:19Z</time>
      </trkpt>
      <trkpt lat="48.49609" lon="7.12009">
        <ele>665.2919</ele>
        <time>2026-07-09T12:49:25Z</time>
      </trkpt>
      <trkpt lat="48.49608" lon="7.12001">
        <ele>665.2919</ele>
        <time>2026-07-09T12:49:29Z</time>
      </trkpt>
      <trkpt lat="48.49606" lon="7.11994">
        <ele>665.2919</ele>
        <time>2026-07-09T12:49:32Z</time>
      </trkpt>
      <trkpt lat="48.49603" lon="7.11987">
        <ele>665.2919</ele>
        <time>2026-07-09T12:49:35Z</time>
      </trkpt>
      <trkpt lat="48.49602" lon="7.1198">
        <ele>665.2919</ele>
        <time>2026-07-09T12:49:40Z</time>
      </trkpt>
      <trkpt lat="48.49604" lon="7.11973">
        <ele>665.2919</ele>
        <time>2026-07-09T12:49:44Z</time>
      </trkpt>
      <trkpt lat="48.49606" lon="7.11966">
        <ele>665.2919</ele>
        <time>2026-07-09T12:49:50Z</time>
      </trkpt>
      <trkpt lat="48.49607" lon="7.11958">
        <ele>665.2919</ele>
        <time>2026-07-09T12:49:53Z</time>
      </trkpt>
      <trkpt lat="48.49612" lon="7.11952">
        <ele>665.2919</ele>
        <time>2026-07-09T12:49:58Z</time>
      </trkpt>
      <trkpt lat="48.49619" lon="7.11949">
        <ele>663.24176</ele>
        <time>2026-07-09T12:50:00Z</time>
      </trkpt>
      <trkpt lat="48.49619" lon="7.11941">
        <ele>661.19165</ele>
        <time>2026-07-09T12:50:07Z</time>
      </trkpt>
      <trkpt lat="48.49619" lon="7.11932">
        <ele>659.14154</ele>
        <time>2026-07-09T12:50:35Z</time>
      </trkpt>
      <trkpt lat="48.4962" lon="7.11925">
        <ele>657.09143</ele>
        <time>2026-07-09T12:50:42Z</time>
      </trkpt>
      <trkpt lat="48.4962" lon="7.11917">
        <ele>655.0413</ele>
        <time>2026-07-09T12:50:46Z</time>
      </trkpt>
      <trkpt lat="48.49621" lon="7.1191">
        <ele>655.0413</ele>
        <time>2026-07-09T12:50:50Z</time>
      </trkpt>
      <trkpt lat="48.49622" lon="7.11902">
        <ele>655.0413</ele>
        <time>2026-07-09T12:51:01Z</time>
      </trkpt>
      <trkpt lat="48.49622" lon="7.11894">
        <ele>655.0413</ele>
        <time>2026-07-09T12:51:03Z</time>
      </trkpt>
      <trkpt lat="48.49622" lon="7.11886">
        <ele>655.0413</ele>
        <time>2026-07-09T12:51:09Z</time>
      </trkpt>
      <trkpt lat="48.49623" lon="7.11876">
        <ele>655.0413</ele>
        <time>2026-07-09T12:51:16Z</time>
      </trkpt>
      <trkpt lat="48.49617" lon="7.11877">
        <ele>655.0413</ele>
        <time>2026-07-09T12:51:30Z</time>
      </trkpt>
      <trkpt lat="48.49617" lon="7.1187">
        <ele>655.0413</ele>
        <time>2026-07-09T12:51:33Z</time>
      </trkpt>
      <trkpt lat="48.49619" lon="7.11862">
        <ele>655.0413</ele>
        <time>2026-07-09T12:51:37Z</time>
      </trkpt>
      <trkpt lat="48.49624" lon="7.11861">
        <ele>655.0413</ele>
        <time>2026-07-09T12:51:39Z</time>
      </trkpt>
      <trkpt lat="48.49625" lon="7.11853">
        <ele>655.0413</ele>
        <time>2026-07-09T12:51:44Z</time>
      </trkpt>
      <trkpt lat="48.49626" lon="7.11846">
        <ele>655.0413</ele>
        <time>2026-07-09T12:51:48Z</time>
      </trkpt>
      <trkpt lat="48.49627" lon="7.11838">
        <ele>655.0413</ele>
        <time>2026-07-09T12:51:55Z</time>
      </trkpt>
      <trkpt lat="48.49628" lon="7.11832">
        <ele>655.0413</ele>
        <time>2026-07-09T12:52:00Z</time>
      </trkpt>
      <trkpt lat="48.49623" lon="7.11834">
        <ele>655.0413</ele>
        <time>2026-07-09T12:52:21Z</time>
      </trkpt>
      <trkpt lat="48.4962" lon="7.11829">
        <ele>655.0413</ele>
        <time>2026-07-09T12:52:23Z</time>
      </trkpt>
      <trkpt lat="48.49614" lon="7.11827">
        <ele>655.0413</ele>
        <time>2026-07-09T12:52:26Z</time>
      </trkpt>
      <trkpt lat="48.49606" lon="7.11827">
        <ele>655.0413</ele>
        <time>2026-07-09T12:52:29Z</time>
      </trkpt>
      <trkpt lat="48.49602" lon="7.11826">
        <ele>655.0413</ele>
        <time>2026-07-09T12:52:36Z</time>
      </trkpt>
      <trkpt lat="48.49597" lon="7.11824">
        <ele>655.0413</ele>
        <time>2026-07-09T12:52:41Z</time>
      </trkpt>
      <trkpt lat="48.49597" lon="7.11817">
        <ele>655.0413</ele>
        <time>2026-07-09T12:53:11Z</time>
      </trkpt>
      <trkpt lat="48.49603" lon="7.11821">
        <ele>655.0413</ele>
        <time>2026-07-09T12:53:44Z</time>
      </trkpt>
      <trkpt lat="48.49608" lon="7.11818">
        <ele>655.0413</ele>
        <time>2026-07-09T12:54:01Z</time>
      </trkpt>
      <trkpt lat="48.49612" lon="7.11818">
        <ele>655.0413</ele>
        <time>2026-07-09T12:54:07Z</time>
      </trkpt>
      <trkpt lat="48.49617" lon="7.11818">
        <ele>655.0413</ele>
        <time>2026-07-09T12:54:13Z</time>
      </trkpt>
      <trkpt lat="48.49622" lon="7.11817">
        <ele>655.0413</ele>
        <time>2026-07-09T12:54:19Z</time>
      </trkpt>
      <trkpt lat="48.49625" lon="7.11812">
        <ele>655.0413</ele>
        <time>2026-07-09T12:54:26Z</time>
      </trkpt>
      <trkpt lat="48.49626" lon="7.11805">
        <ele>655.0413</ele>
        <time>2026-07-09T12:54:32Z</time>
      </trkpt>
      <trkpt lat="48.49629" lon="7.11798">
        <ele>655.0413</ele>
        <time>2026-07-09T12:54:44Z</time>
      </trkpt>
      <trkpt lat="48.49632" lon="7.11792">
        <ele>652.9066</ele>
        <time>2026-07-09T12:54:46Z</time>
      </trkpt>
      <trkpt lat="48.49631" lon="7.11786">
        <ele>650.7719</ele>
        <time>2026-07-09T12:54:53Z</time>
      </trkpt>
      <trkpt lat="48.49634" lon="7.11779">
        <ele>648.63715</ele>
        <time>2026-07-09T12:54:58Z</time>
      </trkpt>
      <trkpt lat="48.49637" lon="7.11772">
        <ele>646.50244</ele>
        <time>2026-07-09T12:55:05Z</time>
      </trkpt>
      <trkpt lat="48.49641" lon="7.11764">
        <ele>644.36774</ele>
        <time>2026-07-09T12:55:10Z</time>
      </trkpt>
      <trkpt lat="48.49642" lon="7.11758">
        <ele>644.36774</ele>
        <time>2026-07-09T12:55:16Z</time>
      </trkpt>
      <trkpt lat="48.49644" lon="7.11749">
        <ele>644.36774</ele>
        <time>2026-07-09T12:55:20Z</time>
      </trkpt>
      <trkpt lat="48.49648" lon="7.11744">
        <ele>644.36774</ele>
        <time>2026-07-09T12:55:26Z</time>
      </trkpt>
      <trkpt lat="48.49649" lon="7.11737">
        <ele>644.36774</ele>
        <time>2026-07-09T12:55:32Z</time>
      </trkpt>
      <trkpt lat="48.49653" lon="7.11732">
        <ele>644.36774</ele>
        <time>2026-07-09T12:55:37Z</time>
      </trkpt>
      <trkpt lat="48.49658" lon="7.11728">
        <ele>644.36774</ele>
        <time>2026-07-09T12:55:47Z</time>
      </trkpt>
      <trkpt lat="48.49666" lon="7.11724">
        <ele>642.0805</ele>
        <time>2026-07-09T12:55:53Z</time>
      </trkpt>
      <trkpt lat="48.4967" lon="7.11718">
        <ele>639.7932</ele>
        <time>2026-07-09T12:56:08Z</time>
      </trkpt>
      <trkpt lat="48.49674" lon="7.11713">
        <ele>637.506</ele>
        <time>2026-07-09T12:56:15Z</time>
      </trkpt>
      <trkpt lat="48.49677" lon="7.11706">
        <ele>635.2187</ele>
        <time>2026-07-09T12:56:22Z</time>
      </trkpt>
      <trkpt lat="48.4968" lon="7.11701">
        <ele>632.93146</ele>
        <time>2026-07-09T12:56:26Z</time>
      </trkpt>
      <trkpt lat="48.49684" lon="7.11696">
        <ele>632.93146</ele>
        <time>2026-07-09T12:56:31Z</time>
      </trkpt>
      <trkpt lat="48.49689" lon="7.11692">
        <ele>632.93146</ele>
        <time>2026-07-09T12:56:37Z</time>
      </trkpt>
      <trkpt lat="48.49692" lon="7.11686">
        <ele>632.93146</ele>
        <time>2026-07-09T12:56:41Z</time>
      </trkpt>
      <trkpt lat="48.49696" lon="7.11677">
        <ele>632.93146</ele>
        <time>2026-07-09T12:56:51Z</time>
      </trkpt>
      <trkpt lat="48.497" lon="7.11672">
        <ele>632.93146</ele>
        <time>2026-07-09T12:56:54Z</time>
      </trkpt>
      <trkpt lat="48.49702" lon="7.11665">
        <ele>632.93146</ele>
        <time>2026-07-09T12:56:58Z</time>
      </trkpt>
      <trkpt lat="48.49706" lon="7.11659">
        <ele>632.93146</ele>
        <time>2026-07-09T12:57:03Z</time>
      </trkpt>
      <trkpt lat="48.49709" lon="7.11655">
        <ele>632.93146</ele>
        <time>2026-07-09T12:57:08Z</time>
      </trkpt>
      <trkpt lat="48.49714" lon="7.11651">
        <ele>632.93146</ele>
        <time>2026-07-09T12:57:15Z</time>
      </trkpt>
      <trkpt lat="48.49717" lon="7.11647">
        <ele>632.93146</ele>
        <time>2026-07-09T12:57:18Z</time>
      </trkpt>
      <trkpt lat="48.49723" lon="7.11648">
        <ele>632.93146</ele>
        <time>2026-07-09T12:57:20Z</time>
      </trkpt>
      <trkpt lat="48.49726" lon="7.11643">
        <ele>630.5101</ele>
        <time>2026-07-09T12:57:25Z</time>
      </trkpt>
      <trkpt lat="48.4973" lon="7.11637">
        <ele>628.0887</ele>
        <time>2026-07-09T12:57:30Z</time>
      </trkpt>
      <trkpt lat="48.49733" lon="7.11632">
        <ele>625.6673</ele>
        <time>2026-07-09T12:57:36Z</time>
      </trkpt>
      <trkpt lat="48.49736" lon="7.11626">
        <ele>623.2459</ele>
        <time>2026-07-09T12:57:41Z</time>
      </trkpt>
      <trkpt lat="48.4974" lon="7.11621">
        <ele>620.8245</ele>
        <time>2026-07-09T12:57:49Z</time>
      </trkpt>
      <trkpt lat="48.49743" lon="7.11615">
        <ele>620.8245</ele>
        <time>2026-07-09T12:57:57Z</time>
      </trkpt>
      <trkpt lat="48.49743" lon="7.11607">
        <ele>620.8245</ele>
        <time>2026-07-09T12:58:09Z</time>
      </trkpt>
      <trkpt lat="48.4974" lon="7.11602">
        <ele>620.8245</ele>
        <time>2026-07-09T12:58:11Z</time>
      </trkpt>
      <trkpt lat="48.49737" lon="7.11594">
        <ele>620.8245</ele>
        <time>2026-07-09T12:58:13Z</time>
      </trkpt>
      <trkpt lat="48.49734" lon="7.11588">
        <ele>620.8245</ele>
        <time>2026-07-09T12:58:15Z</time>
      </trkpt>
      <trkpt lat="48.49733" lon="7.1158">
        <ele>620.8245</ele>
        <time>2026-07-09T12:58:17Z</time>
      </trkpt>
      <trkpt lat="48.49734" lon="7.11572">
        <ele>620.8245</ele>
        <time>2026-07-09T12:58:23Z</time>
      </trkpt>
      <trkpt lat="48.49735" lon="7.11565">
        <ele>620.8245</ele>
        <time>2026-07-09T12:58:27Z</time>
      </trkpt>
      <trkpt lat="48.49738" lon="7.11559">
        <ele>620.8245</ele>
        <time>2026-07-09T12:58:32Z</time>
      </trkpt>
      <trkpt lat="48.49737" lon="7.11552">
        <ele>620.8245</ele>
        <time>2026-07-09T12:58:34Z</time>
      </trkpt>
      <trkpt lat="48.49735" lon="7.11545">
        <ele>620.8245</ele>
        <time>2026-07-09T12:58:40Z</time>
      </trkpt>
      <trkpt lat="48.49738" lon="7.11538">
        <ele>620.8245</ele>
        <time>2026-07-09T12:58:44Z</time>
      </trkpt>
      <trkpt lat="48.49741" lon="7.11532">
        <ele>620.8245</ele>
        <time>2026-07-09T12:58:47Z</time>
      </trkpt>
      <trkpt lat="48.49742" lon="7.11525">
        <ele>620.8245</ele>
        <time>2026-07-09T12:58:55Z</time>
      </trkpt>
      <trkpt lat="48.49743" lon="7.11516">
        <ele>620.8245</ele>
        <time>2026-07-09T12:59:01Z</time>
      </trkpt>
      <trkpt lat="48.49746" lon="7.11509">
        <ele>620.8245</ele>
        <time>2026-07-09T12:59:10Z</time>
      </trkpt>
      <trkpt lat="48.49746" lon="7.11501">
        <ele>620.8245</ele>
        <time>2026-07-09T12:59:15Z</time>
      </trkpt>
      <trkpt lat="48.49751" lon="7.11498">
        <ele>620.8245</ele>
        <time>2026-07-09T12:59:28Z</time>
      </trkpt>
      <trkpt lat="48.49746" lon="7.11498">
        <ele>620.8245</ele>
        <time>2026-07-09T12:59:53Z</time>
      </trkpt>
      <trkpt lat="48.4975" lon="7.11502">
        <ele>620.8245</ele>
        <time>2026-07-09T13:01:05Z</time>
      </trkpt>
      <trkpt lat="48.49755" lon="7.115">
        <ele>620.8245</ele>
        <time>2026-07-09T13:01:37Z</time>
      </trkpt>
      <trkpt lat="48.4975" lon="7.11497">
        <ele>620.8245</ele>
        <time>2026-07-09T13:01:49Z</time>
      </trkpt>
      <trkpt lat="48.49746" lon="7.11497">
        <ele>620.8245</ele>
        <time>2026-07-09T13:02:11Z</time>
      </trkpt>
      <trkpt lat="48.49741" lon="7.11495">
        <ele>620.8245</ele>
        <time>2026-07-09T13:02:28Z</time>
      </trkpt>
      <trkpt lat="48.49744" lon="7.11487">
        <ele>620.8245</ele>
        <time>2026-07-09T13:03:40Z</time>
      </trkpt>
      <trkpt lat="48.49739" lon="7.11483">
        <ele>620.8245</ele>
        <time>2026-07-09T13:04:29Z</time>
      </trkpt>
      <trkpt lat="48.49733" lon="7.11482">
        <ele>620.8245</ele>
        <time>2026-07-09T13:04:35Z</time>
      </trkpt>
      <trkpt lat="48.4973" lon="7.11487">
        <ele>620.8245</ele>
        <time>2026-07-09T13:04:41Z</time>
      </trkpt>
      <trkpt lat="48.49729" lon="7.11495">
        <ele>620.8245</ele>
        <time>2026-07-09T13:04:46Z</time>
      </trkpt>
      <trkpt lat="48.49727" lon="7.11502">
        <ele>620.8245</ele>
        <time>2026-07-09T13:04:51Z</time>
      </trkpt>
      <trkpt lat="48.49725" lon="7.11509">
        <ele>620.8245</ele>
        <time>2026-07-09T13:04:56Z</time>
      </trkpt>
      <trkpt lat="48.49722" lon="7.11515">
        <ele>620.8245</ele>
        <time>2026-07-09T13:05:01Z</time>
      </trkpt>
      <trkpt lat="48.49719" lon="7.11523">
        <ele>620.8245</ele>
        <time>2026-07-09T13:05:07Z</time>
      </trkpt>
      <trkpt lat="48.49716" lon="7.11529">
        <ele>620.8245</ele>
        <time>2026-07-09T13:05:13Z</time>
      </trkpt>
      <trkpt lat="48.49714" lon="7.11536">
        <ele>620.8245</ele>
        <time>2026-07-09T13:05:18Z</time>
      </trkpt>
      <trkpt lat="48.49711" lon="7.11541">
        <ele>620.8245</ele>
        <time>2026-07-09T13:05:23Z</time>
      </trkpt>
      <trkpt lat="48.49708" lon="7.11547">
        <ele>620.8245</ele>
        <time>2026-07-09T13:05:28Z</time>
      </trkpt>
      <trkpt lat="48.49708" lon="7.11539">
        <ele>618.5794</ele>
        <time>2026-07-09T13:06:00Z</time>
      </trkpt>
      <trkpt lat="48.49709" lon="7.11532">
        <ele>616.3342</ele>
        <time>2026-07-09T13:06:05Z</time>
      </trkpt>
      <trkpt lat="48.49711" lon="7.11525">
        <ele>614.0891</ele>
        <time>2026-07-09T13:06:16Z</time>
      </trkpt>
      <trkpt lat="48.49713" lon="7.11519">
        <ele>611.84393</ele>
        <time>2026-07-09T13:06:20Z</time>
      </trkpt>
      <trkpt lat="48.49716" lon="7.11513">
        <ele>609.5988</ele>
        <time>2026-07-09T13:06:26Z</time>
      </trkpt>
      <trkpt lat="48.49718" lon="7.11506">
        <ele>609.5988</ele>
        <time>2026-07-09T13:06:58Z</time>
      </trkpt>
      <trkpt lat="48.4972" lon="7.11499">
        <ele>609.5988</ele>
        <time>2026-07-09T13:07:05Z</time>
      </trkpt>
      <trkpt lat="48.49719" lon="7.11491">
        <ele>609.5988</ele>
        <time>2026-07-09T13:07:09Z</time>
      </trkpt>
      <trkpt lat="48.49715" lon="7.11486">
        <ele>609.5988</ele>
        <time>2026-07-09T13:07:12Z</time>
      </trkpt>
      <trkpt lat="48.49711" lon="7.11483">
        <ele>609.5988</ele>
        <time>2026-07-09T13:07:16Z</time>
      </trkpt>
      <trkpt lat="48.49705" lon="7.11482">
        <ele>609.5988</ele>
        <time>2026-07-09T13:07:20Z</time>
      </trkpt>
      <trkpt lat="48.49703" lon="7.11475">
        <ele>609.5988</ele>
        <time>2026-07-09T13:07:29Z</time>
      </trkpt>
      <trkpt lat="48.49702" lon="7.11468">
        <ele>609.5988</ele>
        <time>2026-07-09T13:07:33Z</time>
      </trkpt>
      <trkpt lat="48.49703" lon="7.1146">
        <ele>609.5988</ele>
        <time>2026-07-09T13:07:36Z</time>
      </trkpt>
      <trkpt lat="48.49698" lon="7.11457">
        <ele>609.5988</ele>
        <time>2026-07-09T13:07:44Z</time>
      </trkpt>
      <trkpt lat="48.49697" lon="7.11449">
        <ele>609.5988</ele>
        <time>2026-07-09T13:07:49Z</time>
      </trkpt>
      <trkpt lat="48.49692" lon="7.11444">
        <ele>609.5988</ele>
        <time>2026-07-09T13:07:53Z</time>
      </trkpt>
      <trkpt lat="48.49692" lon="7.11436">
        <ele>609.5988</ele>
        <time>2026-07-09T13:08:00Z</time>
      </trkpt>
      <trkpt lat="48.49693" lon="7.11428">
        <ele>609.5988</ele>
        <time>2026-07-09T13:08:06Z</time>
      </trkpt>
      <trkpt lat="48.49696" lon="7.11421">
        <ele>609.5988</ele>
        <time>2026-07-09T13:08:09Z</time>
      </trkpt>
      <trkpt lat="48.49695" lon="7.11412">
        <ele>609.5988</ele>
        <time>2026-07-09T13:08:13Z</time>
      </trkpt>
      <trkpt lat="48.49691" lon="7.11407">
        <ele>609.5988</ele>
        <time>2026-07-09T13:08:20Z</time>
      </trkpt>
      <trkpt lat="48.49691" lon="7.114">
        <ele>607.41797</ele>
        <time>2026-07-09T13:08:25Z</time>
      </trkpt>
      <trkpt lat="48.49686" lon="7.11396">
        <ele>605.2371</ele>
        <time>2026-07-09T13:08:30Z</time>
      </trkpt>
      <trkpt lat="48.49687" lon="7.1139">
        <ele>603.05634</ele>
        <time>2026-07-09T13:08:33Z</time>
      </trkpt>
      <trkpt lat="48.49685" lon="7.11383">
        <ele>600.8755</ele>
        <time>2026-07-09T13:08:38Z</time>
      </trkpt>
      <trkpt lat="48.49682" lon="7.11378">
        <ele>598.69464</ele>
        <time>2026-07-09T13:08:44Z</time>
      </trkpt>
      <trkpt lat="48.49678" lon="7.11371">
        <ele>598.69464</ele>
        <time>2026-07-09T13:08:49Z</time>
      </trkpt>
      <trkpt lat="48.49677" lon="7.11364">
        <ele>598.69464</ele>
        <time>2026-07-09T13:08:54Z</time>
      </trkpt>
      <trkpt lat="48.49673" lon="7.11356">
        <ele>598.69464</ele>
        <time>2026-07-09T13:09:00Z</time>
      </trkpt>
      <trkpt lat="48.4967" lon="7.11349">
        <ele>598.69464</ele>
        <time>2026-07-09T13:09:06Z</time>
      </trkpt>
      <trkpt lat="48.49668" lon="7.11343">
        <ele>598.69464</ele>
        <time>2026-07-09T13:09:10Z</time>
      </trkpt>
      <trkpt lat="48.49664" lon="7.11338">
        <ele>598.69464</ele>
        <time>2026-07-09T13:09:16Z</time>
      </trkpt>
      <trkpt lat="48.49661" lon="7.11333">
        <ele>598.69464</ele>
        <time>2026-07-09T13:09:19Z</time>
      </trkpt>
      <trkpt lat="48.49659" lon="7.11326">
        <ele>598.69464</ele>
        <time>2026-07-09T13:09:25Z</time>
      </trkpt>
      <trkpt lat="48.49657" lon="7.11319">
        <ele>598.69464</ele>
        <time>2026-07-09T13:09:30Z</time>
      </trkpt>
      <trkpt lat="48.49653" lon="7.11314">
        <ele>598.69464</ele>
        <time>2026-07-09T13:09:34Z</time>
      </trkpt>
      <trkpt lat="48.49651" lon="7.11307">
        <ele>598.69464</ele>
        <time>2026-07-09T13:09:41Z</time>
      </trkpt>
      <trkpt lat="48.49647" lon="7.11302">
        <ele>598.69464</ele>
        <time>2026-07-09T13:09:47Z</time>
      </trkpt>
      <trkpt lat="48.49642" lon="7.11297">
        <ele>598.69464</ele>
        <time>2026-07-09T13:09:51Z</time>
      </trkpt>
      <trkpt lat="48.49638" lon="7.11291">
        <ele>596.5953</ele>
        <time>2026-07-09T13:09:58Z</time>
      </trkpt>
      <trkpt lat="48.49635" lon="7.11284">
        <ele>594.4959</ele>
        <time>2026-07-09T13:10:06Z</time>
      </trkpt>
      <trkpt lat="48.49632" lon="7.11278">
        <ele>592.3965</ele>
        <time>2026-07-09T13:10:10Z</time>
      </trkpt>
      <trkpt lat="48.49628" lon="7.11273">
        <ele>590.2971</ele>
        <time>2026-07-09T13:10:15Z</time>
      </trkpt>
      <trkpt lat="48.49626" lon="7.11266">
        <ele>588.19775</ele>
        <time>2026-07-09T13:10:20Z</time>
      </trkpt>
      <trkpt lat="48.49622" lon="7.1126">
        <ele>588.19775</ele>
        <time>2026-07-09T13:10:27Z</time>
      </trkpt>
      <trkpt lat="48.49618" lon="7.11254">
        <ele>588.19775</ele>
        <time>2026-07-09T13:10:33Z</time>
      </trkpt>
      <trkpt lat="48.49616" lon="7.11246">
        <ele>588.19775</ele>
        <time>2026-07-09T13:10:42Z</time>
      </trkpt>
      <trkpt lat="48.49611" lon="7.11243">
        <ele>588.19775</ele>
        <time>2026-07-09T13:10:48Z</time>
      </trkpt>
      <trkpt lat="48.49608" lon="7.11236">
        <ele>588.19775</ele>
        <time>2026-07-09T13:10:52Z</time>
      </trkpt>
      <trkpt lat="48.49604" lon="7.11231">
        <ele>588.19775</ele>
        <time>2026-07-09T13:10:57Z</time>
      </trkpt>
      <trkpt lat="48.496" lon="7.11227">
        <ele>588.19775</ele>
        <time>2026-07-09T13:10:59Z</time>
      </trkpt>
      <trkpt lat="48.49596" lon="7.11222">
        <ele>588.19775</ele>
        <time>2026-07-09T13:11:05Z</time>
      </trkpt>
      <trkpt lat="48.49591" lon="7.11216">
        <ele>588.19775</ele>
        <time>2026-07-09T13:11:10Z</time>
      </trkpt>
      <trkpt lat="48.49588" lon="7.11209">
        <ele>588.19775</ele>
        <time>2026-07-09T13:11:15Z</time>
      </trkpt>
      <trkpt lat="48.49586" lon="7.11202">
        <ele>588.19775</ele>
        <time>2026-07-09T13:11:22Z</time>
      </trkpt>
      <trkpt lat="48.49585" lon="7.11195">
        <ele>588.19775</ele>
        <time>2026-07-09T13:11:28Z</time>
      </trkpt>
      <trkpt lat="48.49588" lon="7.11189">
        <ele>588.19775</ele>
        <time>2026-07-09T13:11:35Z</time>
      </trkpt>
      <trkpt lat="48.49591" lon="7.11183">
        <ele>588.19775</ele>
        <time>2026-07-09T13:11:52Z</time>
      </trkpt>
      <trkpt lat="48.49595" lon="7.1118">
        <ele>588.19775</ele>
        <time>2026-07-09T13:11:57Z</time>
      </trkpt>
      <trkpt lat="48.49592" lon="7.11189">
        <ele>588.19775</ele>
        <time>2026-07-09T13:12:46Z</time>
      </trkpt>
      <trkpt lat="48.49587" lon="7.11189">
        <ele>588.19775</ele>
        <time>2026-07-09T13:12:48Z</time>
      </trkpt>
      <trkpt lat="48.49582" lon="7.11186">
        <ele>588.19775</ele>
        <time>2026-07-09T13:12:54Z</time>
      </trkpt>
      <trkpt lat="48.49578" lon="7.11182">
        <ele>588.19775</ele>
        <time>2026-07-09T13:12:59Z</time>
      </trkpt>
      <trkpt lat="48.49575" lon="7.11176">
        <ele>588.19775</ele>
        <time>2026-07-09T13:13:01Z</time>
      </trkpt>
      <trkpt lat="48.49572" lon="7.11168">
        <ele>588.19775</ele>
        <time>2026-07-09T13:13:03Z</time>
      </trkpt>
      <trkpt lat="48.49568" lon="7.11163">
        <ele>588.19775</ele>
        <time>2026-07-09T13:13:07Z</time>
      </trkpt>
      <trkpt lat="48.49567" lon="7.11155">
        <ele>588.19775</ele>
        <time>2026-07-09T13:13:12Z</time>
      </trkpt>
      <trkpt lat="48.49565" lon="7.11148">
        <ele>588.19775</ele>
        <time>2026-07-09T13:13:18Z</time>
      </trkpt>
      <trkpt lat="48.49563" lon="7.11142">
        <ele>588.19775</ele>
        <time>2026-07-09T13:13:24Z</time>
      </trkpt>
      <trkpt lat="48.49561" lon="7.11134">
        <ele>588.19775</ele>
        <time>2026-07-09T13:13:31Z</time>
      </trkpt>
      <trkpt lat="48.4956" lon="7.11128">
        <ele>588.19775</ele>
        <time>2026-07-09T13:13:37Z</time>
      </trkpt>
      <trkpt lat="48.49558" lon="7.11121">
        <ele>585.9044</ele>
        <time>2026-07-09T13:13:43Z</time>
      </trkpt>
      <trkpt lat="48.49556" lon="7.11112">
        <ele>583.6111</ele>
        <time>2026-07-09T13:13:53Z</time>
      </trkpt>
      <trkpt lat="48.49554" lon="7.11106">
        <ele>581.3178</ele>
        <time>2026-07-09T13:14:01Z</time>
      </trkpt>
      <trkpt lat="48.49552" lon="7.11099">
        <ele>579.0245</ele>
        <time>2026-07-09T13:14:05Z</time>
      </trkpt>
      <trkpt lat="48.4955" lon="7.11092">
        <ele>576.73114</ele>
        <time>2026-07-09T13:14:13Z</time>
      </trkpt>
      <trkpt lat="48.49548" lon="7.11084">
        <ele>576.73114</ele>
        <time>2026-07-09T13:14:18Z</time>
      </trkpt>
      <trkpt lat="48.49546" lon="7.11078">
        <ele>576.73114</ele>
        <time>2026-07-09T13:14:24Z</time>
      </trkpt>
      <trkpt lat="48.49543" lon="7.11071">
        <ele>576.73114</ele>
        <time>2026-07-09T13:14:28Z</time>
      </trkpt>
      <trkpt lat="48.49541" lon="7.11063">
        <ele>576.73114</ele>
        <time>2026-07-09T13:14:35Z</time>
      </trkpt>
      <trkpt lat="48.49538" lon="7.11057">
        <ele>576.73114</ele>
        <time>2026-07-09T13:14:40Z</time>
      </trkpt>
      <trkpt lat="48.49536" lon="7.11048">
        <ele>576.73114</ele>
        <time>2026-07-09T13:14:46Z</time>
      </trkpt>
      <trkpt lat="48.49534" lon="7.11042">
        <ele>576.73114</ele>
        <time>2026-07-09T13:14:51Z</time>
      </trkpt>
      <trkpt lat="48.49531" lon="7.11035">
        <ele>576.73114</ele>
        <time>2026-07-09T13:14:57Z</time>
      </trkpt>
      <trkpt lat="48.49529" lon="7.11028">
        <ele>576.73114</ele>
        <time>2026-07-09T13:15:03Z</time>
      </trkpt>
      <trkpt lat="48.49527" lon="7.11021">
        <ele>576.73114</ele>
        <time>2026-07-09T13:15:10Z</time>
      </trkpt>
      <trkpt lat="48.49526" lon="7.11014">
        <ele>576.73114</ele>
        <time>2026-07-09T13:15:14Z</time>
      </trkpt>
      <trkpt lat="48.49529" lon="7.11006">
        <ele>576.73114</ele>
        <time>2026-07-09T13:15:20Z</time>
      </trkpt>
      <trkpt lat="48.4953" lon="7.10998">
        <ele>576.73114</ele>
        <time>2026-07-09T13:16:07Z</time>
      </trkpt>
      <trkpt lat="48.49534" lon="7.11005">
        <ele>576.73114</ele>
        <time>2026-07-09T13:16:18Z</time>
      </trkpt>
      <trkpt lat="48.49529" lon="7.11002">
        <ele>576.73114</ele>
        <time>2026-07-09T13:16:32Z</time>
      </trkpt>
      <trkpt lat="48.49526" lon="7.10994">
        <ele>576.73114</ele>
        <time>2026-07-09T13:16:36Z</time>
      </trkpt>
      <trkpt lat="48.49522" lon="7.10989">
        <ele>576.73114</ele>
        <time>2026-07-09T13:16:38Z</time>
      </trkpt>
      <trkpt lat="48.49517" lon="7.10986">
        <ele>574.544</ele>
        <time>2026-07-09T13:16:45Z</time>
      </trkpt>
      <trkpt lat="48.49514" lon="7.10979">
        <ele>572.3568</ele>
        <time>2026-07-09T13:16:49Z</time>
      </trkpt>
      <trkpt lat="48.49512" lon="7.10972">
        <ele>570.1697</ele>
        <time>2026-07-09T13:16:53Z</time>
      </trkpt>
      <trkpt lat="48.49509" lon="7.10967">
        <ele>567.9825</ele>
        <time>2026-07-09T13:16:57Z</time>
      </trkpt>
      <trkpt lat="48.49507" lon="7.10961">
        <ele>565.79535</ele>
        <time>2026-07-09T13:17:03Z</time>
      </trkpt>
      <trkpt lat="48.49505" lon="7.10953">
        <ele>565.79535</ele>
        <time>2026-07-09T13:17:19Z</time>
      </trkpt>
      <trkpt lat="48.49506" lon="7.10945">
        <ele>565.79535</ele>
        <time>2026-07-09T13:17:29Z</time>
      </trkpt>
      <trkpt lat="48.49504" lon="7.10937">
        <ele>565.79535</ele>
        <time>2026-07-09T13:17:35Z</time>
      </trkpt>
      <trkpt lat="48.49506" lon="7.1093">
        <ele>565.79535</ele>
        <time>2026-07-09T13:17:40Z</time>
      </trkpt>
      <trkpt lat="48.49509" lon="7.10925">
        <ele>565.79535</ele>
        <time>2026-07-09T13:17:49Z</time>
      </trkpt>
      <trkpt lat="48.49507" lon="7.10931">
        <ele>565.79535</ele>
        <time>2026-07-09T13:17:58Z</time>
      </trkpt>
      <trkpt lat="48.49503" lon="7.10925">
        <ele>565.79535</ele>
        <time>2026-07-09T13:18:16Z</time>
      </trkpt>
      <trkpt lat="48.49506" lon="7.10917">
        <ele>563.4341</ele>
        <time>2026-07-09T13:18:24Z</time>
      </trkpt>
      <trkpt lat="48.49511" lon="7.10917">
        <ele>561.07275</ele>
        <time>2026-07-09T13:18:32Z</time>
      </trkpt>
      <trkpt lat="48.49506" lon="7.10921">
        <ele>558.7115</ele>
        <time>2026-07-09T13:18:37Z</time>
      </trkpt>
      <trkpt lat="48.49502" lon="7.10916">
        <ele>556.35016</ele>
        <time>2026-07-09T13:18:58Z</time>
      </trkpt>
      <trkpt lat="48.49501" lon="7.10909">
        <ele>553.9889</ele>
        <time>2026-07-09T13:19:07Z</time>
      </trkpt>
      <trkpt lat="48.49501" lon="7.10916">
        <ele>553.9889</ele>
        <time>2026-07-09T13:19:39Z</time>
      </trkpt>
      <trkpt lat="48.495" lon="7.10923">
        <ele>553.9889</ele>
        <time>2026-07-09T13:20:22Z</time>
      </trkpt>
      <trkpt lat="48.49505" lon="7.10923">
        <ele>553.9889</ele>
        <time>2026-07-09T13:20:57Z</time>
      </trkpt>
      <trkpt lat="48.49501" lon="7.10917">
        <ele>553.9889</ele>
        <time>2026-07-09T13:23:04Z</time>
      </trkpt>
      <trkpt lat="48.49506" lon="7.1092">
        <ele>553.9889</ele>
        <time>2026-07-09T13:23:21Z</time>
      </trkpt>
      <trkpt lat="48.49509" lon="7.10929">
        <ele>553.9889</ele>
        <time>2026-07-09T13:23:54Z</time>
      </trkpt>
      <trkpt lat="48.49513" lon="7.10928">
        <ele>553.9889</ele>
        <time>2026-07-09T13:24:11Z</time>
      </trkpt>
      <trkpt lat="48.49509" lon="7.10935">
        <ele>553.9889</ele>
        <time>2026-07-09T13:24:32Z</time>
      </trkpt>
      <trkpt lat="48.49508" lon="7.10919">
        <ele>553.9889</ele>
        <time>2026-07-09T13:24:44Z</time>
      </trkpt>
      <trkpt lat="48.49508" lon="7.10912">
        <ele>553.9889</ele>
        <time>2026-07-09T13:24:55Z</time>
      </trkpt>
      <trkpt lat="48.4951" lon="7.10906">
        <ele>553.9889</ele>
        <time>2026-07-09T13:25:27Z</time>
      </trkpt>
      <trkpt lat="48.49513" lon="7.109">
        <ele>553.9889</ele>
        <time>2026-07-09T13:25:32Z</time>
      </trkpt>
      <trkpt lat="48.49518" lon="7.10899">
        <ele>553.9889</ele>
        <time>2026-07-09T13:25:37Z</time>
      </trkpt>
      <trkpt lat="48.49523" lon="7.10898">
        <ele>553.9889</ele>
        <time>2026-07-09T13:25:43Z</time>
      </trkpt>
      <trkpt lat="48.49527" lon="7.10895">
        <ele>553.9889</ele>
        <time>2026-07-09T13:25:48Z</time>
      </trkpt>
      <trkpt lat="48.49531" lon="7.10892">
        <ele>553.9889</ele>
        <time>2026-07-09T13:25:56Z</time>
      </trkpt>
      <trkpt lat="48.49536" lon="7.10891">
        <ele>553.9889</ele>
        <time>2026-07-09T13:25:59Z</time>
      </trkpt>
      <trkpt lat="48.4954" lon="7.10888">
        <ele>553.9889</ele>
        <time>2026-07-09T13:26:09Z</time>
      </trkpt>
      <trkpt lat="48.49544" lon="7.10885">
        <ele>553.9889</ele>
        <time>2026-07-09T13:26:15Z</time>
      </trkpt>
      <trkpt lat="48.49543" lon="7.10892">
        <ele>553.9889</ele>
        <time>2026-07-09T13:28:10Z</time>
      </trkpt>
      <trkpt lat="48.49538" lon="7.10898">
        <ele>553.9889</ele>
        <time>2026-07-09T13:28:21Z</time>
      </trkpt>
      <trkpt lat="48.49534" lon="7.10897">
        <ele>553.9889</ele>
        <time>2026-07-09T13:29:06Z</time>
      </trkpt>
      <trkpt lat="48.49534" lon="7.10904">
        <ele>553.9889</ele>
        <time>2026-07-09T13:29:16Z</time>
      </trkpt>
      <trkpt lat="48.4953" lon="7.10899">
        <ele>553.9889</ele>
        <time>2026-07-09T13:29:18Z</time>
      </trkpt>
      <trkpt lat="48.49529" lon="7.10907">
        <ele>553.9889</ele>
        <time>2026-07-09T13:29:20Z</time>
      </trkpt>
      <trkpt lat="48.49526" lon="7.109">
        <ele>553.9889</ele>
        <time>2026-07-09T13:29:23Z</time>
      </trkpt>
      <trkpt lat="48.49521" lon="7.10904">
        <ele>553.9889</ele>
        <time>2026-07-09T13:29:26Z</time>
      </trkpt>
      <trkpt lat="48.49516" lon="7.1091">
        <ele>553.9889</ele>
        <time>2026-07-09T13:29:28Z</time>
      </trkpt>
      <trkpt lat="48.49514" lon="7.10916">
        <ele>553.9889</ele>
        <time>2026-07-09T13:29:35Z</time>
      </trkpt>
      <trkpt lat="48.49512" lon="7.10923">
        <ele>553.9889</ele>
        <time>2026-07-09T13:29:40Z</time>
      </trkpt>
      <trkpt lat="48.49511" lon="7.1093">
        <ele>553.9889</ele>
        <time>2026-07-09T13:29:48Z</time>
      </trkpt>
      <trkpt lat="48.49511" lon="7.10938">
        <ele>553.9889</ele>
        <time>2026-07-09T13:29:55Z</time>
      </trkpt>
      <trkpt lat="48.49511" lon="7.10947">
        <ele>553.9889</ele>
        <time>2026-07-09T13:30:18Z</time>
      </trkpt>
      <trkpt lat="48.49512" lon="7.10955">
        <ele>553.9889</ele>
        <time>2026-07-09T13:30:23Z</time>
      </trkpt>
      <trkpt lat="48.49513" lon="7.10962">
        <ele>553.9889</ele>
        <time>2026-07-09T13:30:28Z</time>
      </trkpt>
      <trkpt lat="48.49516" lon="7.10969">
        <ele>553.9889</ele>
        <time>2026-07-09T13:30:34Z</time>
      </trkpt>
      <trkpt lat="48.49517" lon="7.10976">
        <ele>553.9889</ele>
        <time>2026-07-09T13:30:38Z</time>
      </trkpt>
      <trkpt lat="48.4952" lon="7.10982">
        <ele>556.0664</ele>
        <time>2026-07-09T13:30:41Z</time>
      </trkpt>
      <trkpt lat="48.49523" lon="7.10988">
        <ele>558.144</ele>
        <time>2026-07-09T13:30:46Z</time>
      </trkpt>
      <trkpt lat="48.49526" lon="7.10995">
        <ele>560.2215</ele>
        <time>2026-07-09T13:30:51Z</time>
      </trkpt>
      <trkpt lat="48.49529" lon="7.11001">
        <ele>562.2991</ele>
        <time>2026-07-09T13:30:56Z</time>
      </trkpt>
      <trkpt lat="48.49531" lon="7.11008">
        <ele>564.3766</ele>
        <time>2026-07-09T13:31:02Z</time>
      </trkpt>
      <trkpt lat="48.49532" lon="7.11015">
        <ele>564.3766</ele>
        <time>2026-07-09T13:31:06Z</time>
      </trkpt>
      <trkpt lat="48.49531" lon="7.11022">
        <ele>564.3766</ele>
        <time>2026-07-09T13:31:10Z</time>
      </trkpt>
      <trkpt lat="48.49531" lon="7.1103">
        <ele>564.3766</ele>
        <time>2026-07-09T13:31:15Z</time>
      </trkpt>
      <trkpt lat="48.49533" lon="7.11037">
        <ele>566.4164</ele>
        <time>2026-07-09T13:31:20Z</time>
      </trkpt>
      <trkpt lat="48.49535" lon="7.11044">
        <ele>568.4562</ele>
        <time>2026-07-09T13:31:25Z</time>
      </trkpt>
      <trkpt lat="48.49537" lon="7.11051">
        <ele>570.49603</ele>
        <time>2026-07-09T13:31:30Z</time>
      </trkpt>
      <trkpt lat="48.49539" lon="7.11057">
        <ele>572.5358</ele>
        <time>2026-07-09T13:31:35Z</time>
      </trkpt>
      <trkpt lat="48.49541" lon="7.11064">
        <ele>574.5756</ele>
        <time>2026-07-09T13:31:40Z</time>
      </trkpt>
      <trkpt lat="48.49543" lon="7.1107">
        <ele>574.5756</ele>
        <time>2026-07-09T13:31:46Z</time>
      </trkpt>
      <trkpt lat="48.49546" lon="7.11078">
        <ele>574.5756</ele>
        <time>2026-07-09T13:31:53Z</time>
      </trkpt>
      <trkpt lat="48.49548" lon="7.11085">
        <ele>574.5756</ele>
        <time>2026-07-09T13:31:59Z</time>
      </trkpt>
      <trkpt lat="48.4955" lon="7.11091">
        <ele>574.5756</ele>
        <time>2026-07-09T13:32:03Z</time>
      </trkpt>
      <trkpt lat="48.49552" lon="7.11099">
        <ele>574.5756</ele>
        <time>2026-07-09T13:32:09Z</time>
      </trkpt>
      <trkpt lat="48.49554" lon="7.11106">
        <ele>574.5756</ele>
        <time>2026-07-09T13:32:14Z</time>
      </trkpt>
      <trkpt lat="48.49556" lon="7.11113">
        <ele>574.5756</ele>
        <time>2026-07-09T13:32:19Z</time>
      </trkpt>
      <trkpt lat="48.49558" lon="7.1112">
        <ele>574.5756</ele>
        <time>2026-07-09T13:32:25Z</time>
      </trkpt>
      <trkpt lat="48.4956" lon="7.11128">
        <ele>574.5756</ele>
        <time>2026-07-09T13:32:31Z</time>
      </trkpt>
      <trkpt lat="48.49562" lon="7.11135">
        <ele>574.5756</ele>
        <time>2026-07-09T13:32:37Z</time>
      </trkpt>
      <trkpt lat="48.49563" lon="7.11141">
        <ele>574.5756</ele>
        <time>2026-07-09T13:32:42Z</time>
      </trkpt>
      <trkpt lat="48.49567" lon="7.11145">
        <ele>574.5756</ele>
        <time>2026-07-09T13:32:47Z</time>
      </trkpt>
      <trkpt lat="48.49572" lon="7.11146">
        <ele>574.5756</ele>
        <time>2026-07-09T13:32:51Z</time>
      </trkpt>
      <trkpt lat="48.49575" lon="7.11153">
        <ele>576.59235</ele>
        <time>2026-07-09T13:32:57Z</time>
      </trkpt>
      <trkpt lat="48.49577" lon="7.11159">
        <ele>578.6091</ele>
        <time>2026-07-09T13:33:03Z</time>
      </trkpt>
      <trkpt lat="48.4958" lon="7.11166">
        <ele>580.62573</ele>
        <time>2026-07-09T13:33:08Z</time>
      </trkpt>
      <trkpt lat="48.49582" lon="7.11173">
        <ele>582.64246</ele>
        <time>2026-07-09T13:33:14Z</time>
      </trkpt>
      <trkpt lat="48.49584" lon="7.11179">
        <ele>584.6592</ele>
        <time>2026-07-09T13:33:20Z</time>
      </trkpt>
      <trkpt lat="48.49589" lon="7.11187">
        <ele>584.6592</ele>
        <time>2026-07-09T13:33:58Z</time>
      </trkpt>
      <trkpt lat="48.4959" lon="7.11195">
        <ele>584.6592</ele>
        <time>2026-07-09T13:34:12Z</time>
      </trkpt>
      <trkpt lat="48.49593" lon="7.11202">
        <ele>584.6592</ele>
        <time>2026-07-09T13:34:17Z</time>
      </trkpt>
      <trkpt lat="48.49596" lon="7.11208">
        <ele>584.6592</ele>
        <time>2026-07-09T13:34:23Z</time>
      </trkpt>
      <trkpt lat="48.49598" lon="7.11213">
        <ele>584.6592</ele>
        <time>2026-07-09T13:34:31Z</time>
      </trkpt>
      <trkpt lat="48.49601" lon="7.11219">
        <ele>584.6592</ele>
        <time>2026-07-09T13:34:36Z</time>
      </trkpt>
      <trkpt lat="48.49605" lon="7.11227">
        <ele>584.6592</ele>
        <time>2026-07-09T13:34:43Z</time>
      </trkpt>
      <trkpt lat="48.49609" lon="7.11234">
        <ele>584.6592</ele>
        <time>2026-07-09T13:34:47Z</time>
      </trkpt>
      <trkpt lat="48.49612" lon="7.1124">
        <ele>584.6592</ele>
        <time>2026-07-09T13:34:53Z</time>
      </trkpt>
      <trkpt lat="48.49616" lon="7.11246">
        <ele>584.6592</ele>
        <time>2026-07-09T13:34:57Z</time>
      </trkpt>
      <trkpt lat="48.49619" lon="7.11251">
        <ele>584.6592</ele>
        <time>2026-07-09T13:35:01Z</time>
      </trkpt>
      <trkpt lat="48.49622" lon="7.11257">
        <ele>584.6592</ele>
        <time>2026-07-09T13:35:07Z</time>
      </trkpt>
      <trkpt lat="48.49625" lon="7.11264">
        <ele>584.6592</ele>
        <time>2026-07-09T13:35:14Z</time>
      </trkpt>
      <trkpt lat="48.49629" lon="7.11269">
        <ele>584.6592</ele>
        <time>2026-07-09T13:35:19Z</time>
      </trkpt>
      <trkpt lat="48.49632" lon="7.11275">
        <ele>584.6592</ele>
        <time>2026-07-09T13:35:25Z</time>
      </trkpt>
      <trkpt lat="48.49636" lon="7.11281">
        <ele>584.6592</ele>
        <time>2026-07-09T13:35:30Z</time>
      </trkpt>
      <trkpt lat="48.49639" lon="7.11287">
        <ele>584.6592</ele>
        <time>2026-07-09T13:35:34Z</time>
      </trkpt>
      <trkpt lat="48.49642" lon="7.11292">
        <ele>584.6592</ele>
        <time>2026-07-09T13:35:39Z</time>
      </trkpt>
      <trkpt lat="48.49646" lon="7.11298">
        <ele>584.6592</ele>
        <time>2026-07-09T13:35:44Z</time>
      </trkpt>
      <trkpt lat="48.49649" lon="7.11305">
        <ele>584.6592</ele>
        <time>2026-07-09T13:35:51Z</time>
      </trkpt>
      <trkpt lat="48.49653" lon="7.11312">
        <ele>584.6592</ele>
        <time>2026-07-09T13:35:56Z</time>
      </trkpt>
      <trkpt lat="48.49656" lon="7.11317">
        <ele>584.6592</ele>
        <time>2026-07-09T13:36:00Z</time>
      </trkpt>
      <trkpt lat="48.4966" lon="7.11324">
        <ele>584.6592</ele>
        <time>2026-07-09T13:36:06Z</time>
      </trkpt>
      <trkpt lat="48.49663" lon="7.1133">
        <ele>584.6592</ele>
        <time>2026-07-09T13:36:12Z</time>
      </trkpt>
      <trkpt lat="48.49667" lon="7.11337">
        <ele>584.6592</ele>
        <time>2026-07-09T13:36:17Z</time>
      </trkpt>
      <trkpt lat="48.4967" lon="7.11342">
        <ele>584.6592</ele>
        <time>2026-07-09T13:36:22Z</time>
      </trkpt>
      <trkpt lat="48.49673" lon="7.11349">
        <ele>584.6592</ele>
        <time>2026-07-09T13:36:28Z</time>
      </trkpt>
      <trkpt lat="48.49676" lon="7.11355">
        <ele>584.6592</ele>
        <time>2026-07-09T13:36:35Z</time>
      </trkpt>
      <trkpt lat="48.49679" lon="7.11362">
        <ele>584.6592</ele>
        <time>2026-07-09T13:36:40Z</time>
      </trkpt>
      <trkpt lat="48.49682" lon="7.11368">
        <ele>584.6592</ele>
        <time>2026-07-09T13:36:44Z</time>
      </trkpt>
      <trkpt lat="48.49684" lon="7.11375">
        <ele>584.6592</ele>
        <time>2026-07-09T13:36:50Z</time>
      </trkpt>
      <trkpt lat="48.49686" lon="7.11382">
        <ele>584.6592</ele>
        <time>2026-07-09T13:36:55Z</time>
      </trkpt>
      <trkpt lat="48.49689" lon="7.11389">
        <ele>584.6592</ele>
        <time>2026-07-09T13:37:05Z</time>
      </trkpt>
      <trkpt lat="48.49691" lon="7.11397">
        <ele>586.7436</ele>
        <time>2026-07-09T13:37:15Z</time>
      </trkpt>
      <trkpt lat="48.49693" lon="7.11404">
        <ele>588.828</ele>
        <time>2026-07-09T13:37:21Z</time>
      </trkpt>
      <trkpt lat="48.49694" lon="7.1141">
        <ele>590.9125</ele>
        <time>2026-07-09T13:37:25Z</time>
      </trkpt>
      <trkpt lat="48.49697" lon="7.11417">
        <ele>592.9969</ele>
        <time>2026-07-09T13:37:30Z</time>
      </trkpt>
      <trkpt lat="48.497" lon="7.11421">
        <ele>595.0813</ele>
        <time>2026-07-09T13:37:36Z</time>
      </trkpt>
      <trkpt lat="48.49704" lon="7.11424">
        <ele>595.0813</ele>
        <time>2026-07-09T13:37:41Z</time>
      </trkpt>
      <trkpt lat="48.49696" lon="7.11434">
        <ele>595.0813</ele>
        <time>2026-07-09T13:37:50Z</time>
      </trkpt>
      <trkpt lat="48.49698" lon="7.11442">
        <ele>595.0813</ele>
        <time>2026-07-09T13:38:34Z</time>
      </trkpt>
      <trkpt lat="48.49698" lon="7.11449">
        <ele>595.0813</ele>
        <time>2026-07-09T13:38:36Z</time>
      </trkpt>
      <trkpt lat="48.49698" lon="7.11459">
        <ele>595.0813</ele>
        <time>2026-07-09T13:38:45Z</time>
      </trkpt>
      <trkpt lat="48.49701" lon="7.11466">
        <ele>595.0813</ele>
        <time>2026-07-09T13:38:51Z</time>
      </trkpt>
      <trkpt lat="48.49707" lon="7.1147">
        <ele>595.0813</ele>
        <time>2026-07-09T13:38:55Z</time>
      </trkpt>
      <trkpt lat="48.49712" lon="7.11472">
        <ele>595.0813</ele>
        <time>2026-07-09T13:38:58Z</time>
      </trkpt>
      <trkpt lat="48.49714" lon="7.11479">
        <ele>597.0854</ele>
        <time>2026-07-09T13:39:03Z</time>
      </trkpt>
      <trkpt lat="48.49712" lon="7.11485">
        <ele>599.08954</ele>
        <time>2026-07-09T13:39:09Z</time>
      </trkpt>
      <trkpt lat="48.49712" lon="7.11495">
        <ele>601.0936</ele>
        <time>2026-07-09T13:39:15Z</time>
      </trkpt>
      <trkpt lat="48.49713" lon="7.11502">
        <ele>603.0978</ele>
        <time>2026-07-09T13:39:17Z</time>
      </trkpt>
      <trkpt lat="48.49714" lon="7.11509">
        <ele>605.10187</ele>
        <time>2026-07-09T13:39:21Z</time>
      </trkpt>
      <trkpt lat="48.49712" lon="7.11518">
        <ele>605.10187</ele>
        <time>2026-07-09T13:39:28Z</time>
      </trkpt>
      <trkpt lat="48.4971" lon="7.11526">
        <ele>605.10187</ele>
        <time>2026-07-09T13:39:35Z</time>
      </trkpt>
      <trkpt lat="48.49708" lon="7.11533">
        <ele>605.10187</ele>
        <time>2026-07-09T13:39:38Z</time>
      </trkpt>
      <trkpt lat="48.49707" lon="7.1154">
        <ele>605.10187</ele>
        <time>2026-07-09T13:39:42Z</time>
      </trkpt>
      <trkpt lat="48.49707" lon="7.11547">
        <ele>605.10187</ele>
        <time>2026-07-09T13:39:50Z</time>
      </trkpt>
      <trkpt lat="48.49706" lon="7.11555">
        <ele>605.10187</ele>
        <time>2026-07-09T13:40:01Z</time>
      </trkpt>
      <trkpt lat="48.49701" lon="7.11559">
        <ele>605.10187</ele>
        <time>2026-07-09T13:40:10Z</time>
      </trkpt>
      <trkpt lat="48.49702" lon="7.11552">
        <ele>605.10187</ele>
        <time>2026-07-09T13:40:44Z</time>
      </trkpt>
      <trkpt lat="48.49703" lon="7.11545">
        <ele>605.10187</ele>
        <time>2026-07-09T13:40:51Z</time>
      </trkpt>
      <trkpt lat="48.49706" lon="7.11551">
        <ele>605.10187</ele>
        <time>2026-07-09T13:41:11Z</time>
      </trkpt>
      <trkpt lat="48.4971" lon="7.11556">
        <ele>607.1431</ele>
        <time>2026-07-09T13:41:36Z</time>
      </trkpt>
      <trkpt lat="48.49706" lon="7.11561">
        <ele>609.1844</ele>
        <time>2026-07-09T13:41:57Z</time>
      </trkpt>
      <trkpt lat="48.49698" lon="7.11563">
        <ele>611.22565</ele>
        <time>2026-07-09T13:42:01Z</time>
      </trkpt>
      <trkpt lat="48.49692" lon="7.11567">
        <ele>613.2669</ele>
        <time>2026-07-09T13:42:09Z</time>
      </trkpt>
      <trkpt lat="48.49691" lon="7.11556">
        <ele>615.30817</ele>
        <time>2026-07-09T13:42:15Z</time>
      </trkpt>
      <trkpt lat="48.49684" lon="7.11562">
        <ele>615.30817</ele>
        <time>2026-07-09T13:42:29Z</time>
      </trkpt>
      <trkpt lat="48.49675" lon="7.11572">
        <ele>615.30817</ele>
        <time>2026-07-09T13:42:31Z</time>
      </trkpt>
      <trkpt lat="48.49677" lon="7.11564">
        <ele>615.30817</ele>
        <time>2026-07-09T13:42:34Z</time>
      </trkpt>
      <trkpt lat="48.49679" lon="7.11558">
        <ele>615.30817</ele>
        <time>2026-07-09T13:42:37Z</time>
      </trkpt>
      <trkpt lat="48.49678" lon="7.1155">
        <ele>615.30817</ele>
        <time>2026-07-09T13:42:42Z</time>
      </trkpt>
      <trkpt lat="48.49677" lon="7.11542">
        <ele>615.30817</ele>
        <time>2026-07-09T13:42:45Z</time>
      </trkpt>
      <trkpt lat="48.49678" lon="7.11534">
        <ele>615.30817</ele>
        <time>2026-07-09T13:42:49Z</time>
      </trkpt>
      <trkpt lat="48.49679" lon="7.11525">
        <ele>615.30817</ele>
        <time>2026-07-09T13:42:51Z</time>
      </trkpt>
      <trkpt lat="48.4968" lon="7.11518">
        <ele>615.30817</ele>
        <time>2026-07-09T13:42:55Z</time>
      </trkpt>
      <trkpt lat="48.49679" lon="7.1151">
        <ele>615.30817</ele>
        <time>2026-07-09T13:42:57Z</time>
      </trkpt>
      <trkpt lat="48.49677" lon="7.11503">
        <ele>615.30817</ele>
        <time>2026-07-09T13:43:03Z</time>
      </trkpt>
      <trkpt lat="48.49677" lon="7.11496">
        <ele>615.30817</ele>
        <time>2026-07-09T13:43:11Z</time>
      </trkpt>
      <trkpt lat="48.49676" lon="7.11488">
        <ele>615.30817</ele>
        <time>2026-07-09T13:43:17Z</time>
      </trkpt>
      <trkpt lat="48.49675" lon="7.11481">
        <ele>615.30817</ele>
        <time>2026-07-09T13:43:22Z</time>
      </trkpt>
      <trkpt lat="48.49673" lon="7.11474">
        <ele>615.30817</ele>
        <time>2026-07-09T13:43:26Z</time>
      </trkpt>
      <trkpt lat="48.4967" lon="7.11468">
        <ele>615.30817</ele>
        <time>2026-07-09T13:43:33Z</time>
      </trkpt>
      <trkpt lat="48.49666" lon="7.11466">
        <ele>615.30817</ele>
        <time>2026-07-09T13:43:37Z</time>
      </trkpt>
      <trkpt lat="48.49662" lon="7.11461">
        <ele>615.30817</ele>
        <time>2026-07-09T13:43:40Z</time>
      </trkpt>
      <trkpt lat="48.49658" lon="7.11455">
        <ele>615.30817</ele>
        <time>2026-07-09T13:43:45Z</time>
      </trkpt>
      <trkpt lat="48.49653" lon="7.11453">
        <ele>615.30817</ele>
        <time>2026-07-09T13:43:50Z</time>
      </trkpt>
      <trkpt lat="48.49649" lon="7.1145">
        <ele>615.30817</ele>
        <time>2026-07-09T13:43:55Z</time>
      </trkpt>
      <trkpt lat="48.49644" lon="7.11448">
        <ele>615.30817</ele>
        <time>2026-07-09T13:44:00Z</time>
      </trkpt>
      <trkpt lat="48.4964" lon="7.11445">
        <ele>615.30817</ele>
        <time>2026-07-09T13:44:05Z</time>
      </trkpt>
      <trkpt lat="48.49633" lon="7.11441">
        <ele>615.30817</ele>
        <time>2026-07-09T13:44:12Z</time>
      </trkpt>
      <trkpt lat="48.49627" lon="7.11438">
        <ele>615.30817</ele>
        <time>2026-07-09T13:44:18Z</time>
      </trkpt>
      <trkpt lat="48.49622" lon="7.11435">
        <ele>615.30817</ele>
        <time>2026-07-09T13:44:23Z</time>
      </trkpt>
      <trkpt lat="48.49618" lon="7.11431">
        <ele>615.30817</ele>
        <time>2026-07-09T13:44:28Z</time>
      </trkpt>
      <trkpt lat="48.49615" lon="7.11425">
        <ele>615.30817</ele>
        <time>2026-07-09T13:44:34Z</time>
      </trkpt>
      <trkpt lat="48.49612" lon="7.11417">
        <ele>615.30817</ele>
        <time>2026-07-09T13:44:39Z</time>
      </trkpt>
      <trkpt lat="48.49611" lon="7.11408">
        <ele>615.30817</ele>
        <time>2026-07-09T13:44:43Z</time>
      </trkpt>
      <trkpt lat="48.49609" lon="7.11398">
        <ele>615.30817</ele>
        <time>2026-07-09T13:44:48Z</time>
      </trkpt>
      <trkpt lat="48.49609" lon="7.11391">
        <ele>615.30817</ele>
        <time>2026-07-09T13:44:52Z</time>
      </trkpt>
      <trkpt lat="48.49608" lon="7.11383">
        <ele>615.30817</ele>
        <time>2026-07-09T13:44:56Z</time>
      </trkpt>
      <trkpt lat="48.49607" lon="7.11375">
        <ele>615.30817</ele>
        <time>2026-07-09T13:45:00Z</time>
      </trkpt>
      <trkpt lat="48.49606" lon="7.11368">
        <ele>615.30817</ele>
        <time>2026-07-09T13:45:06Z</time>
      </trkpt>
      <trkpt lat="48.49606" lon="7.11361">
        <ele>615.30817</ele>
        <time>2026-07-09T13:45:10Z</time>
      </trkpt>
      <trkpt lat="48.49602" lon="7.11355">
        <ele>615.30817</ele>
        <time>2026-07-09T13:45:14Z</time>
      </trkpt>
      <trkpt lat="48.49601" lon="7.11348">
        <ele>615.30817</ele>
        <time>2026-07-09T13:45:18Z</time>
      </trkpt>
      <trkpt lat="48.49599" lon="7.11342">
        <ele>615.30817</ele>
        <time>2026-07-09T13:45:21Z</time>
      </trkpt>
      <trkpt lat="48.49596" lon="7.11336">
        <ele>615.30817</ele>
        <time>2026-07-09T13:45:26Z</time>
      </trkpt>
      <trkpt lat="48.49593" lon="7.1133">
        <ele>615.30817</ele>
        <time>2026-07-09T13:45:31Z</time>
      </trkpt>
      <trkpt lat="48.49588" lon="7.11324">
        <ele>615.30817</ele>
        <time>2026-07-09T13:45:36Z</time>
      </trkpt>
      <trkpt lat="48.49584" lon="7.11319">
        <ele>615.30817</ele>
        <time>2026-07-09T13:45:42Z</time>
      </trkpt>
      <trkpt lat="48.4958" lon="7.11313">
        <ele>615.30817</ele>
        <time>2026-07-09T13:45:47Z</time>
      </trkpt>
      <trkpt lat="48.49577" lon="7.11307">
        <ele>615.30817</ele>
        <time>2026-07-09T13:45:53Z</time>
      </trkpt>
      <trkpt lat="48.49574" lon="7.11301">
        <ele>615.30817</ele>
        <time>2026-07-09T13:45:57Z</time>
      </trkpt>
      <trkpt lat="48.49569" lon="7.11298">
        <ele>615.30817</ele>
        <time>2026-07-09T13:46:01Z</time>
      </trkpt>
      <trkpt lat="48.49566" lon="7.11293">
        <ele>613.24054</ele>
        <time>2026-07-09T13:46:05Z</time>
      </trkpt>
      <trkpt lat="48.49562" lon="7.11286">
        <ele>611.1729</ele>
        <time>2026-07-09T13:46:10Z</time>
      </trkpt>
      <trkpt lat="48.49558" lon="7.11281">
        <ele>609.1053</ele>
        <time>2026-07-09T13:46:16Z</time>
      </trkpt>
      <trkpt lat="48.49555" lon="7.11275">
        <ele>607.03766</ele>
        <time>2026-07-09T13:46:20Z</time>
      </trkpt>
      <trkpt lat="48.49552" lon="7.11269">
        <ele>604.97003</ele>
        <time>2026-07-09T13:46:25Z</time>
      </trkpt>
      <trkpt lat="48.49548" lon="7.11263">
        <ele>604.97003</ele>
        <time>2026-07-09T13:46:29Z</time>
      </trkpt>
      <trkpt lat="48.49545" lon="7.11257">
        <ele>604.97003</ele>
        <time>2026-07-09T13:46:34Z</time>
      </trkpt>
      <trkpt lat="48.49542" lon="7.11251">
        <ele>604.97003</ele>
        <time>2026-07-09T13:46:38Z</time>
      </trkpt>
      <trkpt lat="48.49539" lon="7.11245">
        <ele>604.97003</ele>
        <time>2026-07-09T13:46:43Z</time>
      </trkpt>
      <trkpt lat="48.49535" lon="7.11239">
        <ele>604.97003</ele>
        <time>2026-07-09T13:46:48Z</time>
      </trkpt>
      <trkpt lat="48.49532" lon="7.11232">
        <ele>604.97003</ele>
        <time>2026-07-09T13:46:53Z</time>
      </trkpt>
      <trkpt lat="48.49529" lon="7.11227">
        <ele>604.97003</ele>
        <time>2026-07-09T13:46:59Z</time>
      </trkpt>
      <trkpt lat="48.49526" lon="7.11221">
        <ele>604.97003</ele>
        <time>2026-07-09T13:47:04Z</time>
      </trkpt>
      <trkpt lat="48.49523" lon="7.11215">
        <ele>604.97003</ele>
        <time>2026-07-09T13:47:08Z</time>
      </trkpt>
      <trkpt lat="48.49519" lon="7.11208">
        <ele>604.97003</ele>
        <time>2026-07-09T13:47:12Z</time>
      </trkpt>
      <trkpt lat="48.49516" lon="7.11202">
        <ele>604.97003</ele>
        <time>2026-07-09T13:47:17Z</time>
      </trkpt>
      <trkpt lat="48.49513" lon="7.11195">
        <ele>604.97003</ele>
        <time>2026-07-09T13:47:21Z</time>
      </trkpt>
      <trkpt lat="48.49509" lon="7.11189">
        <ele>604.97003</ele>
        <time>2026-07-09T13:47:26Z</time>
      </trkpt>
      <trkpt lat="48.49506" lon="7.11182">
        <ele>604.97003</ele>
        <time>2026-07-09T13:47:29Z</time>
      </trkpt>
      <trkpt lat="48.49503" lon="7.11176">
        <ele>604.97003</ele>
        <time>2026-07-09T13:47:34Z</time>
      </trkpt>
      <trkpt lat="48.495" lon="7.11169">
        <ele>604.97003</ele>
        <time>2026-07-09T13:47:38Z</time>
      </trkpt>
      <trkpt lat="48.49496" lon="7.11162">
        <ele>604.97003</ele>
        <time>2026-07-09T13:47:43Z</time>
      </trkpt>
      <trkpt lat="48.49494" lon="7.11156">
        <ele>604.97003</ele>
        <time>2026-07-09T13:47:48Z</time>
      </trkpt>
      <trkpt lat="48.49491" lon="7.11148">
        <ele>604.97003</ele>
        <time>2026-07-09T13:47:53Z</time>
      </trkpt>
      <trkpt lat="48.4949" lon="7.11139">
        <ele>604.97003</ele>
        <time>2026-07-09T13:47:57Z</time>
      </trkpt>
      <trkpt lat="48.49486" lon="7.11135">
        <ele>604.97003</ele>
        <time>2026-07-09T13:48:01Z</time>
      </trkpt>
      <trkpt lat="48.49483" lon="7.1113">
        <ele>604.97003</ele>
        <time>2026-07-09T13:48:06Z</time>
      </trkpt>
      <trkpt lat="48.4948" lon="7.11123">
        <ele>604.97003</ele>
        <time>2026-07-09T13:48:11Z</time>
      </trkpt>
      <trkpt lat="48.49477" lon="7.11115">
        <ele>604.97003</ele>
        <time>2026-07-09T13:48:16Z</time>
      </trkpt>
      <trkpt lat="48.49475" lon="7.11109">
        <ele>604.97003</ele>
        <time>2026-07-09T13:48:20Z</time>
      </trkpt>
      <trkpt lat="48.49472" lon="7.11101">
        <ele>604.97003</ele>
        <time>2026-07-09T13:48:25Z</time>
      </trkpt>
      <trkpt lat="48.49472" lon="7.11092">
        <ele>604.97003</ele>
        <time>2026-07-09T13:48:31Z</time>
      </trkpt>
      <trkpt lat="48.49471" lon="7.11085">
        <ele>604.97003</ele>
        <time>2026-07-09T13:48:35Z</time>
      </trkpt>
      <trkpt lat="48.49468" lon="7.11077">
        <ele>604.97003</ele>
        <time>2026-07-09T13:48:40Z</time>
      </trkpt>
      <trkpt lat="48.49464" lon="7.11072">
        <ele>604.97003</ele>
        <time>2026-07-09T13:48:46Z</time>
      </trkpt>
      <trkpt lat="48.49462" lon="7.11065">
        <ele>604.97003</ele>
        <time>2026-07-09T13:48:50Z</time>
      </trkpt>
      <trkpt lat="48.4946" lon="7.11057">
        <ele>604.97003</ele>
        <time>2026-07-09T13:48:54Z</time>
      </trkpt>
      <trkpt lat="48.49458" lon="7.11051">
        <ele>604.97003</ele>
        <time>2026-07-09T13:48:58Z</time>
      </trkpt>
      <trkpt lat="48.49456" lon="7.11044">
        <ele>604.97003</ele>
        <time>2026-07-09T13:49:03Z</time>
      </trkpt>
      <trkpt lat="48.49458" lon="7.11034">
        <ele>604.97003</ele>
        <time>2026-07-09T13:49:08Z</time>
      </trkpt>
      <trkpt lat="48.49457" lon="7.11026">
        <ele>604.97003</ele>
        <time>2026-07-09T13:49:17Z</time>
      </trkpt>
      <trkpt lat="48.49455" lon="7.11032">
        <ele>604.97003</ele>
        <time>2026-07-09T13:49:39Z</time>
      </trkpt>
      <trkpt lat="48.49451" lon="7.11027">
        <ele>604.97003</ele>
        <time>2026-07-09T13:49:44Z</time>
      </trkpt>
      <trkpt lat="48.4945" lon="7.11018">
        <ele>604.97003</ele>
        <time>2026-07-09T13:49:49Z</time>
      </trkpt>
      <trkpt lat="48.49447" lon="7.1101">
        <ele>604.97003</ele>
        <time>2026-07-09T13:49:56Z</time>
      </trkpt>
      <trkpt lat="48.49446" lon="7.11003">
        <ele>604.97003</ele>
        <time>2026-07-09T13:49:59Z</time>
      </trkpt>
      <trkpt lat="48.49443" lon="7.10995">
        <ele>604.97003</ele>
        <time>2026-07-09T13:50:03Z</time>
      </trkpt>
      <trkpt lat="48.4944" lon="7.10989">
        <ele>604.97003</ele>
        <time>2026-07-09T13:50:09Z</time>
      </trkpt>
      <trkpt lat="48.49436" lon="7.10985">
        <ele>604.97003</ele>
        <time>2026-07-09T13:50:12Z</time>
      </trkpt>
      <trkpt lat="48.49431" lon="7.10983">
        <ele>604.97003</ele>
        <time>2026-07-09T13:50:15Z</time>
      </trkpt>
      <trkpt lat="48.49426" lon="7.10982">
        <ele>604.97003</ele>
        <time>2026-07-09T13:50:19Z</time>
      </trkpt>
      <trkpt lat="48.49422" lon="7.10978">
        <ele>602.9207</ele>
        <time>2026-07-09T13:50:29Z</time>
      </trkpt>
      <trkpt lat="48.49416" lon="7.10976">
        <ele>600.8714</ele>
        <time>2026-07-09T13:50:34Z</time>
      </trkpt>
      <trkpt lat="48.49411" lon="7.10976">
        <ele>598.82214</ele>
        <time>2026-07-09T13:50:39Z</time>
      </trkpt>
      <trkpt lat="48.49406" lon="7.10975">
        <ele>596.7728</ele>
        <time>2026-07-09T13:50:43Z</time>
      </trkpt>
      <trkpt lat="48.494" lon="7.10976">
        <ele>594.7235</ele>
        <time>2026-07-09T13:50:48Z</time>
      </trkpt>
      <trkpt lat="48.49395" lon="7.10981">
        <ele>594.7235</ele>
        <time>2026-07-09T13:50:54Z</time>
      </trkpt>
      <trkpt lat="48.4939" lon="7.10983">
        <ele>594.7235</ele>
        <time>2026-07-09T13:50:56Z</time>
      </trkpt>
      <trkpt lat="48.49386" lon="7.10983">
        <ele>594.7235</ele>
        <time>2026-07-09T13:51:02Z</time>
      </trkpt>
      <trkpt lat="48.4938" lon="7.10982">
        <ele>594.7235</ele>
        <time>2026-07-09T13:51:10Z</time>
      </trkpt>
      <trkpt lat="48.49376" lon="7.10983">
        <ele>594.7235</ele>
        <time>2026-07-09T13:51:14Z</time>
      </trkpt>
      <trkpt lat="48.49371" lon="7.10985">
        <ele>594.7235</ele>
        <time>2026-07-09T13:51:18Z</time>
      </trkpt>
      <trkpt lat="48.49366" lon="7.10987">
        <ele>594.7235</ele>
        <time>2026-07-09T13:51:24Z</time>
      </trkpt>
      <trkpt lat="48.49361" lon="7.10988">
        <ele>594.7235</ele>
        <time>2026-07-09T13:51:30Z</time>
      </trkpt>
      <trkpt lat="48.49355" lon="7.10992">
        <ele>594.7235</ele>
        <time>2026-07-09T13:51:32Z</time>
      </trkpt>
      <trkpt lat="48.49351" lon="7.10989">
        <ele>594.7235</ele>
        <time>2026-07-09T13:51:38Z</time>
      </trkpt>
      <trkpt lat="48.49347" lon="7.10995">
        <ele>594.7235</ele>
        <time>2026-07-09T13:51:42Z</time>
      </trkpt>
      <trkpt lat="48.49342" lon="7.10995">
        <ele>594.7235</ele>
        <time>2026-07-09T13:51:48Z</time>
      </trkpt>
      <trkpt lat="48.49337" lon="7.10995">
        <ele>594.7235</ele>
        <time>2026-07-09T13:51:50Z</time>
      </trkpt>
      <trkpt lat="48.49333" lon="7.10999">
        <ele>594.7235</ele>
        <time>2026-07-09T13:51:54Z</time>
      </trkpt>
      <trkpt lat="48.49328" lon="7.10998">
        <ele>594.7235</ele>
        <time>2026-07-09T13:52:00Z</time>
      </trkpt>
      <trkpt lat="48.49322" lon="7.10997">
        <ele>594.7235</ele>
        <time>2026-07-09T13:52:04Z</time>
      </trkpt>
      <trkpt lat="48.49316" lon="7.10993">
        <ele>594.7235</ele>
        <time>2026-07-09T13:52:07Z</time>
      </trkpt>
      <trkpt lat="48.49312" lon="7.10991">
        <ele>594.7235</ele>
        <time>2026-07-09T13:52:10Z</time>
      </trkpt>
      <trkpt lat="48.49307" lon="7.10987">
        <ele>594.7235</ele>
        <time>2026-07-09T13:52:13Z</time>
      </trkpt>
      <trkpt lat="48.49308" lon="7.10979">
        <ele>594.7235</ele>
        <time>2026-07-09T13:52:16Z</time>
      </trkpt>
      <trkpt lat="48.4931" lon="7.1097">
        <ele>594.7235</ele>
        <time>2026-07-09T13:52:20Z</time>
      </trkpt>
      <trkpt lat="48.49312" lon="7.10963">
        <ele>594.7235</ele>
        <time>2026-07-09T13:52:23Z</time>
      </trkpt>
      <trkpt lat="48.49313" lon="7.10952">
        <ele>594.7235</ele>
        <time>2026-07-09T13:52:26Z</time>
      </trkpt>
      <trkpt lat="48.49316" lon="7.10946">
        <ele>594.7235</ele>
        <time>2026-07-09T13:52:31Z</time>
      </trkpt>
      <trkpt lat="48.4932" lon="7.10939">
        <ele>594.7235</ele>
        <time>2026-07-09T13:52:34Z</time>
      </trkpt>
      <trkpt lat="48.49323" lon="7.10934">
        <ele>594.7235</ele>
        <time>2026-07-09T13:52:40Z</time>
      </trkpt>
      <trkpt lat="48.49327" lon="7.1093">
        <ele>594.7235</ele>
        <time>2026-07-09T13:52:44Z</time>
      </trkpt>
      <trkpt lat="48.4933" lon="7.10923">
        <ele>594.7235</ele>
        <time>2026-07-09T13:52:49Z</time>
      </trkpt>
      <trkpt lat="48.49334" lon="7.10924">
        <ele>594.7235</ele>
        <time>2026-07-09T13:52:54Z</time>
      </trkpt>
      <trkpt lat="48.49338" lon="7.10918">
        <ele>594.7235</ele>
        <time>2026-07-09T13:52:58Z</time>
      </trkpt>
      <trkpt lat="48.49341" lon="7.10912">
        <ele>594.7235</ele>
        <time>2026-07-09T13:53:03Z</time>
      </trkpt>
      <trkpt lat="48.49347" lon="7.10905">
        <ele>594.7235</ele>
        <time>2026-07-09T13:53:08Z</time>
      </trkpt>
      <trkpt lat="48.49353" lon="7.10898">
        <ele>594.7235</ele>
        <time>2026-07-09T13:53:16Z</time>
      </trkpt>
      <trkpt lat="48.49357" lon="7.1089">
        <ele>594.7235</ele>
        <time>2026-07-09T13:53:24Z</time>
      </trkpt>
      <trkpt lat="48.49358" lon="7.10883">
        <ele>594.7235</ele>
        <time>2026-07-09T13:53:28Z</time>
      </trkpt>
      <trkpt lat="48.4936" lon="7.10875">
        <ele>594.7235</ele>
        <time>2026-07-09T13:53:32Z</time>
      </trkpt>
      <trkpt lat="48.49364" lon="7.10869">
        <ele>594.7235</ele>
        <time>2026-07-09T13:53:37Z</time>
      </trkpt>
      <trkpt lat="48.49367" lon="7.10863">
        <ele>594.7235</ele>
        <time>2026-07-09T13:53:41Z</time>
      </trkpt>
      <trkpt lat="48.4937" lon="7.10858">
        <ele>594.7235</ele>
        <time>2026-07-09T13:53:47Z</time>
      </trkpt>
      <trkpt lat="48.49373" lon="7.10851">
        <ele>594.7235</ele>
        <time>2026-07-09T13:53:51Z</time>
      </trkpt>
      <trkpt lat="48.49377" lon="7.10845">
        <ele>594.7235</ele>
        <time>2026-07-09T13:53:57Z</time>
      </trkpt>
      <trkpt lat="48.4938" lon="7.10838">
        <ele>594.7235</ele>
        <time>2026-07-09T13:54:01Z</time>
      </trkpt>
      <trkpt lat="48.49383" lon="7.10832">
        <ele>594.7235</ele>
        <time>2026-07-09T13:54:06Z</time>
      </trkpt>
      <trkpt lat="48.49386" lon="7.10827">
        <ele>594.7235</ele>
        <time>2026-07-09T13:54:08Z</time>
      </trkpt>
      <trkpt lat="48.49389" lon="7.10821">
        <ele>594.7235</ele>
        <time>2026-07-09T13:54:18Z</time>
      </trkpt>
      <trkpt lat="48.49392" lon="7.10816">
        <ele>594.7235</ele>
        <time>2026-07-09T13:54:23Z</time>
      </trkpt>
      <trkpt lat="48.49395" lon="7.10808">
        <ele>594.7235</ele>
        <time>2026-07-09T13:54:29Z</time>
      </trkpt>
      <trkpt lat="48.49398" lon="7.10801">
        <ele>594.7235</ele>
        <time>2026-07-09T13:54:32Z</time>
      </trkpt>
      <trkpt lat="48.49401" lon="7.10795">
        <ele>594.7235</ele>
        <time>2026-07-09T13:54:37Z</time>
      </trkpt>
      <trkpt lat="48.49403" lon="7.10788">
        <ele>594.7235</ele>
        <time>2026-07-09T13:54:41Z</time>
      </trkpt>
      <trkpt lat="48.49405" lon="7.10781">
        <ele>594.7235</ele>
        <time>2026-07-09T13:55:18Z</time>
      </trkpt>
      <trkpt lat="48.49401" lon="7.10777">
        <ele>594.7235</ele>
        <time>2026-07-09T13:55:50Z</time>
      </trkpt>
      <trkpt lat="48.49404" lon="7.10771">
        <ele>594.7235</ele>
        <time>2026-07-09T13:57:24Z</time>
      </trkpt>
      <trkpt lat="48.49406" lon="7.10765">
        <ele>594.7235</ele>
        <time>2026-07-09T13:57:29Z</time>
      </trkpt>
      <trkpt lat="48.49409" lon="7.10759">
        <ele>594.7235</ele>
        <time>2026-07-09T13:57:35Z</time>
      </trkpt>
      <trkpt lat="48.49409" lon="7.10752">
        <ele>594.7235</ele>
        <time>2026-07-09T13:57:40Z</time>
      </trkpt>
      <trkpt lat="48.4941" lon="7.10745">
        <ele>594.7235</ele>
        <time>2026-07-09T13:57:46Z</time>
      </trkpt>
      <trkpt lat="48.4941" lon="7.10738">
        <ele>594.7235</ele>
        <time>2026-07-09T13:58:11Z</time>
      </trkpt>
      <trkpt lat="48.49411" lon="7.10731">
        <ele>594.7235</ele>
        <time>2026-07-09T13:58:25Z</time>
      </trkpt>
      <trkpt lat="48.49409" lon="7.10724">
        <ele>594.7235</ele>
        <time>2026-07-09T13:58:31Z</time>
      </trkpt>
      <trkpt lat="48.49406" lon="7.10717">
        <ele>594.7235</ele>
        <time>2026-07-09T13:58:39Z</time>
      </trkpt>
      <trkpt lat="48.49404" lon="7.1071">
        <ele>594.7235</ele>
        <time>2026-07-09T13:58:44Z</time>
      </trkpt>
      <trkpt lat="48.494" lon="7.10704">
        <ele>594.7235</ele>
        <time>2026-07-09T13:58:51Z</time>
      </trkpt>
      <trkpt lat="48.49397" lon="7.10699">
        <ele>594.7235</ele>
        <time>2026-07-09T13:58:56Z</time>
      </trkpt>
      <trkpt lat="48.49394" lon="7.10693">
        <ele>594.7235</ele>
        <time>2026-07-09T13:59:01Z</time>
      </trkpt>
      <trkpt lat="48.4939" lon="7.10688">
        <ele>594.7235</ele>
        <time>2026-07-09T13:59:04Z</time>
      </trkpt>
      <trkpt lat="48.49386" lon="7.10685">
        <ele>594.7235</ele>
        <time>2026-07-09T13:59:11Z</time>
      </trkpt>
      <trkpt lat="48.49381" lon="7.10679">
        <ele>594.7235</ele>
        <time>2026-07-09T13:59:14Z</time>
      </trkpt>
      <trkpt lat="48.49379" lon="7.10673">
        <ele>594.7235</ele>
        <time>2026-07-09T13:59:17Z</time>
      </trkpt>
      <trkpt lat="48.49374" lon="7.1067">
        <ele>594.7235</ele>
        <time>2026-07-09T13:59:23Z</time>
      </trkpt>
      <trkpt lat="48.49369" lon="7.10667">
        <ele>594.7235</ele>
        <time>2026-07-09T13:59:28Z</time>
      </trkpt>
      <trkpt lat="48.49365" lon="7.10662">
        <ele>594.7235</ele>
        <time>2026-07-09T13:59:34Z</time>
      </trkpt>
      <trkpt lat="48.4936" lon="7.10658">
        <ele>594.7235</ele>
        <time>2026-07-09T13:59:39Z</time>
      </trkpt>
      <trkpt lat="48.49356" lon="7.10654">
        <ele>594.7235</ele>
        <time>2026-07-09T13:59:45Z</time>
      </trkpt>
      <trkpt lat="48.49351" lon="7.1065">
        <ele>594.7235</ele>
        <time>2026-07-09T13:59:50Z</time>
      </trkpt>
      <trkpt lat="48.49347" lon="7.10645">
        <ele>594.7235</ele>
        <time>2026-07-09T13:59:55Z</time>
      </trkpt>
      <trkpt lat="48.49343" lon="7.10642">
        <ele>594.7235</ele>
        <time>2026-07-09T14:00:00Z</time>
      </trkpt>
      <trkpt lat="48.49338" lon="7.10638">
        <ele>594.7235</ele>
        <time>2026-07-09T14:00:04Z</time>
      </trkpt>
      <trkpt lat="48.49335" lon="7.10633">
        <ele>594.7235</ele>
        <time>2026-07-09T14:00:09Z</time>
      </trkpt>
      <trkpt lat="48.49331" lon="7.10628">
        <ele>594.7235</ele>
        <time>2026-07-09T14:00:14Z</time>
      </trkpt>
      <trkpt lat="48.49326" lon="7.10625">
        <ele>594.7235</ele>
        <time>2026-07-09T14:00:19Z</time>
      </trkpt>
      <trkpt lat="48.49321" lon="7.10622">
        <ele>594.7235</ele>
        <time>2026-07-09T14:00:25Z</time>
      </trkpt>
      <trkpt lat="48.49316" lon="7.1062">
        <ele>594.7235</ele>
        <time>2026-07-09T14:00:29Z</time>
      </trkpt>
      <trkpt lat="48.49311" lon="7.10616">
        <ele>594.7235</ele>
        <time>2026-07-09T14:00:35Z</time>
      </trkpt>
      <trkpt lat="48.49307" lon="7.10615">
        <ele>594.7235</ele>
        <time>2026-07-09T14:00:42Z</time>
      </trkpt>
      <trkpt lat="48.49302" lon="7.10615">
        <ele>594.7235</ele>
        <time>2026-07-09T14:00:47Z</time>
      </trkpt>
      <trkpt lat="48.49297" lon="7.10613">
        <ele>594.7235</ele>
        <time>2026-07-09T14:00:52Z</time>
      </trkpt>
      <trkpt lat="48.49291" lon="7.10611">
        <ele>596.96967</ele>
        <time>2026-07-09T14:01:09Z</time>
      </trkpt>
      <trkpt lat="48.49286" lon="7.1061">
        <ele>599.2158</ele>
        <time>2026-07-09T14:01:15Z</time>
      </trkpt>
      <trkpt lat="48.49281" lon="7.1061">
        <ele>601.46204</ele>
        <time>2026-07-09T14:01:21Z</time>
      </trkpt>
      <trkpt lat="48.49276" lon="7.1061">
        <ele>603.7082</ele>
        <time>2026-07-09T14:01:26Z</time>
      </trkpt>
      <trkpt lat="48.49271" lon="7.1061">
        <ele>605.95435</ele>
        <time>2026-07-09T14:01:31Z</time>
      </trkpt>
      <trkpt lat="48.49266" lon="7.10608">
        <ele>605.95435</ele>
        <time>2026-07-09T14:01:36Z</time>
      </trkpt>
      <trkpt lat="48.49261" lon="7.10606">
        <ele>605.95435</ele>
        <time>2026-07-09T14:01:41Z</time>
      </trkpt>
      <trkpt lat="48.49256" lon="7.10603">
        <ele>605.95435</ele>
        <time>2026-07-09T14:01:46Z</time>
      </trkpt>
      <trkpt lat="48.49251" lon="7.10601">
        <ele>605.95435</ele>
        <time>2026-07-09T14:01:51Z</time>
      </trkpt>
      <trkpt lat="48.49246" lon="7.10597">
        <ele>605.95435</ele>
        <time>2026-07-09T14:01:56Z</time>
      </trkpt>
      <trkpt lat="48.49241" lon="7.10592">
        <ele>605.95435</ele>
        <time>2026-07-09T14:02:02Z</time>
      </trkpt>
      <trkpt lat="48.49237" lon="7.10588">
        <ele>605.95435</ele>
        <time>2026-07-09T14:02:07Z</time>
      </trkpt>
      <trkpt lat="48.49234" lon="7.10584">
        <ele>605.95435</ele>
        <time>2026-07-09T14:02:11Z</time>
      </trkpt>
      <trkpt lat="48.4923" lon="7.10579">
        <ele>605.95435</ele>
        <time>2026-07-09T14:02:17Z</time>
      </trkpt>
      <trkpt lat="48.49226" lon="7.10574">
        <ele>605.95435</ele>
        <time>2026-07-09T14:02:22Z</time>
      </trkpt>
      <trkpt lat="48.49222" lon="7.10569">
        <ele>605.95435</ele>
        <time>2026-07-09T14:02:26Z</time>
      </trkpt>
      <trkpt lat="48.49219" lon="7.10562">
        <ele>605.95435</ele>
        <time>2026-07-09T14:02:31Z</time>
      </trkpt>
      <trkpt lat="48.49215" lon="7.10555">
        <ele>605.95435</ele>
        <time>2026-07-09T14:02:35Z</time>
      </trkpt>
      <trkpt lat="48.49213" lon="7.10549">
        <ele>605.95435</ele>
        <time>2026-07-09T14:02:40Z</time>
      </trkpt>
      <trkpt lat="48.49211" lon="7.10543">
        <ele>605.95435</ele>
        <time>2026-07-09T14:02:43Z</time>
      </trkpt>
      <trkpt lat="48.49209" lon="7.10537">
        <ele>605.95435</ele>
        <time>2026-07-09T14:02:49Z</time>
      </trkpt>
      <trkpt lat="48.49207" lon="7.10529">
        <ele>605.95435</ele>
        <time>2026-07-09T14:02:55Z</time>
      </trkpt>
      <trkpt lat="48.49204" lon="7.10522">
        <ele>605.95435</ele>
        <time>2026-07-09T14:03:01Z</time>
      </trkpt>
      <trkpt lat="48.492" lon="7.10517">
        <ele>605.95435</ele>
        <time>2026-07-09T14:03:06Z</time>
      </trkpt>
      <trkpt lat="48.49197" lon="7.10513">
        <ele>605.95435</ele>
        <time>2026-07-09T14:03:11Z</time>
      </trkpt>
      <trkpt lat="48.49193" lon="7.10508">
        <ele>605.95435</ele>
        <time>2026-07-09T14:03:15Z</time>
      </trkpt>
      <trkpt lat="48.49188" lon="7.10508">
        <ele>605.95435</ele>
        <time>2026-07-09T14:03:18Z</time>
      </trkpt>
      <trkpt lat="48.49184" lon="7.10505">
        <ele>605.95435</ele>
        <time>2026-07-09T14:03:23Z</time>
      </trkpt>
      <trkpt lat="48.4918" lon="7.10501">
        <ele>605.95435</ele>
        <time>2026-07-09T14:03:27Z</time>
      </trkpt>
      <trkpt lat="48.49175" lon="7.10497">
        <ele>603.9011</ele>
        <time>2026-07-09T14:03:33Z</time>
      </trkpt>
      <trkpt lat="48.49171" lon="7.10495">
        <ele>601.84784</ele>
        <time>2026-07-09T14:03:38Z</time>
      </trkpt>
      <trkpt lat="48.49167" lon="7.10491">
        <ele>599.7946</ele>
        <time>2026-07-09T14:03:43Z</time>
      </trkpt>
      <trkpt lat="48.49163" lon="7.10487">
        <ele>597.74133</ele>
        <time>2026-07-09T14:03:48Z</time>
      </trkpt>
      <trkpt lat="48.49158" lon="7.10483">
        <ele>595.6881</ele>
        <time>2026-07-09T14:03:53Z</time>
      </trkpt>
      <trkpt lat="48.49154" lon="7.10479">
        <ele>595.6881</ele>
        <time>2026-07-09T14:03:58Z</time>
      </trkpt>
      <trkpt lat="48.4915" lon="7.10474">
        <ele>595.6881</ele>
        <time>2026-07-09T14:04:02Z</time>
      </trkpt>
      <trkpt lat="48.49146" lon="7.10469">
        <ele>595.6881</ele>
        <time>2026-07-09T14:04:07Z</time>
      </trkpt>
      <trkpt lat="48.49143" lon="7.10464">
        <ele>595.6881</ele>
        <time>2026-07-09T14:04:11Z</time>
      </trkpt>
      <trkpt lat="48.4914" lon="7.10456">
        <ele>595.6881</ele>
        <time>2026-07-09T14:04:14Z</time>
      </trkpt>
      <trkpt lat="48.49139" lon="7.10449">
        <ele>595.6881</ele>
        <time>2026-07-09T14:04:19Z</time>
      </trkpt>
      <trkpt lat="48.49141" lon="7.10443">
        <ele>595.6881</ele>
        <time>2026-07-09T14:04:27Z</time>
      </trkpt>
      <trkpt lat="48.49141" lon="7.10436">
        <ele>595.6881</ele>
        <time>2026-07-09T14:04:33Z</time>
      </trkpt>
      <trkpt lat="48.49142" lon="7.10428">
        <ele>595.6881</ele>
        <time>2026-07-09T14:04:39Z</time>
      </trkpt>
      <trkpt lat="48.49142" lon="7.10422">
        <ele>595.6881</ele>
        <time>2026-07-09T14:04:46Z</time>
      </trkpt>
      <trkpt lat="48.49143" lon="7.10414">
        <ele>595.6881</ele>
        <time>2026-07-09T14:04:51Z</time>
      </trkpt>
      <trkpt lat="48.49145" lon="7.10407">
        <ele>595.6881</ele>
        <time>2026-07-09T14:05:01Z</time>
      </trkpt>
      <trkpt lat="48.49146" lon="7.104">
        <ele>595.6881</ele>
        <time>2026-07-09T14:05:04Z</time>
      </trkpt>
      <trkpt lat="48.49147" lon="7.10393">
        <ele>595.6881</ele>
        <time>2026-07-09T14:05:07Z</time>
      </trkpt>
      <trkpt lat="48.49149" lon="7.10385">
        <ele>595.6881</ele>
        <time>2026-07-09T14:05:09Z</time>
      </trkpt>
      <trkpt lat="48.49156" lon="7.10382">
        <ele>595.6881</ele>
        <time>2026-07-09T14:05:20Z</time>
      </trkpt>
      <trkpt lat="48.49155" lon="7.10374">
        <ele>595.6881</ele>
        <time>2026-07-09T14:05:26Z</time>
      </trkpt>
      <trkpt lat="48.49156" lon="7.10365">
        <ele>595.6881</ele>
        <time>2026-07-09T14:05:28Z</time>
      </trkpt>
      <trkpt lat="48.49154" lon="7.10354">
        <ele>595.6881</ele>
        <time>2026-07-09T14:05:46Z</time>
      </trkpt>
      <trkpt lat="48.49156" lon="7.10347">
        <ele>595.6881</ele>
        <time>2026-07-09T14:05:50Z</time>
      </trkpt>
      <trkpt lat="48.49157" lon="7.1034">
        <ele>595.6881</ele>
        <time>2026-07-09T14:05:53Z</time>
      </trkpt>
      <trkpt lat="48.49159" lon="7.10331">
        <ele>595.6881</ele>
        <time>2026-07-09T14:05:59Z</time>
      </trkpt>
      <trkpt lat="48.49161" lon="7.10319">
        <ele>595.6881</ele>
        <time>2026-07-09T14:06:06Z</time>
      </trkpt>
      <trkpt lat="48.49163" lon="7.1031">
        <ele>595.6881</ele>
        <time>2026-07-09T14:06:15Z</time>
      </trkpt>
      <trkpt lat="48.49164" lon="7.10303">
        <ele>595.6881</ele>
        <time>2026-07-09T14:06:18Z</time>
      </trkpt>
      <trkpt lat="48.49166" lon="7.10291">
        <ele>595.6881</ele>
        <time>2026-07-09T14:06:26Z</time>
      </trkpt>
      <trkpt lat="48.49168" lon="7.10283">
        <ele>595.6881</ele>
        <time>2026-07-09T14:06:40Z</time>
      </trkpt>
      <trkpt lat="48.49169" lon="7.10276">
        <ele>595.6881</ele>
        <time>2026-07-09T14:06:48Z</time>
      </trkpt>
      <trkpt lat="48.4917" lon="7.10267">
        <ele>595.6881</ele>
        <time>2026-07-09T14:06:52Z</time>
      </trkpt>
      <trkpt lat="48.49172" lon="7.1026">
        <ele>595.6881</ele>
        <time>2026-07-09T14:06:55Z</time>
      </trkpt>
      <trkpt lat="48.49174" lon="7.1025">
        <ele>595.6881</ele>
        <time>2026-07-09T14:06:58Z</time>
      </trkpt>
      <trkpt lat="48.49175" lon="7.10239">
        <ele>595.6881</ele>
        <time>2026-07-09T14:07:06Z</time>
      </trkpt>
      <trkpt lat="48.49176" lon="7.10233">
        <ele>595.6881</ele>
        <time>2026-07-09T14:07:09Z</time>
      </trkpt>
      <trkpt lat="48.49175" lon="7.10226">
        <ele>595.6881</ele>
        <time>2026-07-09T14:07:15Z</time>
      </trkpt>
      <trkpt lat="48.49179" lon="7.1022">
        <ele>595.6881</ele>
        <time>2026-07-09T14:07:18Z</time>
      </trkpt>
      <trkpt lat="48.4918" lon="7.10213">
        <ele>595.6881</ele>
        <time>2026-07-09T14:07:24Z</time>
      </trkpt>
      <trkpt lat="48.49181" lon="7.10206">
        <ele>595.6881</ele>
        <time>2026-07-09T14:07:28Z</time>
      </trkpt>
      <trkpt lat="48.49183" lon="7.10199">
        <ele>595.6881</ele>
        <time>2026-07-09T14:07:35Z</time>
      </trkpt>
      <trkpt lat="48.49184" lon="7.10192">
        <ele>595.6881</ele>
        <time>2026-07-09T14:07:40Z</time>
      </trkpt>
      <trkpt lat="48.49184" lon="7.10184">
        <ele>595.6881</ele>
        <time>2026-07-09T14:07:44Z</time>
      </trkpt>
      <trkpt lat="48.49185" lon="7.10177">
        <ele>595.6881</ele>
        <time>2026-07-09T14:07:49Z</time>
      </trkpt>
      <trkpt lat="48.49186" lon="7.10169">
        <ele>595.6881</ele>
        <time>2026-07-09T14:07:56Z</time>
      </trkpt>
      <trkpt lat="48.49189" lon="7.10162">
        <ele>595.6881</ele>
        <time>2026-07-09T14:08:00Z</time>
      </trkpt>
      <trkpt lat="48.49191" lon="7.10154">
        <ele>595.6881</ele>
        <time>2026-07-09T14:08:05Z</time>
      </trkpt>
      <trkpt lat="48.49194" lon="7.10148">
        <ele>595.6881</ele>
        <time>2026-07-09T14:08:10Z</time>
      </trkpt>
      <trkpt lat="48.49193" lon="7.10141">
        <ele>595.6881</ele>
        <time>2026-07-09T14:08:14Z</time>
      </trkpt>
      <trkpt lat="48.49194" lon="7.10134">
        <ele>595.6881</ele>
        <time>2026-07-09T14:08:19Z</time>
      </trkpt>
      <trkpt lat="48.49194" lon="7.10125">
        <ele>595.6881</ele>
        <time>2026-07-09T14:08:26Z</time>
      </trkpt>
      <trkpt lat="48.49196" lon="7.10119">
        <ele>595.6881</ele>
        <time>2026-07-09T14:08:30Z</time>
      </trkpt>
      <trkpt lat="48.49198" lon="7.10112">
        <ele>595.6881</ele>
        <time>2026-07-09T14:08:59Z</time>
      </trkpt>
      <trkpt lat="48.49199" lon="7.10105">
        <ele>595.6881</ele>
        <time>2026-07-09T14:09:17Z</time>
      </trkpt>
      <trkpt lat="48.49197" lon="7.10098">
        <ele>595.6881</ele>
        <time>2026-07-09T14:09:22Z</time>
      </trkpt>
      <trkpt lat="48.49194" lon="7.10091">
        <ele>595.6881</ele>
        <time>2026-07-09T14:09:27Z</time>
      </trkpt>
      <trkpt lat="48.49192" lon="7.10083">
        <ele>595.6881</ele>
        <time>2026-07-09T14:09:31Z</time>
      </trkpt>
      <trkpt lat="48.49193" lon="7.10076">
        <ele>595.6881</ele>
        <time>2026-07-09T14:09:36Z</time>
      </trkpt>
      <trkpt lat="48.49192" lon="7.10064">
        <ele>595.6881</ele>
        <time>2026-07-09T14:09:43Z</time>
      </trkpt>
      <trkpt lat="48.49195" lon="7.10056">
        <ele>595.6881</ele>
        <time>2026-07-09T14:09:44Z</time>
      </trkpt>
      <trkpt lat="48.49194" lon="7.10048">
        <ele>595.6881</ele>
        <time>2026-07-09T14:09:47Z</time>
      </trkpt>
      <trkpt lat="48.49195" lon="7.10042">
        <ele>595.6881</ele>
        <time>2026-07-09T14:09:51Z</time>
      </trkpt>
      <trkpt lat="48.49196" lon="7.10035">
        <ele>595.6881</ele>
        <time>2026-07-09T14:09:55Z</time>
      </trkpt>
      <trkpt lat="48.49196" lon="7.10028">
        <ele>595.6881</ele>
        <time>2026-07-09T14:09:59Z</time>
      </trkpt>
      <trkpt lat="48.49195" lon="7.10021">
        <ele>595.6881</ele>
        <time>2026-07-09T14:10:02Z</time>
      </trkpt>
      <trkpt lat="48.49195" lon="7.10014">
        <ele>595.6881</ele>
        <time>2026-07-09T14:10:08Z</time>
      </trkpt>
      <trkpt lat="48.49193" lon="7.10007">
        <ele>595.6881</ele>
        <time>2026-07-09T14:10:22Z</time>
      </trkpt>
      <trkpt lat="48.49193" lon="7.1">
        <ele>595.6881</ele>
        <time>2026-07-09T14:10:26Z</time>
      </trkpt>
      <trkpt lat="48.49194" lon="7.09993">
        <ele>595.6881</ele>
        <time>2026-07-09T14:10:30Z</time>
      </trkpt>
      <trkpt lat="48.49195" lon="7.09985">
        <ele>595.6881</ele>
        <time>2026-07-09T14:10:36Z</time>
      </trkpt>
      <trkpt lat="48.49196" lon="7.09978">
        <ele>595.6881</ele>
        <time>2026-07-09T14:10:41Z</time>
      </trkpt>
      <trkpt lat="48.49197" lon="7.09971">
        <ele>595.6881</ele>
        <time>2026-07-09T14:10:44Z</time>
      </trkpt>
      <trkpt lat="48.49198" lon="7.09963">
        <ele>595.6881</ele>
        <time>2026-07-09T14:10:47Z</time>
      </trkpt>
      <trkpt lat="48.49199" lon="7.09956">
        <ele>595.6881</ele>
        <time>2026-07-09T14:10:52Z</time>
      </trkpt>
      <trkpt lat="48.492" lon="7.09949">
        <ele>595.6881</ele>
        <time>2026-07-09T14:10:55Z</time>
      </trkpt>
      <trkpt lat="48.49202" lon="7.09941">
        <ele>595.6881</ele>
        <time>2026-07-09T14:10:59Z</time>
      </trkpt>
      <trkpt lat="48.49203" lon="7.09934">
        <ele>595.6881</ele>
        <time>2026-07-09T14:11:02Z</time>
      </trkpt>
      <trkpt lat="48.49205" lon="7.09927">
        <ele>595.6881</ele>
        <time>2026-07-09T14:11:08Z</time>
      </trkpt>
      <trkpt lat="48.49206" lon="7.09919">
        <ele>595.6881</ele>
        <time>2026-07-09T14:11:14Z</time>
      </trkpt>
      <trkpt lat="48.49207" lon="7.09913">
        <ele>595.6881</ele>
        <time>2026-07-09T14:11:18Z</time>
      </trkpt>
      <trkpt lat="48.49209" lon="7.09905">
        <ele>595.6881</ele>
        <time>2026-07-09T14:11:22Z</time>
      </trkpt>
      <trkpt lat="48.49211" lon="7.09898">
        <ele>595.6881</ele>
        <time>2026-07-09T14:11:26Z</time>
      </trkpt>
      <trkpt lat="48.49215" lon="7.09894">
        <ele>595.6881</ele>
        <time>2026-07-09T14:11:31Z</time>
      </trkpt>
      <trkpt lat="48.49215" lon="7.09886">
        <ele>595.6881</ele>
        <time>2026-07-09T14:11:36Z</time>
      </trkpt>
      <trkpt lat="48.49218" lon="7.09879">
        <ele>595.6881</ele>
        <time>2026-07-09T14:11:42Z</time>
      </trkpt>
      <trkpt lat="48.4922" lon="7.09872">
        <ele>595.6881</ele>
        <time>2026-07-09T14:11:46Z</time>
      </trkpt>
      <trkpt lat="48.4922" lon="7.09863">
        <ele>595.6881</ele>
        <time>2026-07-09T14:11:51Z</time>
      </trkpt>
      <trkpt lat="48.49221" lon="7.09854">
        <ele>595.6881</ele>
        <time>2026-07-09T14:11:56Z</time>
      </trkpt>
      <trkpt lat="48.49223" lon="7.09846">
        <ele>595.6881</ele>
        <time>2026-07-09T14:12:01Z</time>
      </trkpt>
      <trkpt lat="48.49224" lon="7.09838">
        <ele>595.6881</ele>
        <time>2026-07-09T14:12:05Z</time>
      </trkpt>
      <trkpt lat="48.49228" lon="7.0983">
        <ele>595.6881</ele>
        <time>2026-07-09T14:12:12Z</time>
      </trkpt>
      <trkpt lat="48.49233" lon="7.09829">
        <ele>595.6881</ele>
        <time>2026-07-09T14:12:16Z</time>
      </trkpt>
      <trkpt lat="48.49238" lon="7.09826">
        <ele>595.6881</ele>
        <time>2026-07-09T14:12:21Z</time>
      </trkpt>
      <trkpt lat="48.49242" lon="7.09822">
        <ele>595.6881</ele>
        <time>2026-07-09T14:12:27Z</time>
      </trkpt>
      <trkpt lat="48.49246" lon="7.09819">
        <ele>595.6881</ele>
        <time>2026-07-09T14:12:32Z</time>
      </trkpt>
      <trkpt lat="48.49246" lon="7.09828">
        <ele>595.6881</ele>
        <time>2026-07-09T14:12:44Z</time>
      </trkpt>
      <trkpt lat="48.49247" lon="7.0982">
        <ele>595.6881</ele>
        <time>2026-07-09T14:12:52Z</time>
      </trkpt>
      <trkpt lat="48.49246" lon="7.09812">
        <ele>595.6881</ele>
        <time>2026-07-09T14:13:15Z</time>
      </trkpt>
      <trkpt lat="48.49249" lon="7.09798">
        <ele>595.6881</ele>
        <time>2026-07-09T14:13:17Z</time>
      </trkpt>
      <trkpt lat="48.49248" lon="7.09806">
        <ele>595.6881</ele>
        <time>2026-07-09T14:13:23Z</time>
      </trkpt>
      <trkpt lat="48.49247" lon="7.09812">
        <ele>595.6881</ele>
        <time>2026-07-09T14:13:26Z</time>
      </trkpt>
      <trkpt lat="48.49243" lon="7.09817">
        <ele>595.6881</ele>
        <time>2026-07-09T14:13:29Z</time>
      </trkpt>
      <trkpt lat="48.4924" lon="7.09824">
        <ele>595.6881</ele>
        <time>2026-07-09T14:13:34Z</time>
      </trkpt>
      <trkpt lat="48.49236" lon="7.09828">
        <ele>595.6881</ele>
        <time>2026-07-09T14:13:42Z</time>
      </trkpt>
      <trkpt lat="48.49231" lon="7.09832">
        <ele>595.6881</ele>
        <time>2026-07-09T14:13:49Z</time>
      </trkpt>
      <trkpt lat="48.49228" lon="7.09837">
        <ele>595.6881</ele>
        <time>2026-07-09T14:13:55Z</time>
      </trkpt>
      <trkpt lat="48.49223" lon="7.09839">
        <ele>595.6881</ele>
        <time>2026-07-09T14:13:59Z</time>
      </trkpt>
      <trkpt lat="48.49219" lon="7.09847">
        <ele>595.6881</ele>
        <time>2026-07-09T14:14:03Z</time>
      </trkpt>
      <trkpt lat="48.49218" lon="7.09854">
        <ele>595.6881</ele>
        <time>2026-07-09T14:14:10Z</time>
      </trkpt>
      <trkpt lat="48.49217" lon="7.09861">
        <ele>595.6881</ele>
        <time>2026-07-09T14:14:17Z</time>
      </trkpt>
      <trkpt lat="48.49213" lon="7.09865">
        <ele>595.6881</ele>
        <time>2026-07-09T14:14:21Z</time>
      </trkpt>
      <trkpt lat="48.4921" lon="7.09872">
        <ele>595.6881</ele>
        <time>2026-07-09T14:14:25Z</time>
      </trkpt>
      <trkpt lat="48.49207" lon="7.09878">
        <ele>595.6881</ele>
        <time>2026-07-09T14:14:29Z</time>
      </trkpt>
      <trkpt lat="48.49205" lon="7.09884">
        <ele>595.6881</ele>
        <time>2026-07-09T14:14:35Z</time>
      </trkpt>
      <trkpt lat="48.492" lon="7.0989">
        <ele>595.6881</ele>
        <time>2026-07-09T14:14:39Z</time>
      </trkpt>
      <trkpt lat="48.49197" lon="7.09895">
        <ele>595.6881</ele>
        <time>2026-07-09T14:14:43Z</time>
      </trkpt>
      <trkpt lat="48.49195" lon="7.09901">
        <ele>595.6881</ele>
        <time>2026-07-09T14:14:47Z</time>
      </trkpt>
      <trkpt lat="48.49191" lon="7.09907">
        <ele>595.6881</ele>
        <time>2026-07-09T14:14:52Z</time>
      </trkpt>
      <trkpt lat="48.49188" lon="7.09914">
        <ele>595.6881</ele>
        <time>2026-07-09T14:14:58Z</time>
      </trkpt>
      <trkpt lat="48.49187" lon="7.09921">
        <ele>595.6881</ele>
        <time>2026-07-09T14:15:06Z</time>
      </trkpt>
      <trkpt lat="48.49184" lon="7.09926">
        <ele>595.6881</ele>
        <time>2026-07-09T14:15:12Z</time>
      </trkpt>
      <trkpt lat="48.49183" lon="7.09935">
        <ele>595.6881</ele>
        <time>2026-07-09T14:15:18Z</time>
      </trkpt>
      <trkpt lat="48.49179" lon="7.09939">
        <ele>595.6881</ele>
        <time>2026-07-09T14:15:23Z</time>
      </trkpt>
      <trkpt lat="48.49179" lon="7.09932">
        <ele>595.6881</ele>
        <time>2026-07-09T14:15:32Z</time>
      </trkpt>
      <trkpt lat="48.49179" lon="7.09939">
        <ele>595.6881</ele>
        <time>2026-07-09T14:15:51Z</time>
      </trkpt>
      <trkpt lat="48.49179" lon="7.09946">
        <ele>595.6881</ele>
        <time>2026-07-09T14:15:56Z</time>
      </trkpt>
      <trkpt lat="48.49176" lon="7.09954">
        <ele>595.6881</ele>
        <time>2026-07-09T14:16:00Z</time>
      </trkpt>
      <trkpt lat="48.49175" lon="7.09961">
        <ele>595.6881</ele>
        <time>2026-07-09T14:16:04Z</time>
      </trkpt>
      <trkpt lat="48.49176" lon="7.09968">
        <ele>595.6881</ele>
        <time>2026-07-09T14:16:09Z</time>
      </trkpt>
      <trkpt lat="48.49177" lon="7.09977">
        <ele>595.6881</ele>
        <time>2026-07-09T14:16:15Z</time>
      </trkpt>
      <trkpt lat="48.49177" lon="7.09985">
        <ele>595.6881</ele>
        <time>2026-07-09T14:16:20Z</time>
      </trkpt>
      <trkpt lat="48.49175" lon="7.09992">
        <ele>595.6881</ele>
        <time>2026-07-09T14:16:24Z</time>
      </trkpt>
      <trkpt lat="48.49173" lon="7.09999">
        <ele>595.6881</ele>
        <time>2026-07-09T14:16:29Z</time>
      </trkpt>
      <trkpt lat="48.49171" lon="7.10006">
        <ele>595.6881</ele>
        <time>2026-07-09T14:16:35Z</time>
      </trkpt>
      <trkpt lat="48.49169" lon="7.10014">
        <ele>595.6881</ele>
        <time>2026-07-09T14:16:41Z</time>
      </trkpt>
      <trkpt lat="48.49168" lon="7.10022">
        <ele>595.6881</ele>
        <time>2026-07-09T14:16:47Z</time>
      </trkpt>
      <trkpt lat="48.49162" lon="7.10026">
        <ele>595.6881</ele>
        <time>2026-07-09T14:16:52Z</time>
      </trkpt>
      <trkpt lat="48.49162" lon="7.10034">
        <ele>597.87354</ele>
        <time>2026-07-09T14:16:57Z</time>
      </trkpt>
      <trkpt lat="48.49159" lon="7.10042">
        <ele>600.0589</ele>
        <time>2026-07-09T14:17:09Z</time>
      </trkpt>
      <trkpt lat="48.49158" lon="7.1005">
        <ele>602.2443</ele>
        <time>2026-07-09T14:17:15Z</time>
      </trkpt>
      <trkpt lat="48.49158" lon="7.10058">
        <ele>604.4297</ele>
        <time>2026-07-09T14:17:18Z</time>
      </trkpt>
      <trkpt lat="48.4916" lon="7.10065">
        <ele>606.6151</ele>
        <time>2026-07-09T14:17:23Z</time>
      </trkpt>
      <trkpt lat="48.4916" lon="7.10073">
        <ele>606.6151</ele>
        <time>2026-07-09T14:17:28Z</time>
      </trkpt>
      <trkpt lat="48.49157" lon="7.10079">
        <ele>606.6151</ele>
        <time>2026-07-09T14:17:35Z</time>
      </trkpt>
      <trkpt lat="48.49155" lon="7.10087">
        <ele>606.6151</ele>
        <time>2026-07-09T14:17:41Z</time>
      </trkpt>
      <trkpt lat="48.49154" lon="7.10094">
        <ele>606.6151</ele>
        <time>2026-07-09T14:17:47Z</time>
      </trkpt>
      <trkpt lat="48.49152" lon="7.10101">
        <ele>606.6151</ele>
        <time>2026-07-09T14:17:55Z</time>
      </trkpt>
      <trkpt lat="48.49143" lon="7.10099">
        <ele>606.6151</ele>
        <time>2026-07-09T14:18:06Z</time>
      </trkpt>
      <trkpt lat="48.49146" lon="7.10108">
        <ele>606.6151</ele>
        <time>2026-07-09T14:18:10Z</time>
      </trkpt>
      <trkpt lat="48.49146" lon="7.10115">
        <ele>606.6151</ele>
        <time>2026-07-09T14:18:13Z</time>
      </trkpt>
      <trkpt lat="48.49146" lon="7.10122">
        <ele>606.6151</ele>
        <time>2026-07-09T14:18:18Z</time>
      </trkpt>
      <trkpt lat="48.49141" lon="7.10127">
        <ele>606.6151</ele>
        <time>2026-07-09T14:18:23Z</time>
      </trkpt>
      <trkpt lat="48.49139" lon="7.10136">
        <ele>606.6151</ele>
        <time>2026-07-09T14:18:31Z</time>
      </trkpt>
      <trkpt lat="48.49135" lon="7.10143">
        <ele>606.6151</ele>
        <time>2026-07-09T14:18:36Z</time>
      </trkpt>
      <trkpt lat="48.49131" lon="7.1015">
        <ele>606.6151</ele>
        <time>2026-07-09T14:18:42Z</time>
      </trkpt>
      <trkpt lat="48.49129" lon="7.10157">
        <ele>606.6151</ele>
        <time>2026-07-09T14:18:49Z</time>
      </trkpt>
      <trkpt lat="48.49129" lon="7.10165">
        <ele>609.0323</ele>
        <time>2026-07-09T14:18:56Z</time>
      </trkpt>
      <trkpt lat="48.49126" lon="7.10171">
        <ele>611.44946</ele>
        <time>2026-07-09T14:19:01Z</time>
      </trkpt>
      <trkpt lat="48.49123" lon="7.10178">
        <ele>613.8666</ele>
        <time>2026-07-09T14:19:07Z</time>
      </trkpt>
      <trkpt lat="48.49121" lon="7.10185">
        <ele>616.28375</ele>
        <time>2026-07-09T14:19:12Z</time>
      </trkpt>
      <trkpt lat="48.49117" lon="7.10192">
        <ele>618.7009</ele>
        <time>2026-07-09T14:19:17Z</time>
      </trkpt>
      <trkpt lat="48.49117" lon="7.10199">
        <ele>618.7009</ele>
        <time>2026-07-09T14:19:22Z</time>
      </trkpt>
      <trkpt lat="48.49118" lon="7.10207">
        <ele>618.7009</ele>
        <time>2026-07-09T14:19:29Z</time>
      </trkpt>
      <trkpt lat="48.49116" lon="7.10214">
        <ele>618.7009</ele>
        <time>2026-07-09T14:19:35Z</time>
      </trkpt>
      <trkpt lat="48.49114" lon="7.1022">
        <ele>618.7009</ele>
        <time>2026-07-09T14:19:38Z</time>
      </trkpt>
      <trkpt lat="48.49112" lon="7.10227">
        <ele>618.7009</ele>
        <time>2026-07-09T14:19:44Z</time>
      </trkpt>
      <trkpt lat="48.49109" lon="7.10234">
        <ele>618.7009</ele>
        <time>2026-07-09T14:19:50Z</time>
      </trkpt>
      <trkpt lat="48.49106" lon="7.10239">
        <ele>618.7009</ele>
        <time>2026-07-09T14:19:54Z</time>
      </trkpt>
      <trkpt lat="48.49104" lon="7.10246">
        <ele>618.7009</ele>
        <time>2026-07-09T14:19:59Z</time>
      </trkpt>
      <trkpt lat="48.49098" lon="7.10247">
        <ele>618.7009</ele>
        <time>2026-07-09T14:20:20Z</time>
      </trkpt>
      <trkpt lat="48.49096" lon="7.10254">
        <ele>618.7009</ele>
        <time>2026-07-09T14:20:25Z</time>
      </trkpt>
      <trkpt lat="48.49095" lon="7.10261">
        <ele>618.7009</ele>
        <time>2026-07-09T14:20:29Z</time>
      </trkpt>
      <trkpt lat="48.49093" lon="7.10268">
        <ele>618.7009</ele>
        <time>2026-07-09T14:20:33Z</time>
      </trkpt>
      <trkpt lat="48.49093" lon="7.10275">
        <ele>618.7009</ele>
        <time>2026-07-09T14:20:39Z</time>
      </trkpt>
      <trkpt lat="48.49089" lon="7.10281">
        <ele>618.7009</ele>
        <time>2026-07-09T14:20:45Z</time>
      </trkpt>
      <trkpt lat="48.49085" lon="7.10286">
        <ele>618.7009</ele>
        <time>2026-07-09T14:20:49Z</time>
      </trkpt>
      <trkpt lat="48.49081" lon="7.10292">
        <ele>618.7009</ele>
        <time>2026-07-09T14:20:54Z</time>
      </trkpt>
      <trkpt lat="48.49078" lon="7.10297">
        <ele>620.7697</ele>
        <time>2026-07-09T14:20:59Z</time>
      </trkpt>
      <trkpt lat="48.49074" lon="7.10302">
        <ele>622.83856</ele>
        <time>2026-07-09T14:21:06Z</time>
      </trkpt>
      <trkpt lat="48.4907" lon="7.10306">
        <ele>624.90735</ele>
        <time>2026-07-09T14:21:14Z</time>
      </trkpt>
      <trkpt lat="48.49065" lon="7.1031">
        <ele>626.9762</ele>
        <time>2026-07-09T14:21:18Z</time>
      </trkpt>
      <trkpt lat="48.49062" lon="7.10314">
        <ele>629.045</ele>
        <time>2026-07-09T14:21:22Z</time>
      </trkpt>
      <trkpt lat="48.49058" lon="7.10318">
        <ele>629.045</ele>
        <time>2026-07-09T14:21:28Z</time>
      </trkpt>
      <trkpt lat="48.49053" lon="7.10323">
        <ele>629.045</ele>
        <time>2026-07-09T14:21:36Z</time>
      </trkpt>
      <trkpt lat="48.49055" lon="7.10329">
        <ele>629.045</ele>
        <time>2026-07-09T14:22:06Z</time>
      </trkpt>
      <trkpt lat="48.49052" lon="7.10335">
        <ele>629.045</ele>
        <time>2026-07-09T14:22:16Z</time>
      </trkpt>
      <trkpt lat="48.49048" lon="7.1034">
        <ele>629.045</ele>
        <time>2026-07-09T14:22:24Z</time>
      </trkpt>
      <trkpt lat="48.49043" lon="7.10342">
        <ele>629.045</ele>
        <time>2026-07-09T14:22:30Z</time>
      </trkpt>
      <trkpt lat="48.49039" lon="7.10349">
        <ele>629.045</ele>
        <time>2026-07-09T14:22:36Z</time>
      </trkpt>
      <trkpt lat="48.49037" lon="7.10355">
        <ele>629.045</ele>
        <time>2026-07-09T14:22:44Z</time>
      </trkpt>
      <trkpt lat="48.49033" lon="7.10357">
        <ele>629.045</ele>
        <time>2026-07-09T14:22:48Z</time>
      </trkpt>
      <trkpt lat="48.49028" lon="7.1036">
        <ele>629.045</ele>
        <time>2026-07-09T14:22:54Z</time>
      </trkpt>
      <trkpt lat="48.49024" lon="7.10365">
        <ele>629.045</ele>
        <time>2026-07-09T14:22:59Z</time>
      </trkpt>
      <trkpt lat="48.4902" lon="7.1037">
        <ele>629.045</ele>
        <time>2026-07-09T14:23:05Z</time>
      </trkpt>
      <trkpt lat="48.49017" lon="7.10376">
        <ele>629.045</ele>
        <time>2026-07-09T14:23:10Z</time>
      </trkpt>
      <trkpt lat="48.49013" lon="7.10386">
        <ele>629.045</ele>
        <time>2026-07-09T14:23:21Z</time>
      </trkpt>
      <trkpt lat="48.4901" lon="7.10392">
        <ele>629.045</ele>
        <time>2026-07-09T14:23:33Z</time>
      </trkpt>
      <trkpt lat="48.49006" lon="7.10398">
        <ele>629.045</ele>
        <time>2026-07-09T14:23:38Z</time>
      </trkpt>
      <trkpt lat="48.49006" lon="7.10405">
        <ele>631.0817</ele>
        <time>2026-07-09T14:23:44Z</time>
      </trkpt>
      <trkpt lat="48.49004" lon="7.10412">
        <ele>633.11847</ele>
        <time>2026-07-09T14:23:51Z</time>
      </trkpt>
      <trkpt lat="48.49" lon="7.1042">
        <ele>635.15515</ele>
        <time>2026-07-09T14:23:55Z</time>
      </trkpt>
      <trkpt lat="48.48998" lon="7.10426">
        <ele>637.1919</ele>
        <time>2026-07-09T14:24:00Z</time>
      </trkpt>
      <trkpt lat="48.48998" lon="7.10434">
        <ele>639.22864</ele>
        <time>2026-07-09T14:24:06Z</time>
      </trkpt>
      <trkpt lat="48.48995" lon="7.1044">
        <ele>639.22864</ele>
        <time>2026-07-09T14:24:11Z</time>
      </trkpt>
      <trkpt lat="48.48992" lon="7.10445">
        <ele>639.22864</ele>
        <time>2026-07-09T14:24:15Z</time>
      </trkpt>
      <trkpt lat="48.48988" lon="7.10449">
        <ele>639.22864</ele>
        <time>2026-07-09T14:24:18Z</time>
      </trkpt>
      <trkpt lat="48.48984" lon="7.10454">
        <ele>639.22864</ele>
        <time>2026-07-09T14:24:23Z</time>
      </trkpt>
      <trkpt lat="48.48981" lon="7.10461">
        <ele>639.22864</ele>
        <time>2026-07-09T14:24:30Z</time>
      </trkpt>
      <trkpt lat="48.48979" lon="7.10468">
        <ele>639.22864</ele>
        <time>2026-07-09T14:24:36Z</time>
      </trkpt>
      <trkpt lat="48.48975" lon="7.10473">
        <ele>639.22864</ele>
        <time>2026-07-09T14:24:40Z</time>
      </trkpt>
      <trkpt lat="48.48971" lon="7.10477">
        <ele>639.22864</ele>
        <time>2026-07-09T14:24:46Z</time>
      </trkpt>
      <trkpt lat="48.48966" lon="7.10475">
        <ele>639.22864</ele>
        <time>2026-07-09T14:24:54Z</time>
      </trkpt>
      <trkpt lat="48.48962" lon="7.10479">
        <ele>639.22864</ele>
        <time>2026-07-09T14:25:00Z</time>
      </trkpt>
      <trkpt lat="48.48958" lon="7.10485">
        <ele>639.22864</ele>
        <time>2026-07-09T14:25:05Z</time>
      </trkpt>
      <trkpt lat="48.48954" lon="7.10491">
        <ele>639.22864</ele>
        <time>2026-07-09T14:25:13Z</time>
      </trkpt>
      <trkpt lat="48.48953" lon="7.10499">
        <ele>639.22864</ele>
        <time>2026-07-09T14:25:19Z</time>
      </trkpt>
      <trkpt lat="48.4895" lon="7.10507">
        <ele>639.22864</ele>
        <time>2026-07-09T14:25:25Z</time>
      </trkpt>
      <trkpt lat="48.48947" lon="7.10514">
        <ele>639.22864</ele>
        <time>2026-07-09T14:25:35Z</time>
      </trkpt>
      <trkpt lat="48.48944" lon="7.10519">
        <ele>639.22864</ele>
        <time>2026-07-09T14:25:41Z</time>
      </trkpt>
      <trkpt lat="48.48943" lon="7.10525">
        <ele>639.22864</ele>
        <time>2026-07-09T14:25:45Z</time>
      </trkpt>
      <trkpt lat="48.48944" lon="7.10534">
        <ele>641.3694</ele>
        <time>2026-07-09T14:25:51Z</time>
      </trkpt>
      <trkpt lat="48.48941" lon="7.10542">
        <ele>643.51013</ele>
        <time>2026-07-09T14:25:58Z</time>
      </trkpt>
      <trkpt lat="48.4894" lon="7.10552">
        <ele>645.6508</ele>
        <time>2026-07-09T14:26:01Z</time>
      </trkpt>
      <trkpt lat="48.48942" lon="7.10559">
        <ele>647.79156</ele>
        <time>2026-07-09T14:26:06Z</time>
      </trkpt>
      <trkpt lat="48.48941" lon="7.10567">
        <ele>649.9323</ele>
        <time>2026-07-09T14:26:11Z</time>
      </trkpt>
      <trkpt lat="48.48945" lon="7.10573">
        <ele>649.9323</ele>
        <time>2026-07-09T14:26:15Z</time>
      </trkpt>
      <trkpt lat="48.48944" lon="7.10581">
        <ele>649.9323</ele>
        <time>2026-07-09T14:26:20Z</time>
      </trkpt>
      <trkpt lat="48.48946" lon="7.1059">
        <ele>649.9323</ele>
        <time>2026-07-09T14:26:28Z</time>
      </trkpt>
      <trkpt lat="48.48947" lon="7.10597">
        <ele>649.9323</ele>
        <time>2026-07-09T14:26:32Z</time>
      </trkpt>
      <trkpt lat="48.48948" lon="7.10604">
        <ele>649.9323</ele>
        <time>2026-07-09T14:26:39Z</time>
      </trkpt>
      <trkpt lat="48.48944" lon="7.10606">
        <ele>649.9323</ele>
        <time>2026-07-09T14:26:48Z</time>
      </trkpt>
      <trkpt lat="48.48948" lon="7.1061">
        <ele>649.9323</ele>
        <time>2026-07-09T14:26:51Z</time>
      </trkpt>
      <trkpt lat="48.48951" lon="7.10617">
        <ele>649.9323</ele>
        <time>2026-07-09T14:26:56Z</time>
      </trkpt>
      <trkpt lat="48.48953" lon="7.10624">
        <ele>649.9323</ele>
        <time>2026-07-09T14:27:01Z</time>
      </trkpt>
      <trkpt lat="48.48956" lon="7.10629">
        <ele>649.9323</ele>
        <time>2026-07-09T14:27:06Z</time>
      </trkpt>
      <trkpt lat="48.4896" lon="7.10634">
        <ele>649.9323</ele>
        <time>2026-07-09T14:27:11Z</time>
      </trkpt>
      <trkpt lat="48.48962" lon="7.10641">
        <ele>649.9323</ele>
        <time>2026-07-09T14:27:15Z</time>
      </trkpt>
      <trkpt lat="48.48966" lon="7.10645">
        <ele>649.9323</ele>
        <time>2026-07-09T14:27:22Z</time>
      </trkpt>
      <trkpt lat="48.48967" lon="7.10654">
        <ele>649.9323</ele>
        <time>2026-07-09T14:27:26Z</time>
      </trkpt>
      <trkpt lat="48.48969" lon="7.10661">
        <ele>649.9323</ele>
        <time>2026-07-09T14:27:32Z</time>
      </trkpt>
      <trkpt lat="48.48973" lon="7.10665">
        <ele>649.9323</ele>
        <time>2026-07-09T14:27:47Z</time>
      </trkpt>
      <trkpt lat="48.48975" lon="7.10673">
        <ele>649.9323</ele>
        <time>2026-07-09T14:28:08Z</time>
      </trkpt>
      <trkpt lat="48.48977" lon="7.1068">
        <ele>649.9323</ele>
        <time>2026-07-09T14:28:13Z</time>
      </trkpt>
      <trkpt lat="48.48979" lon="7.10687">
        <ele>649.9323</ele>
        <time>2026-07-09T14:28:19Z</time>
      </trkpt>
      <trkpt lat="48.48981" lon="7.10694">
        <ele>649.9323</ele>
        <time>2026-07-09T14:28:25Z</time>
      </trkpt>
      <trkpt lat="48.48983" lon="7.10701">
        <ele>649.9323</ele>
        <time>2026-07-09T14:28:31Z</time>
      </trkpt>
      <trkpt lat="48.48985" lon="7.10708">
        <ele>651.9628</ele>
        <time>2026-07-09T14:28:37Z</time>
      </trkpt>
      <trkpt lat="48.48986" lon="7.10715">
        <ele>653.9933</ele>
        <time>2026-07-09T14:28:42Z</time>
      </trkpt>
      <trkpt lat="48.48989" lon="7.10721">
        <ele>656.0238</ele>
        <time>2026-07-09T14:28:50Z</time>
      </trkpt>
      <trkpt lat="48.4899" lon="7.10728">
        <ele>658.05426</ele>
        <time>2026-07-09T14:28:56Z</time>
      </trkpt>
      <trkpt lat="48.48991" lon="7.10735">
        <ele>660.0848</ele>
        <time>2026-07-09T14:29:02Z</time>
      </trkpt>
      <trkpt lat="48.48992" lon="7.10743">
        <ele>660.0848</ele>
        <time>2026-07-09T14:29:07Z</time>
      </trkpt>
      <trkpt lat="48.48995" lon="7.1075">
        <ele>660.0848</ele>
        <time>2026-07-09T14:29:13Z</time>
      </trkpt>
      <trkpt lat="48.48997" lon="7.10757">
        <ele>660.0848</ele>
        <time>2026-07-09T14:29:19Z</time>
      </trkpt>
      <trkpt lat="48.49001" lon="7.10762">
        <ele>660.0848</ele>
        <time>2026-07-09T14:29:25Z</time>
      </trkpt>
      <trkpt lat="48.49002" lon="7.1077">
        <ele>660.0848</ele>
        <time>2026-07-09T14:29:29Z</time>
      </trkpt>
      <trkpt lat="48.49003" lon="7.10777">
        <ele>660.0848</ele>
        <time>2026-07-09T14:29:32Z</time>
      </trkpt>
      <trkpt lat="48.49004" lon="7.10786">
        <ele>660.0848</ele>
        <time>2026-07-09T14:29:38Z</time>
      </trkpt>
      <trkpt lat="48.49005" lon="7.10797">
        <ele>660.0848</ele>
        <time>2026-07-09T14:29:43Z</time>
      </trkpt>
      <trkpt lat="48.49007" lon="7.10803">
        <ele>660.0848</ele>
        <time>2026-07-09T14:29:46Z</time>
      </trkpt>
      <trkpt lat="48.49007" lon="7.10811">
        <ele>660.0848</ele>
        <time>2026-07-09T14:29:56Z</time>
      </trkpt>
      <trkpt lat="48.49009" lon="7.1082">
        <ele>660.0848</ele>
        <time>2026-07-09T14:30:03Z</time>
      </trkpt>
      <trkpt lat="48.4901" lon="7.10829">
        <ele>660.0848</ele>
        <time>2026-07-09T14:30:10Z</time>
      </trkpt>
      <trkpt lat="48.49011" lon="7.10839">
        <ele>660.0848</ele>
        <time>2026-07-09T14:30:15Z</time>
      </trkpt>
      <trkpt lat="48.49012" lon="7.10847">
        <ele>660.0848</ele>
        <time>2026-07-09T14:30:21Z</time>
      </trkpt>
      <trkpt lat="48.49013" lon="7.10854">
        <ele>660.0848</ele>
        <time>2026-07-09T14:30:26Z</time>
      </trkpt>
      <trkpt lat="48.49014" lon="7.10862">
        <ele>660.0848</ele>
        <time>2026-07-09T14:30:31Z</time>
      </trkpt>
      <trkpt lat="48.49015" lon="7.1087">
        <ele>660.0848</ele>
        <time>2026-07-09T14:30:35Z</time>
      </trkpt>
      <trkpt lat="48.49016" lon="7.10879">
        <ele>660.0848</ele>
        <time>2026-07-09T14:30:42Z</time>
      </trkpt>
      <trkpt lat="48.49017" lon="7.10886">
        <ele>660.0848</ele>
        <time>2026-07-09T14:30:47Z</time>
      </trkpt>
      <trkpt lat="48.49017" lon="7.10895">
        <ele>660.0848</ele>
        <time>2026-07-09T14:30:53Z</time>
      </trkpt>
      <trkpt lat="48.49016" lon="7.10903">
        <ele>660.0848</ele>
        <time>2026-07-09T14:30:59Z</time>
      </trkpt>
      <trkpt lat="48.49017" lon="7.10912">
        <ele>660.0848</ele>
        <time>2026-07-09T14:31:03Z</time>
      </trkpt>
      <trkpt lat="48.4902" lon="7.10918">
        <ele>662.16785</ele>
        <time>2026-07-09T14:31:07Z</time>
      </trkpt>
      <trkpt lat="48.49022" lon="7.10926">
        <ele>664.251</ele>
        <time>2026-07-09T14:31:12Z</time>
      </trkpt>
      <trkpt lat="48.49022" lon="7.10933">
        <ele>666.33405</ele>
        <time>2026-07-09T14:31:19Z</time>
      </trkpt>
      <trkpt lat="48.49021" lon="7.1094">
        <ele>668.4172</ele>
        <time>2026-07-09T14:31:27Z</time>
      </trkpt>
      <trkpt lat="48.49022" lon="7.10947">
        <ele>670.50024</ele>
        <time>2026-07-09T14:31:33Z</time>
      </trkpt>
      <trkpt lat="48.49021" lon="7.10955">
        <ele>670.50024</ele>
        <time>2026-07-09T14:31:37Z</time>
      </trkpt>
      <trkpt lat="48.49022" lon="7.10962">
        <ele>670.50024</ele>
        <time>2026-07-09T14:31:41Z</time>
      </trkpt>
      <trkpt lat="48.49023" lon="7.10969">
        <ele>670.50024</ele>
        <time>2026-07-09T14:31:47Z</time>
      </trkpt>
      <trkpt lat="48.49024" lon="7.10976">
        <ele>670.50024</ele>
        <time>2026-07-09T14:31:53Z</time>
      </trkpt>
      <trkpt lat="48.49024" lon="7.10984">
        <ele>670.50024</ele>
        <time>2026-07-09T14:31:58Z</time>
      </trkpt>
      <trkpt lat="48.49025" lon="7.10993">
        <ele>670.50024</ele>
        <time>2026-07-09T14:32:08Z</time>
      </trkpt>
      <trkpt lat="48.49025" lon="7.11001">
        <ele>670.50024</ele>
        <time>2026-07-09T14:32:12Z</time>
      </trkpt>
      <trkpt lat="48.49026" lon="7.11009">
        <ele>670.50024</ele>
        <time>2026-07-09T14:32:17Z</time>
      </trkpt>
      <trkpt lat="48.49026" lon="7.11016">
        <ele>670.50024</ele>
        <time>2026-07-09T14:32:21Z</time>
      </trkpt>
      <trkpt lat="48.49026" lon="7.11024">
        <ele>670.50024</ele>
        <time>2026-07-09T14:32:25Z</time>
      </trkpt>
      <trkpt lat="48.49025" lon="7.11031">
        <ele>670.50024</ele>
        <time>2026-07-09T14:32:29Z</time>
      </trkpt>
      <trkpt lat="48.49025" lon="7.11038">
        <ele>670.50024</ele>
        <time>2026-07-09T14:32:35Z</time>
      </trkpt>
      <trkpt lat="48.49028" lon="7.11044">
        <ele>670.50024</ele>
        <time>2026-07-09T14:32:40Z</time>
      </trkpt>
      <trkpt lat="48.49029" lon="7.11051">
        <ele>670.50024</ele>
        <time>2026-07-09T14:32:45Z</time>
      </trkpt>
      <trkpt lat="48.49029" lon="7.11061">
        <ele>670.50024</ele>
        <time>2026-07-09T14:32:52Z</time>
      </trkpt>
      <trkpt lat="48.49029" lon="7.1107">
        <ele>670.50024</ele>
        <time>2026-07-09T14:32:55Z</time>
      </trkpt>
      <trkpt lat="48.49032" lon="7.11078">
        <ele>670.50024</ele>
        <time>2026-07-09T14:33:05Z</time>
      </trkpt>
      <trkpt lat="48.49032" lon="7.11085">
        <ele>670.50024</ele>
        <time>2026-07-09T14:33:11Z</time>
      </trkpt>
      <trkpt lat="48.49035" lon="7.11091">
        <ele>670.50024</ele>
        <time>2026-07-09T14:33:17Z</time>
      </trkpt>
      <trkpt lat="48.49036" lon="7.11099">
        <ele>670.50024</ele>
        <time>2026-07-09T14:33:22Z</time>
      </trkpt>
      <trkpt lat="48.49037" lon="7.11106">
        <ele>670.50024</ele>
        <time>2026-07-09T14:33:26Z</time>
      </trkpt>
      <trkpt lat="48.49038" lon="7.11115">
        <ele>670.50024</ele>
        <time>2026-07-09T14:33:32Z</time>
      </trkpt>
      <trkpt lat="48.4904" lon="7.11121">
        <ele>670.50024</ele>
        <time>2026-07-09T14:33:37Z</time>
      </trkpt>
      <trkpt lat="48.49041" lon="7.11128">
        <ele>670.50024</ele>
        <time>2026-07-09T14:33:40Z</time>
      </trkpt>
      <trkpt lat="48.49044" lon="7.11134">
        <ele>670.50024</ele>
        <time>2026-07-09T14:33:47Z</time>
      </trkpt>
      <trkpt lat="48.49046" lon="7.1114">
        <ele>670.50024</ele>
        <time>2026-07-09T14:33:50Z</time>
      </trkpt>
      <trkpt lat="48.49049" lon="7.11147">
        <ele>670.50024</ele>
        <time>2026-07-09T14:33:58Z</time>
      </trkpt>
      <trkpt lat="48.49049" lon="7.11154">
        <ele>670.50024</ele>
        <time>2026-07-09T14:34:01Z</time>
      </trkpt>
      <trkpt lat="48.49052" lon="7.11161">
        <ele>670.50024</ele>
        <time>2026-07-09T14:34:07Z</time>
      </trkpt>
      <trkpt lat="48.49053" lon="7.11168">
        <ele>670.50024</ele>
        <time>2026-07-09T14:34:10Z</time>
      </trkpt>
      <trkpt lat="48.49054" lon="7.11175">
        <ele>670.50024</ele>
        <time>2026-07-09T14:34:14Z</time>
      </trkpt>
      <trkpt lat="48.49056" lon="7.11182">
        <ele>670.50024</ele>
        <time>2026-07-09T14:34:19Z</time>
      </trkpt>
      <trkpt lat="48.49058" lon="7.11189">
        <ele>670.50024</ele>
        <time>2026-07-09T14:34:25Z</time>
      </trkpt>
      <trkpt lat="48.4906" lon="7.11197">
        <ele>672.63586</ele>
        <time>2026-07-09T14:34:30Z</time>
      </trkpt>
      <trkpt lat="48.49061" lon="7.11203">
        <ele>674.7715</ele>
        <time>2026-07-09T14:34:35Z</time>
      </trkpt>
      <trkpt lat="48.49063" lon="7.1121">
        <ele>676.9071</ele>
        <time>2026-07-09T14:34:40Z</time>
      </trkpt>
      <trkpt lat="48.49064" lon="7.11217">
        <ele>679.0427</ele>
        <time>2026-07-09T14:34:44Z</time>
      </trkpt>
      <trkpt lat="48.49067" lon="7.11224">
        <ele>681.17834</ele>
        <time>2026-07-09T14:34:48Z</time>
      </trkpt>
      <trkpt lat="48.49071" lon="7.11228">
        <ele>681.17834</ele>
        <time>2026-07-09T14:34:54Z</time>
      </trkpt>
      <trkpt lat="48.49074" lon="7.11234">
        <ele>681.17834</ele>
        <time>2026-07-09T14:35:01Z</time>
      </trkpt>
      <trkpt lat="48.49077" lon="7.11242">
        <ele>681.17834</ele>
        <time>2026-07-09T14:35:09Z</time>
      </trkpt>
      <trkpt lat="48.49073" lon="7.11246">
        <ele>681.17834</ele>
        <time>2026-07-09T14:35:23Z</time>
      </trkpt>
      <trkpt lat="48.49077" lon="7.11241">
        <ele>681.17834</ele>
        <time>2026-07-09T14:35:57Z</time>
      </trkpt>
      <trkpt lat="48.49075" lon="7.11233">
        <ele>681.17834</ele>
        <time>2026-07-09T14:36:50Z</time>
      </trkpt>
      <trkpt lat="48.49077" lon="7.1124">
        <ele>681.17834</ele>
        <time>2026-07-09T14:36:54Z</time>
      </trkpt>
      <trkpt lat="48.49079" lon="7.11248">
        <ele>681.17834</ele>
        <time>2026-07-09T14:36:59Z</time>
      </trkpt>
      <trkpt lat="48.49081" lon="7.11257">
        <ele>681.17834</ele>
        <time>2026-07-09T14:37:04Z</time>
      </trkpt>
      <trkpt lat="48.49083" lon="7.11264">
        <ele>681.17834</ele>
        <time>2026-07-09T14:37:08Z</time>
      </trkpt>
      <trkpt lat="48.49084" lon="7.11271">
        <ele>681.17834</ele>
        <time>2026-07-09T14:37:12Z</time>
      </trkpt>
      <trkpt lat="48.49085" lon="7.11278">
        <ele>681.17834</ele>
        <time>2026-07-09T14:37:16Z</time>
      </trkpt>
      <trkpt lat="48.49087" lon="7.11284">
        <ele>681.17834</ele>
        <time>2026-07-09T14:37:20Z</time>
      </trkpt>
      <trkpt lat="48.49087" lon="7.11291">
        <ele>681.17834</ele>
        <time>2026-07-09T14:37:24Z</time>
      </trkpt>
      <trkpt lat="48.49088" lon="7.11299">
        <ele>681.17834</ele>
        <time>2026-07-09T14:37:29Z</time>
      </trkpt>
      <trkpt lat="48.49091" lon="7.11306">
        <ele>681.17834</ele>
        <time>2026-07-09T14:37:36Z</time>
      </trkpt>
      <trkpt lat="48.49093" lon="7.11311">
        <ele>681.17834</ele>
        <time>2026-07-09T14:37:42Z</time>
      </trkpt>
      <trkpt lat="48.49094" lon="7.11319">
        <ele>681.17834</ele>
        <time>2026-07-09T14:37:46Z</time>
      </trkpt>
      <trkpt lat="48.49096" lon="7.11326">
        <ele>681.17834</ele>
        <time>2026-07-09T14:37:51Z</time>
      </trkpt>
      <trkpt lat="48.49097" lon="7.11334">
        <ele>681.17834</ele>
        <time>2026-07-09T14:37:55Z</time>
      </trkpt>
      <trkpt lat="48.49098" lon="7.11343">
        <ele>681.17834</ele>
        <time>2026-07-09T14:38:03Z</time>
      </trkpt>
      <trkpt lat="48.49099" lon="7.1135">
        <ele>681.17834</ele>
        <time>2026-07-09T14:38:06Z</time>
      </trkpt>
      <trkpt lat="48.491" lon="7.11357">
        <ele>681.17834</ele>
        <time>2026-07-09T14:38:11Z</time>
      </trkpt>
      <trkpt lat="48.49101" lon="7.11364">
        <ele>681.17834</ele>
        <time>2026-07-09T14:38:17Z</time>
      </trkpt>
      <trkpt lat="48.49103" lon="7.11372">
        <ele>681.17834</ele>
        <time>2026-07-09T14:38:23Z</time>
      </trkpt>
      <trkpt lat="48.49105" lon="7.11379">
        <ele>681.17834</ele>
        <time>2026-07-09T14:38:27Z</time>
      </trkpt>
      <trkpt lat="48.49106" lon="7.11386">
        <ele>681.17834</ele>
        <time>2026-07-09T14:38:31Z</time>
      </trkpt>
      <trkpt lat="48.4911" lon="7.1139">
        <ele>681.17834</ele>
        <time>2026-07-09T14:38:34Z</time>
      </trkpt>
      <trkpt lat="48.4911" lon="7.11398">
        <ele>681.17834</ele>
        <time>2026-07-09T14:38:40Z</time>
      </trkpt>
      <trkpt lat="48.49113" lon="7.11406">
        <ele>681.17834</ele>
        <time>2026-07-09T14:38:45Z</time>
      </trkpt>
      <trkpt lat="48.49114" lon="7.11414">
        <ele>681.17834</ele>
        <time>2026-07-09T14:38:50Z</time>
      </trkpt>
      <trkpt lat="48.49114" lon="7.11422">
        <ele>681.17834</ele>
        <time>2026-07-09T14:38:54Z</time>
      </trkpt>
      <trkpt lat="48.49116" lon="7.1143">
        <ele>681.17834</ele>
        <time>2026-07-09T14:38:59Z</time>
      </trkpt>
      <trkpt lat="48.49117" lon="7.11437">
        <ele>681.17834</ele>
        <time>2026-07-09T14:39:02Z</time>
      </trkpt>
      <trkpt lat="48.49119" lon="7.11443">
        <ele>681.17834</ele>
        <time>2026-07-09T14:39:07Z</time>
      </trkpt>
      <trkpt lat="48.49122" lon="7.1145">
        <ele>681.17834</ele>
        <time>2026-07-09T14:39:14Z</time>
      </trkpt>
      <trkpt lat="48.49125" lon="7.11456">
        <ele>683.264</ele>
        <time>2026-07-09T14:39:18Z</time>
      </trkpt>
      <trkpt lat="48.49127" lon="7.11461">
        <ele>685.3497</ele>
        <time>2026-07-09T14:39:23Z</time>
      </trkpt>
      <trkpt lat="48.49131" lon="7.11467">
        <ele>687.4353</ele>
        <time>2026-07-09T14:39:29Z</time>
      </trkpt>
      <trkpt lat="48.49133" lon="7.11475">
        <ele>689.521</ele>
        <time>2026-07-09T14:39:32Z</time>
      </trkpt>
      <trkpt lat="48.49133" lon="7.11483">
        <ele>691.6066</ele>
        <time>2026-07-09T14:39:35Z</time>
      </trkpt>
      <trkpt lat="48.49135" lon="7.1149">
        <ele>691.6066</ele>
        <time>2026-07-09T14:39:40Z</time>
      </trkpt>
      <trkpt lat="48.49137" lon="7.11497">
        <ele>691.6066</ele>
        <time>2026-07-09T14:39:44Z</time>
      </trkpt>
      <trkpt lat="48.49139" lon="7.11503">
        <ele>691.6066</ele>
        <time>2026-07-09T14:39:49Z</time>
      </trkpt>
      <trkpt lat="48.49143" lon="7.11509">
        <ele>691.6066</ele>
        <time>2026-07-09T14:39:54Z</time>
      </trkpt>
      <trkpt lat="48.49144" lon="7.11516">
        <ele>691.6066</ele>
        <time>2026-07-09T14:39:59Z</time>
      </trkpt>
      <trkpt lat="48.49146" lon="7.11522">
        <ele>691.6066</ele>
        <time>2026-07-09T14:40:03Z</time>
      </trkpt>
      <trkpt lat="48.49147" lon="7.1153">
        <ele>691.6066</ele>
        <time>2026-07-09T14:40:07Z</time>
      </trkpt>
      <trkpt lat="48.49148" lon="7.11537">
        <ele>691.6066</ele>
        <time>2026-07-09T14:40:11Z</time>
      </trkpt>
      <trkpt lat="48.49149" lon="7.11545">
        <ele>691.6066</ele>
        <time>2026-07-09T14:40:16Z</time>
      </trkpt>
      <trkpt lat="48.49151" lon="7.11551">
        <ele>691.6066</ele>
        <time>2026-07-09T14:40:19Z</time>
      </trkpt>
      <trkpt lat="48.49154" lon="7.11556">
        <ele>691.6066</ele>
        <time>2026-07-09T14:40:27Z</time>
      </trkpt>
      <trkpt lat="48.49155" lon="7.11563">
        <ele>691.6066</ele>
        <time>2026-07-09T14:40:36Z</time>
      </trkpt>
      <trkpt lat="48.49156" lon="7.11571">
        <ele>691.6066</ele>
        <time>2026-07-09T14:40:40Z</time>
      </trkpt>
      <trkpt lat="48.49157" lon="7.11578">
        <ele>691.6066</ele>
        <time>2026-07-09T14:40:45Z</time>
      </trkpt>
      <trkpt lat="48.49157" lon="7.11586">
        <ele>691.6066</ele>
        <time>2026-07-09T14:40:49Z</time>
      </trkpt>
      <trkpt lat="48.49159" lon="7.11593">
        <ele>691.6066</ele>
        <time>2026-07-09T14:40:53Z</time>
      </trkpt>
      <trkpt lat="48.4916" lon="7.116">
        <ele>691.6066</ele>
        <time>2026-07-09T14:40:58Z</time>
      </trkpt>
      <trkpt lat="48.49163" lon="7.11606">
        <ele>691.6066</ele>
        <time>2026-07-09T14:41:02Z</time>
      </trkpt>
      <trkpt lat="48.49165" lon="7.11613">
        <ele>691.6066</ele>
        <time>2026-07-09T14:41:05Z</time>
      </trkpt>
      <trkpt lat="48.49167" lon="7.11619">
        <ele>691.6066</ele>
        <time>2026-07-09T14:41:10Z</time>
      </trkpt>
      <trkpt lat="48.49168" lon="7.11625">
        <ele>691.6066</ele>
        <time>2026-07-09T14:41:15Z</time>
      </trkpt>
      <trkpt lat="48.49171" lon="7.11632">
        <ele>691.6066</ele>
        <time>2026-07-09T14:41:20Z</time>
      </trkpt>
      <trkpt lat="48.49174" lon="7.11641">
        <ele>691.6066</ele>
        <time>2026-07-09T14:41:26Z</time>
      </trkpt>
      <trkpt lat="48.49175" lon="7.11648">
        <ele>691.6066</ele>
        <time>2026-07-09T14:41:31Z</time>
      </trkpt>
      <trkpt lat="48.49177" lon="7.11654">
        <ele>691.6066</ele>
        <time>2026-07-09T14:41:35Z</time>
      </trkpt>
      <trkpt lat="48.49178" lon="7.11661">
        <ele>691.6066</ele>
        <time>2026-07-09T14:41:39Z</time>
      </trkpt>
      <trkpt lat="48.4918" lon="7.11668">
        <ele>691.6066</ele>
        <time>2026-07-09T14:41:45Z</time>
      </trkpt>
      <trkpt lat="48.49181" lon="7.11676">
        <ele>691.6066</ele>
        <time>2026-07-09T14:41:50Z</time>
      </trkpt>
      <trkpt lat="48.49183" lon="7.11683">
        <ele>691.6066</ele>
        <time>2026-07-09T14:41:55Z</time>
      </trkpt>
      <trkpt lat="48.49184" lon="7.11691">
        <ele>691.6066</ele>
        <time>2026-07-09T14:41:59Z</time>
      </trkpt>
      <trkpt lat="48.49185" lon="7.11698">
        <ele>691.6066</ele>
        <time>2026-07-09T14:42:03Z</time>
      </trkpt>
      <trkpt lat="48.49187" lon="7.11705">
        <ele>691.6066</ele>
        <time>2026-07-09T14:42:07Z</time>
      </trkpt>
      <trkpt lat="48.49189" lon="7.11712">
        <ele>691.6066</ele>
        <time>2026-07-09T14:42:12Z</time>
      </trkpt>
      <trkpt lat="48.49189" lon="7.11719">
        <ele>691.6066</ele>
        <time>2026-07-09T14:42:16Z</time>
      </trkpt>
      <trkpt lat="48.49191" lon="7.11726">
        <ele>691.6066</ele>
        <time>2026-07-09T14:42:20Z</time>
      </trkpt>
      <trkpt lat="48.49191" lon="7.11733">
        <ele>691.6066</ele>
        <time>2026-07-09T14:42:24Z</time>
      </trkpt>
      <trkpt lat="48.49192" lon="7.1174">
        <ele>691.6066</ele>
        <time>2026-07-09T14:42:28Z</time>
      </trkpt>
      <trkpt lat="48.49192" lon="7.11748">
        <ele>691.6066</ele>
        <time>2026-07-09T14:42:33Z</time>
      </trkpt>
      <trkpt lat="48.49194" lon="7.11755">
        <ele>691.6066</ele>
        <time>2026-07-09T14:42:37Z</time>
      </trkpt>
      <trkpt lat="48.49194" lon="7.11762">
        <ele>691.6066</ele>
        <time>2026-07-09T14:42:42Z</time>
      </trkpt>
      <trkpt lat="48.49194" lon="7.11769">
        <ele>691.6066</ele>
        <time>2026-07-09T14:42:47Z</time>
      </trkpt>
      <trkpt lat="48.49196" lon="7.11777">
        <ele>693.6299</ele>
        <time>2026-07-09T14:42:52Z</time>
      </trkpt>
      <trkpt lat="48.49197" lon="7.11784">
        <ele>695.65314</ele>
        <time>2026-07-09T14:42:56Z</time>
      </trkpt>
      <trkpt lat="48.49196" lon="7.11791">
        <ele>697.67645</ele>
        <time>2026-07-09T14:43:00Z</time>
      </trkpt>
      <trkpt lat="48.49197" lon="7.11799">
        <ele>699.6997</ele>
        <time>2026-07-09T14:43:05Z</time>
      </trkpt>
      <trkpt lat="48.49197" lon="7.11806">
        <ele>701.72296</ele>
        <time>2026-07-09T14:43:08Z</time>
      </trkpt>
      <trkpt lat="48.49197" lon="7.11815">
        <ele>701.72296</ele>
        <time>2026-07-09T14:43:13Z</time>
      </trkpt>
      <trkpt lat="48.49197" lon="7.11823">
        <ele>701.72296</ele>
        <time>2026-07-09T14:43:18Z</time>
      </trkpt>
      <trkpt lat="48.49196" lon="7.1183">
        <ele>701.72296</ele>
        <time>2026-07-09T14:43:22Z</time>
      </trkpt>
      <trkpt lat="48.49197" lon="7.11837">
        <ele>701.72296</ele>
        <time>2026-07-09T14:43:27Z</time>
      </trkpt>
      <trkpt lat="48.49199" lon="7.11844">
        <ele>701.72296</ele>
        <time>2026-07-09T14:43:31Z</time>
      </trkpt>
      <trkpt lat="48.49201" lon="7.11851">
        <ele>701.72296</ele>
        <time>2026-07-09T14:43:37Z</time>
      </trkpt>
      <trkpt lat="48.49203" lon="7.11858">
        <ele>701.72296</ele>
        <time>2026-07-09T14:43:41Z</time>
      </trkpt>
      <trkpt lat="48.49203" lon="7.11867">
        <ele>701.72296</ele>
        <time>2026-07-09T14:43:45Z</time>
      </trkpt>
      <trkpt lat="48.49202" lon="7.11874">
        <ele>701.72296</ele>
        <time>2026-07-09T14:43:50Z</time>
      </trkpt>
      <trkpt lat="48.49203" lon="7.11881">
        <ele>701.72296</ele>
        <time>2026-07-09T14:43:54Z</time>
      </trkpt>
      <trkpt lat="48.49203" lon="7.11889">
        <ele>701.72296</ele>
        <time>2026-07-09T14:43:58Z</time>
      </trkpt>
      <trkpt lat="48.49202" lon="7.11898">
        <ele>701.72296</ele>
        <time>2026-07-09T14:44:02Z</time>
      </trkpt>
      <trkpt lat="48.492" lon="7.11903">
        <ele>701.72296</ele>
        <time>2026-07-09T14:44:05Z</time>
      </trkpt>
      <trkpt lat="48.492" lon="7.11911">
        <ele>701.72296</ele>
        <time>2026-07-09T14:44:10Z</time>
      </trkpt>
      <trkpt lat="48.49197" lon="7.11918">
        <ele>701.72296</ele>
        <time>2026-07-09T14:44:15Z</time>
      </trkpt>
      <trkpt lat="48.49197" lon="7.11925">
        <ele>701.72296</ele>
        <time>2026-07-09T14:44:20Z</time>
      </trkpt>
      <trkpt lat="48.49196" lon="7.11932">
        <ele>701.72296</ele>
        <time>2026-07-09T14:44:25Z</time>
      </trkpt>
      <trkpt lat="48.49196" lon="7.11939">
        <ele>701.72296</ele>
        <time>2026-07-09T14:44:30Z</time>
      </trkpt>
      <trkpt lat="48.49195" lon="7.11947">
        <ele>701.72296</ele>
        <time>2026-07-09T14:44:36Z</time>
      </trkpt>
      <trkpt lat="48.49195" lon="7.11954">
        <ele>701.72296</ele>
        <time>2026-07-09T14:44:41Z</time>
      </trkpt>
      <trkpt lat="48.49194" lon="7.11962">
        <ele>701.72296</ele>
        <time>2026-07-09T14:44:46Z</time>
      </trkpt>
      <trkpt lat="48.49194" lon="7.11969">
        <ele>701.72296</ele>
        <time>2026-07-09T14:44:50Z</time>
      </trkpt>
      <trkpt lat="48.49193" lon="7.11976">
        <ele>701.72296</ele>
        <time>2026-07-09T14:44:54Z</time>
      </trkpt>
      <trkpt lat="48.49192" lon="7.11984">
        <ele>701.72296</ele>
        <time>2026-07-09T14:44:59Z</time>
      </trkpt>
      <trkpt lat="48.49192" lon="7.11994">
        <ele>701.72296</ele>
        <time>2026-07-09T14:45:07Z</time>
      </trkpt>
      <trkpt lat="48.49191" lon="7.12002">
        <ele>701.72296</ele>
        <time>2026-07-09T14:45:12Z</time>
      </trkpt>
      <trkpt lat="48.49191" lon="7.12009">
        <ele>701.72296</ele>
        <time>2026-07-09T14:45:15Z</time>
      </trkpt>
      <trkpt lat="48.49189" lon="7.12016">
        <ele>701.72296</ele>
        <time>2026-07-09T14:45:19Z</time>
      </trkpt>
      <trkpt lat="48.49189" lon="7.12024">
        <ele>701.72296</ele>
        <time>2026-07-09T14:45:24Z</time>
      </trkpt>
      <trkpt lat="48.49188" lon="7.12033">
        <ele>701.72296</ele>
        <time>2026-07-09T14:45:29Z</time>
      </trkpt>
      <trkpt lat="48.49187" lon="7.1204">
        <ele>701.72296</ele>
        <time>2026-07-09T14:45:35Z</time>
      </trkpt>
      <trkpt lat="48.49188" lon="7.12048">
        <ele>703.8546</ele>
        <time>2026-07-09T14:45:41Z</time>
      </trkpt>
      <trkpt lat="48.49187" lon="7.12055">
        <ele>705.98627</ele>
        <time>2026-07-09T14:45:45Z</time>
      </trkpt>
      <trkpt lat="48.49188" lon="7.12062">
        <ele>708.118</ele>
        <time>2026-07-09T14:45:50Z</time>
      </trkpt>
      <trkpt lat="48.49189" lon="7.1207">
        <ele>710.24963</ele>
        <time>2026-07-09T14:45:54Z</time>
      </trkpt>
      <trkpt lat="48.4919" lon="7.12078">
        <ele>712.3813</ele>
        <time>2026-07-09T14:46:00Z</time>
      </trkpt>
      <trkpt lat="48.49189" lon="7.12086">
        <ele>712.3813</ele>
        <time>2026-07-09T14:46:06Z</time>
      </trkpt>
      <trkpt lat="48.49191" lon="7.12093">
        <ele>712.3813</ele>
        <time>2026-07-09T14:46:10Z</time>
      </trkpt>
      <trkpt lat="48.49188" lon="7.121">
        <ele>712.3813</ele>
        <time>2026-07-09T14:46:14Z</time>
      </trkpt>
      <trkpt lat="48.49187" lon="7.12108">
        <ele>712.3813</ele>
        <time>2026-07-09T14:46:17Z</time>
      </trkpt>
      <trkpt lat="48.49185" lon="7.12115">
        <ele>712.3813</ele>
        <time>2026-07-09T14:46:21Z</time>
      </trkpt>
      <trkpt lat="48.49183" lon="7.12121">
        <ele>712.3813</ele>
        <time>2026-07-09T14:46:25Z</time>
      </trkpt>
      <trkpt lat="48.49181" lon="7.12129">
        <ele>712.3813</ele>
        <time>2026-07-09T14:46:32Z</time>
      </trkpt>
      <trkpt lat="48.49181" lon="7.12136">
        <ele>712.3813</ele>
        <time>2026-07-09T14:46:38Z</time>
      </trkpt>
      <trkpt lat="48.49181" lon="7.12145">
        <ele>712.3813</ele>
        <time>2026-07-09T14:46:44Z</time>
      </trkpt>
      <trkpt lat="48.4918" lon="7.12153">
        <ele>712.3813</ele>
        <time>2026-07-09T14:46:49Z</time>
      </trkpt>
      <trkpt lat="48.4918" lon="7.12161">
        <ele>712.3813</ele>
        <time>2026-07-09T14:46:55Z</time>
      </trkpt>
      <trkpt lat="48.49179" lon="7.12168">
        <ele>712.3813</ele>
        <time>2026-07-09T14:46:59Z</time>
      </trkpt>
      <trkpt lat="48.49179" lon="7.12176">
        <ele>712.3813</ele>
        <time>2026-07-09T14:47:03Z</time>
      </trkpt>
      <trkpt lat="48.49178" lon="7.12183">
        <ele>712.3813</ele>
        <time>2026-07-09T14:47:07Z</time>
      </trkpt>
      <trkpt lat="48.49178" lon="7.1219">
        <ele>712.3813</ele>
        <time>2026-07-09T14:47:11Z</time>
      </trkpt>
      <trkpt lat="48.49178" lon="7.12199">
        <ele>712.3813</ele>
        <time>2026-07-09T14:47:16Z</time>
      </trkpt>
      <trkpt lat="48.49178" lon="7.12206">
        <ele>712.3813</ele>
        <time>2026-07-09T14:47:21Z</time>
      </trkpt>
      <trkpt lat="48.49178" lon="7.12214">
        <ele>712.3813</ele>
        <time>2026-07-09T14:47:26Z</time>
      </trkpt>
      <trkpt lat="48.49177" lon="7.12222">
        <ele>712.3813</ele>
        <time>2026-07-09T14:47:32Z</time>
      </trkpt>
      <trkpt lat="48.49177" lon="7.12229">
        <ele>712.3813</ele>
        <time>2026-07-09T14:47:36Z</time>
      </trkpt>
      <trkpt lat="48.49178" lon="7.12236">
        <ele>712.3813</ele>
        <time>2026-07-09T14:47:40Z</time>
      </trkpt>
      <trkpt lat="48.49178" lon="7.12244">
        <ele>712.3813</ele>
        <time>2026-07-09T14:47:44Z</time>
      </trkpt>
      <trkpt lat="48.49178" lon="7.12252">
        <ele>712.3813</ele>
        <time>2026-07-09T14:47:49Z</time>
      </trkpt>
      <trkpt lat="48.49178" lon="7.12259">
        <ele>712.3813</ele>
        <time>2026-07-09T14:47:54Z</time>
      </trkpt>
      <trkpt lat="48.49178" lon="7.12266">
        <ele>712.3813</ele>
        <time>2026-07-09T14:47:58Z</time>
      </trkpt>
      <trkpt lat="48.49179" lon="7.12274">
        <ele>712.3813</ele>
        <time>2026-07-09T14:48:02Z</time>
      </trkpt>
      <trkpt lat="48.4918" lon="7.12282">
        <ele>712.3813</ele>
        <time>2026-07-09T14:48:07Z</time>
      </trkpt>
      <trkpt lat="48.4918" lon="7.1229">
        <ele>712.3813</ele>
        <time>2026-07-09T14:48:12Z</time>
      </trkpt>
      <trkpt lat="48.49181" lon="7.12297">
        <ele>712.3813</ele>
        <time>2026-07-09T14:48:17Z</time>
      </trkpt>
      <trkpt lat="48.49182" lon="7.12305">
        <ele>712.3813</ele>
        <time>2026-07-09T14:48:21Z</time>
      </trkpt>
      <trkpt lat="48.49183" lon="7.12312">
        <ele>712.3813</ele>
        <time>2026-07-09T14:48:25Z</time>
      </trkpt>
      <trkpt lat="48.49184" lon="7.12319">
        <ele>712.3813</ele>
        <time>2026-07-09T14:48:29Z</time>
      </trkpt>
      <trkpt lat="48.49185" lon="7.12327">
        <ele>712.3813</ele>
        <time>2026-07-09T14:48:34Z</time>
      </trkpt>
      <trkpt lat="48.49186" lon="7.12335">
        <ele>712.3813</ele>
        <time>2026-07-09T14:48:39Z</time>
      </trkpt>
      <trkpt lat="48.49187" lon="7.12342">
        <ele>712.3813</ele>
        <time>2026-07-09T14:48:44Z</time>
      </trkpt>
      <trkpt lat="48.49188" lon="7.12348">
        <ele>712.3813</ele>
        <time>2026-07-09T14:48:48Z</time>
      </trkpt>
      <trkpt lat="48.49189" lon="7.12355">
        <ele>712.3813</ele>
        <time>2026-07-09T14:48:52Z</time>
      </trkpt>
      <trkpt lat="48.4919" lon="7.12364">
        <ele>712.3813</ele>
        <time>2026-07-09T14:48:58Z</time>
      </trkpt>
      <trkpt lat="48.49192" lon="7.12372">
        <ele>712.3813</ele>
        <time>2026-07-09T14:49:03Z</time>
      </trkpt>
      <trkpt lat="48.49192" lon="7.12379">
        <ele>712.3813</ele>
        <time>2026-07-09T14:49:07Z</time>
      </trkpt>
      <trkpt lat="48.49194" lon="7.12386">
        <ele>712.3813</ele>
        <time>2026-07-09T14:49:11Z</time>
      </trkpt>
      <trkpt lat="48.49195" lon="7.12394">
        <ele>712.3813</ele>
        <time>2026-07-09T14:49:16Z</time>
      </trkpt>
      <trkpt lat="48.49196" lon="7.12402">
        <ele>712.3813</ele>
        <time>2026-07-09T14:49:20Z</time>
      </trkpt>
      <trkpt lat="48.49198" lon="7.12408">
        <ele>714.4512</ele>
        <time>2026-07-09T14:49:25Z</time>
      </trkpt>
      <trkpt lat="48.49199" lon="7.12415">
        <ele>716.52106</ele>
        <time>2026-07-09T14:49:30Z</time>
      </trkpt>
      <trkpt lat="48.492" lon="7.12423">
        <ele>718.591</ele>
        <time>2026-07-09T14:49:36Z</time>
      </trkpt>
      <trkpt lat="48.49202" lon="7.12431">
        <ele>720.6609</ele>
        <time>2026-07-09T14:49:39Z</time>
      </trkpt>
      <trkpt lat="48.49204" lon="7.12438">
        <ele>722.7308</ele>
        <time>2026-07-09T14:49:43Z</time>
      </trkpt>
      <trkpt lat="48.49205" lon="7.12446">
        <ele>722.7308</ele>
        <time>2026-07-09T14:49:46Z</time>
      </trkpt>
      <trkpt lat="48.49206" lon="7.12454">
        <ele>722.7308</ele>
        <time>2026-07-09T14:49:51Z</time>
      </trkpt>
      <trkpt lat="48.49208" lon="7.1246">
        <ele>722.7308</ele>
        <time>2026-07-09T14:49:57Z</time>
      </trkpt>
      <trkpt lat="48.49211" lon="7.12467">
        <ele>722.7308</ele>
        <time>2026-07-09T14:50:01Z</time>
      </trkpt>
      <trkpt lat="48.49213" lon="7.12475">
        <ele>722.7308</ele>
        <time>2026-07-09T14:50:18Z</time>
      </trkpt>
      <trkpt lat="48.4921" lon="7.12468">
        <ele>722.7308</ele>
        <time>2026-07-09T14:50:50Z</time>
      </trkpt>
      <trkpt lat="48.49208" lon="7.1246">
        <ele>722.7308</ele>
        <time>2026-07-09T14:50:58Z</time>
      </trkpt>
      <trkpt lat="48.49212" lon="7.12467">
        <ele>722.7308</ele>
        <time>2026-07-09T14:51:03Z</time>
      </trkpt>
      <trkpt lat="48.49215" lon="7.12474">
        <ele>722.7308</ele>
        <time>2026-07-09T14:51:06Z</time>
      </trkpt>
      <trkpt lat="48.49219" lon="7.1248">
        <ele>722.7308</ele>
        <time>2026-07-09T14:51:14Z</time>
      </trkpt>
      <trkpt lat="48.49224" lon="7.12474">
        <ele>722.7308</ele>
        <time>2026-07-09T14:51:25Z</time>
      </trkpt>
      <trkpt lat="48.49219" lon="7.12477">
        <ele>722.7308</ele>
        <time>2026-07-09T14:51:48Z</time>
      </trkpt>
      <trkpt lat="48.49215" lon="7.12481">
        <ele>722.7308</ele>
        <time>2026-07-09T14:51:58Z</time>
      </trkpt>
      <trkpt lat="48.4922" lon="7.12477">
        <ele>722.7308</ele>
        <time>2026-07-09T14:52:00Z</time>
      </trkpt>
      <trkpt lat="48.49216" lon="7.12486">
        <ele>722.7308</ele>
        <time>2026-07-09T14:52:45Z</time>
      </trkpt>
      <trkpt lat="48.49223" lon="7.12485">
        <ele>722.7308</ele>
        <time>2026-07-09T14:53:08Z</time>
      </trkpt>
      <trkpt lat="48.49218" lon="7.12483">
        <ele>722.7308</ele>
        <time>2026-07-09T14:53:26Z</time>
      </trkpt>
      <trkpt lat="48.49223" lon="7.12487">
        <ele>722.7308</ele>
        <time>2026-07-09T14:53:39Z</time>
      </trkpt>
      <trkpt lat="48.49227" lon="7.1249">
        <ele>722.7308</ele>
        <time>2026-07-09T14:53:44Z</time>
      </trkpt>
      <trkpt lat="48.49232" lon="7.12493">
        <ele>722.7308</ele>
        <time>2026-07-09T14:53:50Z</time>
      </trkpt>
      <trkpt lat="48.49236" lon="7.12498">
        <ele>722.7308</ele>
        <time>2026-07-09T14:53:55Z</time>
      </trkpt>
      <trkpt lat="48.49239" lon="7.12502">
        <ele>722.7308</ele>
        <time>2026-07-09T14:53:59Z</time>
      </trkpt>
      <trkpt lat="48.49243" lon="7.12507">
        <ele>722.7308</ele>
        <time>2026-07-09T14:54:03Z</time>
      </trkpt>
      <trkpt lat="48.49248" lon="7.1251">
        <ele>722.7308</ele>
        <time>2026-07-09T14:54:08Z</time>
      </trkpt>
      <trkpt lat="48.49253" lon="7.12515">
        <ele>722.7308</ele>
        <time>2026-07-09T14:54:14Z</time>
      </trkpt>
      <trkpt lat="48.49257" lon="7.12519">
        <ele>722.7308</ele>
        <time>2026-07-09T14:54:19Z</time>
      </trkpt>
      <trkpt lat="48.49261" lon="7.12525">
        <ele>722.7308</ele>
        <time>2026-07-09T14:54:23Z</time>
      </trkpt>
      <trkpt lat="48.49264" lon="7.12531">
        <ele>722.7308</ele>
        <time>2026-07-09T14:54:27Z</time>
      </trkpt>
      <trkpt lat="48.49268" lon="7.12537">
        <ele>722.7308</ele>
        <time>2026-07-09T14:54:32Z</time>
      </trkpt>
      <trkpt lat="48.49273" lon="7.12538">
        <ele>722.7308</ele>
        <time>2026-07-09T14:54:37Z</time>
      </trkpt>
      <trkpt lat="48.49277" lon="7.12543">
        <ele>724.7919</ele>
        <time>2026-07-09T14:54:42Z</time>
      </trkpt>
      <trkpt lat="48.49281" lon="7.12547">
        <ele>726.85297</ele>
        <time>2026-07-09T14:54:47Z</time>
      </trkpt>
      <trkpt lat="48.49284" lon="7.12556">
        <ele>728.9141</ele>
        <time>2026-07-09T14:54:52Z</time>
      </trkpt>
      <trkpt lat="48.49287" lon="7.12562">
        <ele>730.9752</ele>
        <time>2026-07-09T14:54:55Z</time>
      </trkpt>
      <trkpt lat="48.49291" lon="7.12567">
        <ele>733.0363</ele>
        <time>2026-07-09T14:54:58Z</time>
      </trkpt>
      <trkpt lat="48.49294" lon="7.12572">
        <ele>733.0363</ele>
        <time>2026-07-09T14:55:02Z</time>
      </trkpt>
      <trkpt lat="48.49296" lon="7.12579">
        <ele>733.0363</ele>
        <time>2026-07-09T14:55:07Z</time>
      </trkpt>
      <trkpt lat="48.49295" lon="7.12586">
        <ele>733.0363</ele>
        <time>2026-07-09T14:55:09Z</time>
      </trkpt>
      <trkpt lat="48.49299" lon="7.12591">
        <ele>733.0363</ele>
        <time>2026-07-09T14:55:13Z</time>
      </trkpt>
      <trkpt lat="48.49303" lon="7.12597">
        <ele>733.0363</ele>
        <time>2026-07-09T14:55:17Z</time>
      </trkpt>
      <trkpt lat="48.49307" lon="7.12602">
        <ele>733.0363</ele>
        <time>2026-07-09T14:55:22Z</time>
      </trkpt>
      <trkpt lat="48.4931" lon="7.12607">
        <ele>733.0363</ele>
        <time>2026-07-09T14:55:27Z</time>
      </trkpt>
      <trkpt lat="48.49313" lon="7.12611">
        <ele>733.0363</ele>
        <time>2026-07-09T14:55:49Z</time>
      </trkpt>
      <trkpt lat="48.49317" lon="7.12617">
        <ele>733.0363</ele>
        <time>2026-07-09T14:55:53Z</time>
      </trkpt>
      <trkpt lat="48.49321" lon="7.12622">
        <ele>733.0363</ele>
        <time>2026-07-09T14:55:58Z</time>
      </trkpt>
      <trkpt lat="48.49325" lon="7.12627">
        <ele>733.0363</ele>
        <time>2026-07-09T14:56:03Z</time>
      </trkpt>
      <trkpt lat="48.49329" lon="7.12633">
        <ele>733.0363</ele>
        <time>2026-07-09T14:56:07Z</time>
      </trkpt>
      <trkpt lat="48.49333" lon="7.12638">
        <ele>733.0363</ele>
        <time>2026-07-09T14:56:15Z</time>
      </trkpt>
      <trkpt lat="48.49336" lon="7.12644">
        <ele>733.0363</ele>
        <time>2026-07-09T14:56:20Z</time>
      </trkpt>
      <trkpt lat="48.49339" lon="7.12648">
        <ele>733.0363</ele>
        <time>2026-07-09T14:56:24Z</time>
      </trkpt>
      <trkpt lat="48.49344" lon="7.12655">
        <ele>733.0363</ele>
        <time>2026-07-09T14:56:29Z</time>
      </trkpt>
      <trkpt lat="48.49347" lon="7.12661">
        <ele>733.0363</ele>
        <time>2026-07-09T14:56:33Z</time>
      </trkpt>
      <trkpt lat="48.4935" lon="7.12666">
        <ele>733.0363</ele>
        <time>2026-07-09T14:56:37Z</time>
      </trkpt>
      <trkpt lat="48.49353" lon="7.12672">
        <ele>733.0363</ele>
        <time>2026-07-09T14:56:43Z</time>
      </trkpt>
      <trkpt lat="48.49357" lon="7.12679">
        <ele>733.0363</ele>
        <time>2026-07-09T14:56:48Z</time>
      </trkpt>
      <trkpt lat="48.49359" lon="7.12685">
        <ele>733.0363</ele>
        <time>2026-07-09T14:56:52Z</time>
      </trkpt>
      <trkpt lat="48.49361" lon="7.12691">
        <ele>733.0363</ele>
        <time>2026-07-09T14:56:57Z</time>
      </trkpt>
      <trkpt lat="48.49365" lon="7.12698">
        <ele>733.0363</ele>
        <time>2026-07-09T14:57:02Z</time>
      </trkpt>
      <trkpt lat="48.49366" lon="7.12705">
        <ele>733.0363</ele>
        <time>2026-07-09T14:57:08Z</time>
      </trkpt>
      <trkpt lat="48.49369" lon="7.12712">
        <ele>733.0363</ele>
        <time>2026-07-09T14:57:11Z</time>
      </trkpt>
      <trkpt lat="48.49371" lon="7.1272">
        <ele>733.0363</ele>
        <time>2026-07-09T14:57:16Z</time>
      </trkpt>
      <trkpt lat="48.49373" lon="7.12727">
        <ele>733.0363</ele>
        <time>2026-07-09T14:57:19Z</time>
      </trkpt>
      <trkpt lat="48.49373" lon="7.12735">
        <ele>733.0363</ele>
        <time>2026-07-09T14:57:24Z</time>
      </trkpt>
      <trkpt lat="48.49375" lon="7.12741">
        <ele>733.0363</ele>
        <time>2026-07-09T14:57:28Z</time>
      </trkpt>
      <trkpt lat="48.49376" lon="7.12749">
        <ele>733.0363</ele>
        <time>2026-07-09T14:57:33Z</time>
      </trkpt>
      <trkpt lat="48.49377" lon="7.12757">
        <ele>733.0363</ele>
        <time>2026-07-09T14:57:37Z</time>
      </trkpt>
      <trkpt lat="48.49377" lon="7.12765">
        <ele>733.0363</ele>
        <time>2026-07-09T14:57:42Z</time>
      </trkpt>
      <trkpt lat="48.49378" lon="7.12773">
        <ele>733.0363</ele>
        <time>2026-07-09T14:57:46Z</time>
      </trkpt>
      <trkpt lat="48.49379" lon="7.12781">
        <ele>733.0363</ele>
        <time>2026-07-09T14:57:51Z</time>
      </trkpt>
      <trkpt lat="48.49381" lon="7.12788">
        <ele>733.0363</ele>
        <time>2026-07-09T14:57:57Z</time>
      </trkpt>
      <trkpt lat="48.49381" lon="7.12796">
        <ele>733.0363</ele>
        <time>2026-07-09T14:58:01Z</time>
      </trkpt>
      <trkpt lat="48.49381" lon="7.12804">
        <ele>735.0726</ele>
        <time>2026-07-09T14:58:06Z</time>
      </trkpt>
      <trkpt lat="48.49382" lon="7.12811">
        <ele>737.1088</ele>
        <time>2026-07-09T14:58:10Z</time>
      </trkpt>
      <trkpt lat="48.49382" lon="7.12819">
        <ele>739.145</ele>
        <time>2026-07-09T14:58:19Z</time>
      </trkpt>
      <trkpt lat="48.49382" lon="7.12828">
        <ele>741.1813</ele>
        <time>2026-07-09T14:58:21Z</time>
      </trkpt>
      <trkpt lat="48.49383" lon="7.12835">
        <ele>743.2175</ele>
        <time>2026-07-09T14:58:24Z</time>
      </trkpt>
      <trkpt lat="48.49383" lon="7.12842">
        <ele>743.2175</ele>
        <time>2026-07-09T14:58:27Z</time>
      </trkpt>
      <trkpt lat="48.49383" lon="7.1285">
        <ele>743.2175</ele>
        <time>2026-07-09T14:58:30Z</time>
      </trkpt>
      <trkpt lat="48.49384" lon="7.12857">
        <ele>743.2175</ele>
        <time>2026-07-09T14:58:35Z</time>
      </trkpt>
      <trkpt lat="48.49384" lon="7.12865">
        <ele>743.2175</ele>
        <time>2026-07-09T14:58:39Z</time>
      </trkpt>
      <trkpt lat="48.49384" lon="7.12872">
        <ele>743.2175</ele>
        <time>2026-07-09T14:58:43Z</time>
      </trkpt>
      <trkpt lat="48.49384" lon="7.12879">
        <ele>743.2175</ele>
        <time>2026-07-09T14:58:48Z</time>
      </trkpt>
      <trkpt lat="48.49385" lon="7.12887">
        <ele>743.2175</ele>
        <time>2026-07-09T14:58:53Z</time>
      </trkpt>
      <trkpt lat="48.49385" lon="7.12896">
        <ele>743.2175</ele>
        <time>2026-07-09T14:58:58Z</time>
      </trkpt>
      <trkpt lat="48.49386" lon="7.12903">
        <ele>743.2175</ele>
        <time>2026-07-09T14:59:02Z</time>
      </trkpt>
      <trkpt lat="48.49386" lon="7.12911">
        <ele>743.2175</ele>
        <time>2026-07-09T14:59:06Z</time>
      </trkpt>
      <trkpt lat="48.49387" lon="7.12918">
        <ele>743.2175</ele>
        <time>2026-07-09T14:59:11Z</time>
      </trkpt>
      <trkpt lat="48.49387" lon="7.12927">
        <ele>743.2175</ele>
        <time>2026-07-09T14:59:16Z</time>
      </trkpt>
      <trkpt lat="48.49388" lon="7.12936">
        <ele>743.2175</ele>
        <time>2026-07-09T14:59:24Z</time>
      </trkpt>
      <trkpt lat="48.49389" lon="7.12944">
        <ele>743.2175</ele>
        <time>2026-07-09T14:59:28Z</time>
      </trkpt>
      <trkpt lat="48.4939" lon="7.12951">
        <ele>743.2175</ele>
        <time>2026-07-09T14:59:31Z</time>
      </trkpt>
      <trkpt lat="48.4939" lon="7.12959">
        <ele>743.2175</ele>
        <time>2026-07-09T14:59:35Z</time>
      </trkpt>
      <trkpt lat="48.49392" lon="7.12967">
        <ele>743.2175</ele>
        <time>2026-07-09T14:59:41Z</time>
      </trkpt>
      <trkpt lat="48.49393" lon="7.12974">
        <ele>743.2175</ele>
        <time>2026-07-09T14:59:44Z</time>
      </trkpt>
      <trkpt lat="48.49394" lon="7.12981">
        <ele>743.2175</ele>
        <time>2026-07-09T14:59:49Z</time>
      </trkpt>
      <trkpt lat="48.49395" lon="7.12989">
        <ele>743.2175</ele>
        <time>2026-07-09T14:59:52Z</time>
      </trkpt>
      <trkpt lat="48.49396" lon="7.12997">
        <ele>743.2175</ele>
        <time>2026-07-09T14:59:57Z</time>
      </trkpt>
      <trkpt lat="48.49397" lon="7.13004">
        <ele>743.2175</ele>
        <time>2026-07-09T15:00:01Z</time>
      </trkpt>
      <trkpt lat="48.49397" lon="7.13012">
        <ele>743.2175</ele>
        <time>2026-07-09T15:00:06Z</time>
      </trkpt>
      <trkpt lat="48.49398" lon="7.13019">
        <ele>743.2175</ele>
        <time>2026-07-09T15:00:10Z</time>
      </trkpt>
      <trkpt lat="48.49398" lon="7.13027">
        <ele>743.2175</ele>
        <time>2026-07-09T15:00:19Z</time>
      </trkpt>
      <trkpt lat="48.49398" lon="7.13035">
        <ele>743.2175</ele>
        <time>2026-07-09T15:00:23Z</time>
      </trkpt>
      <trkpt lat="48.49398" lon="7.13042">
        <ele>743.2175</ele>
        <time>2026-07-09T15:00:30Z</time>
      </trkpt>
      <trkpt lat="48.49397" lon="7.13049">
        <ele>743.2175</ele>
        <time>2026-07-09T15:00:32Z</time>
      </trkpt>
      <trkpt lat="48.49397" lon="7.13056">
        <ele>743.2175</ele>
        <time>2026-07-09T15:00:36Z</time>
      </trkpt>
      <trkpt lat="48.49395" lon="7.13065">
        <ele>743.2175</ele>
        <time>2026-07-09T15:00:42Z</time>
      </trkpt>
      <trkpt lat="48.49394" lon="7.13073">
        <ele>743.2175</ele>
        <time>2026-07-09T15:00:46Z</time>
      </trkpt>
      <trkpt lat="48.49392" lon="7.13082">
        <ele>743.2175</ele>
        <time>2026-07-09T15:00:51Z</time>
      </trkpt>
      <trkpt lat="48.4939" lon="7.13089">
        <ele>743.2175</ele>
        <time>2026-07-09T15:00:55Z</time>
      </trkpt>
      <trkpt lat="48.49388" lon="7.13095">
        <ele>743.2175</ele>
        <time>2026-07-09T15:00:58Z</time>
      </trkpt>
      <trkpt lat="48.49386" lon="7.13102">
        <ele>743.2175</ele>
        <time>2026-07-09T15:01:05Z</time>
      </trkpt>
      <trkpt lat="48.49384" lon="7.1311">
        <ele>745.2997</ele>
        <time>2026-07-09T15:01:12Z</time>
      </trkpt>
      <trkpt lat="48.49385" lon="7.13118">
        <ele>747.38184</ele>
        <time>2026-07-09T15:01:17Z</time>
      </trkpt>
      <trkpt lat="48.49379" lon="7.13122">
        <ele>749.464</ele>
        <time>2026-07-09T15:01:22Z</time>
      </trkpt>
      <trkpt lat="48.49376" lon="7.13127">
        <ele>751.54614</ele>
        <time>2026-07-09T15:01:25Z</time>
      </trkpt>
      <trkpt lat="48.49372" lon="7.13133">
        <ele>753.6283</ele>
        <time>2026-07-09T15:01:28Z</time>
      </trkpt>
      <trkpt lat="48.49368" lon="7.13138">
        <ele>753.6283</ele>
        <time>2026-07-09T15:01:32Z</time>
      </trkpt>
      <trkpt lat="48.49361" lon="7.13142">
        <ele>753.6283</ele>
        <time>2026-07-09T15:01:41Z</time>
      </trkpt>
      <trkpt lat="48.49356" lon="7.13145">
        <ele>753.6283</ele>
        <time>2026-07-09T15:01:43Z</time>
      </trkpt>
      <trkpt lat="48.49351" lon="7.13147">
        <ele>753.6283</ele>
        <time>2026-07-09T15:02:05Z</time>
      </trkpt>
    </trkseg>
  </trk>
</gpx>